Provisional Data: Little Pine Creek near Waterville, PA


Please select a monitoring station.
Please select start date.
Please select start date.

Toggle Unit: C/F Toggle Unit: C/F
Sample Time Temperature (C) Temperature (F) Specific Conductivity (mS/cm) pH   Turbidity (NTU+) DO (mg/L)
5/4/2021 12:00:00 AM 12.52 54.536 0.081 7.06 3.31 10.36
5/4/2021 12:15:00 AM 12.52 54.536 0.081 7.06 3.14 10.36
5/4/2021 12:30:00 AM 12.51 54.518 0.081 7.02 3.05 10.36
5/4/2021 12:45:00 AM 12.5 54.5 0.081 7.05 3.2 10.37
5/4/2021 1:00:00 AM 12.48 54.464 0.081 7.02 4.12 10.37
5/4/2021 1:15:00 AM 12.46 54.428 0.081 7.05 3.4 10.37
5/4/2021 1:30:00 AM 12.45 54.41 0.081 7.03 3.08 10.38
5/4/2021 1:45:00 AM 12.44 54.392 0.081 7.04 3.13 10.39
5/4/2021 2:00:00 AM 12.42 54.356 0.081 7.05 3.07 10.39
5/4/2021 2:15:00 AM 12.4 54.32 0.081 7.05 3.15 10.4
5/4/2021 2:30:00 AM 12.38 54.284 0.081 7.06 3.54 10.4
5/4/2021 2:45:00 AM 12.36 54.248 0.081 7.05 3.42 10.4
5/4/2021 3:00:00 AM 12.35 54.23 0.081 7.01 3.19 10.41
5/4/2021 3:15:00 AM 12.33 54.194 0.081 7.08 3.3 10.41
5/4/2021 3:30:00 AM 12.32 54.176 0.081 7.05 3.15 10.42
5/4/2021 3:45:00 AM 12.3 54.14 0.08 7.06 3.08 10.43
5/4/2021 4:00:00 AM 12.29 54.122 0.08 6.99 3.31 10.43
5/4/2021 4:15:00 AM 12.27 54.086 0.08 7.07 3.16 10.43
5/4/2021 4:30:00 AM 12.26 54.068 0.08 7.04 3.06 10.44
5/4/2021 4:45:00 AM 12.25 54.05 0.08 7.03 3.53 10.44
5/4/2021 5:00:00 AM 12.24 54.032 0.08 7.05 3.31 10.45
5/4/2021 5:15:00 AM 12.23 54.014 0.08 7.05 3.18 10.45
5/4/2021 5:30:00 AM 12.22 53.996 0.08 7.05 3.45 10.44
5/4/2021 5:45:00 AM 12.21 53.978 0.08 7.06 3.38 10.45
5/4/2021 6:00:00 AM 12.19 53.942 0.08 7.08 3.22 10.45
5/4/2021 6:15:00 AM 12.18 53.924 0.08 7.07 3.17 10.46
5/4/2021 6:30:00 AM 12.17 53.906 0.08 7.08 3.45 10.48
5/4/2021 6:45:00 AM 12.15 53.87 0.08 7.06 3.14 10.49
5/4/2021 7:00:00 AM 12.14 53.852 0.081 7.07 3.17 10.52
5/4/2021 7:15:00 AM 12.13 53.834 0.081 7.07 3.1 10.54
5/4/2021 7:30:00 AM 12.13 53.834 0.08 6.98 2.96 10.59
5/4/2021 7:45:00 AM 12.13 53.834 0.08 7.06 3.69 10.62
5/4/2021 8:00:00 AM 12.13 53.834 0.08 7.06 3.13 10.65
5/4/2021 8:15:00 AM 12.14 53.852 0.08 7.1 3.02 10.69
5/4/2021 8:30:00 AM 12.16 53.888 0.08 7.11 2.93 10.71
5/4/2021 8:45:00 AM 12.19 53.942 0.08 7.11 2.88 10.77
5/4/2021 9:00:00 AM 12.23 54.014 0.08 7.11 2.94 10.81
5/4/2021 9:15:00 AM 12.27 54.086 0.08 7.14 2.96 10.86
5/4/2021 9:30:00 AM 12.31 54.158 0.08 7.17 3 10.88
5/4/2021 9:45:00 AM 12.39 54.302 0.08 7.18 3.09 10.92
5/4/2021 10:00:00 AM 12.51 54.518 0.08 7.19 2.96 10.94
5/4/2021 10:15:00 AM 12.56 54.608 0.08 7.21 3.11 10.96
5/4/2021 10:30:00 AM 12.67 54.806 0.08 7.2 3.03 10.96
5/4/2021 10:45:00 AM 12.73 54.914 0.08 7.22 3.17 10.96
5/4/2021 11:00:00 AM 12.81 55.058 0.08 7.24 3.06 10.97
5/4/2021 11:15:00 AM 12.8 55.04 0.08 7.22 2.97 10.95
5/4/2021 11:30:00 AM 12.84 55.112 0.081 7.23 3.12 10.95
5/4/2021 11:45:00 AM 12.96 55.328 0.081 7.24 3.08 10.95
5/4/2021 12:00:00 PM 13.03 55.454 0.081 7.24 2.98 10.94
5/4/2021 12:15:00 PM 13.08 55.544 0.081 7.24 4.03 10.93
5/4/2021 12:30:00 PM 13.1 55.58 0.081 7.24 3.05 10.92
5/4/2021 12:45:00 PM 13.29 55.922 0.081 7.24 3.54 10.93
5/4/2021 1:00:00 PM 13.33 55.994 0.081 7.24 3 10.92
5/4/2021 1:15:00 PM 13.32 55.976 0.081 7.25 3.01 10.91
5/4/2021 1:30:00 PM 13.28 55.904 0.081 7.25 3.1 10.92
5/4/2021 1:45:00 PM 13.34 56.012 0.081 7.26 3.81 10.91
5/4/2021 2:00:00 PM 13.34 56.012 0.081 7.24 3.08 10.92
5/4/2021 2:15:00 PM 13.39 56.102 0.081 7.26 3.08 10.92
5/4/2021 2:30:00 PM 13.43 56.174 0.081 7.26 3.59 10.92
5/4/2021 2:45:00 PM 13.35 56.03 0.081 7.26 2.89 10.91
5/4/2021 3:00:00 PM 13.36 56.048 0.081 7.27 3.24 10.91
5/4/2021 3:15:00 PM 13.29 55.922 0.081 7.25 3.09 10.88
5/4/2021 3:30:00 PM 13.23 55.814 0.081 7.23 2.94 10.85
5/4/2021 3:45:00 PM 13.17 55.706 0.081 7.23 3.18 10.85
5/4/2021 4:00:00 PM 13.16 55.688 0.081 7.24 3.92 10.86
5/4/2021 4:15:00 PM 13.11 55.598 0.081 7.25 3.2 10.85
5/4/2021 4:30:00 PM 13.13 55.634 0.081 7.22 3.28 10.86
5/4/2021 4:45:00 PM 13.14 55.652 0.081 7.24 2.89 10.85
5/4/2021 5:00:00 PM 13.15 55.67 0.081 7.22 9.39 10.85
5/4/2021 5:15:00 PM 13.05 55.49 0.081 7.23 3.15 10.85
5/4/2021 5:30:00 PM 13.01 55.418 0.081 7.23 20.25 10.84
5/4/2021 5:45:00 PM 13 55.4 0.081 7.23 10.65 10.81
5/4/2021 6:00:00 PM 13.02 55.436 0.081 7.24 2.98 10.78
5/4/2021 6:15:00 PM 13.04 55.472 0.081 7.23 3.31 10.73
5/4/2021 6:30:00 PM 13.1 55.58 0.081 7.12 3.56 10.69
5/4/2021 6:45:00 PM 13.2 55.76 0.081 7.22 3.05 10.66
5/4/2021 7:00:00 PM 13.23 55.814 0.081 7.22 2.99 10.62
5/4/2021 7:15:00 PM 13.22 55.796 0.081 7.2 3.89 10.57
5/4/2021 7:30:00 PM 13.27 55.886 0.081 7.2 2.8 10.5
5/4/2021 7:45:00 PM 13.3 55.94 0.081 7.19 3.07 10.43
5/4/2021 8:00:00 PM 13.38 56.084 0.081 7.02 3.06 10.35
5/4/2021 8:15:00 PM 13.48 56.264 0.081 7.19 3.47 10.29
5/4/2021 8:30:00 PM 13.55 56.39 0.081 7.16 2.97 10.24
5/4/2021 8:45:00 PM 13.57 56.426 0.081 7.13 3.6 10.21
5/4/2021 9:00:00 PM 13.56 56.408 0.081 7.14 3.28 10.18
5/4/2021 9:15:00 PM 13.53 56.354 0.081 7.14 3.12 10.17
5/4/2021 9:30:00 PM 13.5 56.3 0.081 7.14 3.33 10.17
5/4/2021 9:45:00 PM 13.45 56.21 0.081 7.12 3.14 10.16
5/4/2021 10:00:00 PM 13.39 56.102 0.081 7.11 3.04 10.18
5/4/2021 10:15:00 PM 13.32 55.976 0.081 7.09 3.22 10.19
5/4/2021 10:30:00 PM 13.26 55.868 0.081 7.08 3.25 10.2
5/4/2021 10:45:00 PM 13.23 55.814 0.081 7.07 3 10.21
5/4/2021 11:00:00 PM 13.23 55.814 0.081 7.08 3.29 10.2
5/4/2021 11:15:00 PM 13.25 55.85 0.081 7.09 3.04 10.2
5/4/2021 11:30:00 PM 13.27 55.886 0.081 7.08 3.13 10.2
5/4/2021 11:45:00 PM 13.3 55.94 0.081 7.09 3.02 10.19
5/5/2021 12:00:00 AM 13.35 56.03 0.081 7.11 3.07 10.17
5/5/2021 12:15:00 AM 13.39 56.102 0.081 7.09 4.33 10.15
5/5/2021 12:30:00 AM 13.43 56.174 0.081 7.07 8.44 10.13
5/5/2021 12:45:00 AM 13.47 56.246 0.081 7.08 3.11 10.13
5/5/2021 1:00:00 AM 13.5 56.3 0.081 7.09 2.96 10.12
5/5/2021 1:15:00 AM 13.53 56.354 0.081 7.07 3 10.12
5/5/2021 1:30:00 AM 13.55 56.39 0.081 7.08 2.89 10.11
5/5/2021 1:45:00 AM 13.55 56.39 0.081 7.08 2.96 10.1
5/5/2021 2:00:00 AM 13.56 56.408 0.081 6.98 3.07 10.1
5/5/2021 2:15:00 AM 13.56 56.408 0.081 7.1 3.14 10.1
5/5/2021 2:30:00 AM 13.57 56.426 0.081 7.08 3.08 10.1
5/5/2021 2:45:00 AM 13.56 56.408 0.081 7.06 3.15 10.1
5/5/2021 3:00:00 AM 13.55 56.39 0.081 7.06 2.8 10.1
5/5/2021 3:15:00 AM 13.55 56.39 0.081 7.06 2.96 10.1
5/5/2021 3:30:00 AM 13.56 56.408 0.081 7.06 3.01 10.09
5/5/2021 3:45:00 AM 13.56 56.408 0.081 7.06 3.03 10.09
5/5/2021 4:00:00 AM 13.57 56.426 0.081 7.04 2.99 10.09
5/5/2021 4:15:00 AM 13.57 56.426 0.081 7.07 3.14 10.09
5/5/2021 4:30:00 AM 13.56 56.408 0.081 7.06 2.82 10.09
5/5/2021 4:45:00 AM 13.55 56.39 0.081 7.05 2.71 10.09
5/5/2021 5:00:00 AM 13.54 56.372 0.081 7.04 3 10.1
5/5/2021 5:15:00 AM 13.53 56.354 0.081 7.05 2.86 10.1
5/5/2021 5:30:00 AM 13.52 56.336 0.081 7.05 2.88 10.09
5/5/2021 5:45:00 AM 13.51 56.318 0.081 7.05 2.98 10.1
5/5/2021 6:00:00 AM 13.5 56.3 0.081 7.04 2.78 10.1
5/5/2021 6:15:00 AM 13.5 56.3 0.081 7.04 2.86 10.1
5/5/2021 6:30:00 AM 13.51 56.318 0.081 7.04 2.83 10.1
5/5/2021 6:45:00 AM 13.52 56.336 0.081 7.04 2.93 10.11
5/5/2021 7:00:00 AM 13.53 56.354 0.081 7.05 2.9 10.12
5/5/2021 7:15:00 AM 13.53 56.354 0.081 7.05 2.81 10.14
5/5/2021 7:30:00 AM 13.53 56.354 0.081 7.04 3.14 10.16
5/5/2021 7:45:00 AM 13.54 56.372 0.081 7.06 2.81 10.16
5/5/2021 8:00:00 AM 13.54 56.372 0.081 7.06 2.85 10.17
5/5/2021 8:15:00 AM 13.54 56.372 0.081 7.05 3.5 10.17
5/5/2021 8:30:00 AM 13.54 56.372 0.081 7.07 3.37 10.2
5/5/2021 8:45:00 AM 13.55 56.39 0.081 7.07 3.28 10.23
5/5/2021 9:00:00 AM 13.56 56.408 0.081 7.09 3.19 10.25
5/5/2021 9:15:00 AM 13.56 56.408 0.081 7.03 2.72 10.28
5/5/2021 9:30:00 AM 13.56 56.408 0.081 7.08 2.99 10.29
5/5/2021 9:45:00 AM 13.55 56.39 0.081 7.07 2.87 10.31
5/5/2021 10:00:00 AM 13.55 56.39 0.081 7.09 3.04 10.34
5/5/2021 10:15:00 AM 13.56 56.408 0.081 7.11 2.88 10.39
5/5/2021 10:30:00 AM 13.57 56.426 0.081 7.12 2.86 10.42
5/5/2021 10:45:00 AM 13.56 56.408 0.081 7.13 2.81 10.43
5/5/2021 11:00:00 AM 13.55 56.39 0.081 7.13 2.77 10.45
5/5/2021 11:15:00 AM 13.54 56.372 0.081 7.14 2.82 10.48
5/5/2021 11:30:00 AM 13.53 56.354 0.081 7.16 3.09 10.5
5/5/2021 11:45:00 AM 13.53 56.354 0.081 7.17 2.88 10.53
5/5/2021 12:00:00 PM 13.53 56.354 0.081 7.18 2.81 10.56
5/5/2021 12:15:00 PM 13.55 56.39 0.081 7.19 2.96 10.6
5/5/2021 12:30:00 PM 13.6 56.48 0.081 7.16 2.83 10.63
5/5/2021 12:45:00 PM 13.59 56.462 0.081 7.22 3.09 10.65
5/5/2021 1:00:00 PM 13.6 56.48 0.081 7.23 2.98 10.66
5/5/2021 1:15:00 PM 13.6 56.48 0.081 7.23 2.8 10.66
5/5/2021 1:30:00 PM 13.6 56.48 0.082 7.23 2.93 10.65
5/5/2021 1:45:00 PM 13.6 56.48 0.082 7.23 2.88 10.64
5/5/2021 2:00:00 PM 13.61 56.498 0.082 7.24 3.41 10.65
5/5/2021 2:15:00 PM 13.6 56.48 0.082 7.23 2.83 10.64
5/5/2021 2:30:00 PM 13.59 56.462 0.082 7.22 2.77 10.64
5/5/2021 2:45:00 PM 13.61 56.498 0.082 7.23 2.86 10.65
5/5/2021 3:00:00 PM 13.64 56.552 0.082 7.25 2.78 10.67
5/5/2021 3:15:00 PM 13.64 56.552 0.082 7.25 3.2 10.68
5/5/2021 3:30:00 PM 13.65 56.57 0.082 7.27 3.92 10.7
5/5/2021 3:45:00 PM 13.7 56.66 0.082 7.29 3.54 10.71
5/5/2021 4:00:00 PM 13.74 56.732 0.082 7.29 3.45 10.7
5/5/2021 4:15:00 PM 13.74 56.732 0.082 7.29 3.43 10.68
5/5/2021 4:30:00 PM 13.73 56.714 0.082 7.24 3.46 10.65
5/5/2021 4:45:00 PM 13.75 56.75 0.082 7.27 3.6 10.63
5/5/2021 5:00:00 PM 13.84 56.912 0.082 7.3 3.23 10.64
5/5/2021 5:15:00 PM 13.86 56.948 0.082 7.3 3.63 10.62
5/5/2021 5:30:00 PM 13.86 56.948 0.081 7.28 3.68 10.61
5/5/2021 5:45:00 PM 13.85 56.93 0.081 7.27 3.49 10.58
5/5/2021 6:00:00 PM 13.84 56.912 0.081 7.26 3.27 10.55
5/5/2021 6:15:00 PM 13.82 56.876 0.081 7.27 2.82 10.55
5/5/2021 6:30:00 PM 13.79 56.822 0.081 7.23 2.74 10.52
5/5/2021 6:45:00 PM 13.8 56.84 0.081 7.26 2.73 10.53
5/5/2021 7:00:00 PM 13.77 56.786 0.082 7.17 3.05 10.5
5/5/2021 7:15:00 PM 13.72 56.696 0.082 7.26 3.03 10.47
5/5/2021 7:30:00 PM 13.65 56.57 0.082 7.22 2.93 10.43
5/5/2021 7:45:00 PM 13.57 56.426 0.082 7.21 3 10.4
5/5/2021 8:00:00 PM 13.5 56.3 0.082 7.19 2.83 10.38
5/5/2021 8:15:00 PM 13.43 56.174 0.082 7.19 2.99 10.34
5/5/2021 8:30:00 PM 13.35 56.03 0.082 7.17 3.23 10.33
5/5/2021 8:45:00 PM 13.28 55.904 0.082 7.15 3.3 10.32
5/5/2021 9:00:00 PM 13.19 55.742 0.083 7.1 3.37 10.31
5/5/2021 9:15:00 PM 13.1 55.58 0.083 7.12 3.18 10.32
5/5/2021 9:30:00 PM 13.03 55.454 0.083 7.13 3.4 10.32
5/5/2021 9:45:00 PM 12.99 55.382 0.083 7.13 3.37 10.32
5/5/2021 10:00:00 PM 12.97 55.346 0.083 7.13 3.41 10.32
5/5/2021 10:15:00 PM 12.95 55.31 0.083 7.12 3.32 10.32
5/5/2021 10:30:00 PM 12.92 55.256 0.083 7.12 3.41 10.33
5/5/2021 10:45:00 PM 12.9 55.22 0.083 7.12 3.29 10.34
5/5/2021 11:00:00 PM 12.87 55.166 0.083 7.12 3.39 10.35
5/5/2021 11:15:00 PM 12.83 55.094 0.083 7.12 3.32 10.37
5/5/2021 11:30:00 PM 12.8 55.04 0.083 7.12 3.21 10.38
5/5/2021 11:45:00 PM 12.76 54.968 0.083 7.09 3.35 10.39
5/6/2021 12:00:00 AM 12.73 54.914 0.083 7.11 3.29 10.4
5/6/2021 12:15:00 AM 12.69 54.842 0.083 7.11 3.37 10.41
5/6/2021 12:30:00 AM 12.65 54.77 0.083 7.12 3.16 10.42
5/6/2021 12:45:00 AM 12.6 54.68 0.084 7.13 3.15 10.43
5/6/2021 1:00:00 AM 12.55 54.59 0.084 7.14 3.35 10.44
5/6/2021 1:15:00 AM 12.5 54.5 0.084 7.12 3.25 10.45
5/6/2021 1:30:00 AM 12.47 54.446 0.084 7.13 3.3 10.47
5/6/2021 1:45:00 AM 12.44 54.392 0.084 7.12 3.21 10.48
5/6/2021 2:00:00 AM 12.42 54.356 0.084 7.11 3.71 10.48
5/6/2021 2:15:00 AM 12.4 54.32 0.084 7.1 3.27 10.49
5/6/2021 2:30:00 AM 12.39 54.302 0.084 7.12 3.27 10.49
5/6/2021 2:45:00 AM 12.36 54.248 0.084 7.12 3.26 10.5
5/6/2021 3:00:00 AM 12.34 54.212 0.084 7.13 3.51 10.5
5/6/2021 3:15:00 AM 12.31 54.158 0.084 7.14 3.23 10.51
5/6/2021 3:30:00 AM 12.28 54.104 0.084 7.12 3.25 10.52
5/6/2021 3:45:00 AM 12.24 54.032 0.084 7.13 3.18 10.53
5/6/2021 4:00:00 AM 12.2 53.96 0.084 7.12 3.36 10.54
5/6/2021 4:15:00 AM 12.18 53.924 0.084 7.12 3.32 10.54
5/6/2021 4:30:00 AM 12.15 53.87 0.084 7.12 3.49 10.55
5/6/2021 4:45:00 AM 12.12 53.816 0.084 7.12 3.23 10.56
5/6/2021 5:00:00 AM 12.08 53.744 0.084 7.13 3.25 10.56
5/6/2021 5:15:00 AM 12.06 53.708 0.084 7.13 3.42 10.57
5/6/2021 5:30:00 AM 12.05 53.69 0.084 7.12 3.54 10.56
5/6/2021 5:45:00 AM 12.03 53.654 0.084 7.11 6.33 10.56
5/6/2021 6:00:00 AM 12 53.6 0.084 7.02 3.2 10.58
5/6/2021 6:15:00 AM 11.97 53.546 0.084 7.13 3.28 10.6
5/6/2021 6:30:00 AM 11.95 53.51 0.084 7.13 3.33 10.62
5/6/2021 6:45:00 AM 11.92 53.456 0.084 7.14 3.34 10.65
5/6/2021 7:00:00 AM 11.89 53.402 0.084 7.14 3.24 10.68
5/6/2021 7:15:00 AM 11.86 53.348 0.084 7.14 3.64 10.71
5/6/2021 7:30:00 AM 11.81 53.258 0.084 7.15 3.61 10.73
5/6/2021 7:45:00 AM 11.77 53.186 0.084 7.16 3.21 10.76
5/6/2021 8:00:00 AM 11.76 53.168 0.084 7.16 5.57 10.82
5/6/2021 8:15:00 AM 11.76 53.168 0.084 7.16 3.2 10.87
5/6/2021 8:30:00 AM 11.76 53.168 0.084 7.17 4.48 10.92
5/6/2021 8:45:00 AM 11.76 53.168 0.084 7.19 4.29 10.96
5/6/2021 9:00:00 AM 11.74 53.132 0.084 7.2 4.28 10.99
5/6/2021 9:15:00 AM 11.75 53.15 0.084 7.21 3.94 11.02
5/6/2021 9:30:00 AM 11.76 53.168 0.083 7.23 3.17 11.06
5/6/2021 9:45:00 AM 11.76 53.168 0.083 7.24 3.23 11.09
5/6/2021 10:00:00 AM 11.77 53.186 0.083 7.24 4.78 11.12
5/6/2021 10:15:00 AM 11.86 53.348 0.083 7.25 3.18 11.15
5/6/2021 10:30:00 AM 11.87 53.366 0.083 7.25 2.96 11.16
5/6/2021 10:45:00 AM 11.91 53.438 0.083 7.26 4.3 11.16
5/6/2021 11:00:00 AM 12.05 53.69 0.083 7.27 4.52 11.16
5/6/2021 11:15:00 AM 12.18 53.924 0.083 7.28 4.54 11.17
5/6/2021 11:30:00 AM 12.34 54.212 0.083 7.29 3.85 11.17
5/6/2021 11:45:00 AM 12.45 54.41 0.083 7.3 3.18 11.15
5/6/2021 12:00:00 PM 12.58 54.644 0.083 7.31 3.2 11.14
5/6/2021 12:15:00 PM 12.77 54.986 0.083 7.32 3.91 11.13
5/6/2021 12:30:00 PM 12.94 55.292 0.083 7.33 3.95 11.12
5/6/2021 12:45:00 PM 13 55.4 0.083 7.33 2.93 11.11
5/6/2021 1:00:00 PM 13.02 55.436 0.083 7.33 2.99 11.11
5/6/2021 1:15:00 PM 13 55.4 0.083 7.33 2.97 11.1
5/6/2021 1:30:00 PM 13.05 55.49 0.083 7.34 3.07 11.09
5/6/2021 1:45:00 PM 13.12 55.616 0.083 7.34 2.86 11.09
5/6/2021 2:00:00 PM 13.19 55.742 0.083 7.33 3.14 11.07
5/6/2021 2:15:00 PM 13.26 55.868 0.083 7.35 3.17 11.07
5/6/2021 2:30:00 PM 13.29 55.922 0.083 7.35 2.99 11.06
5/6/2021 2:45:00 PM 13.31 55.958 0.083 7.35 5.14 11.05
5/6/2021 3:00:00 PM 13.36 56.048 0.083 7.36 3.22 11.05
5/6/2021 3:15:00 PM 13.31 55.958 0.084 7.26 3.03 11.04
5/6/2021 3:30:00 PM 13.22 55.796 0.084 7.33 3.1 11.04
5/6/2021 3:45:00 PM 13.24 55.832 0.084 7.34 2.95 11.04
5/6/2021 4:00:00 PM 13.24 55.832 0.084 7.34 3.3 11.04
5/6/2021 4:15:00 PM 13.29 55.922 0.084 7.28 3.01 11.04
5/6/2021 4:30:00 PM 13.28 55.904 0.084 7.34 2.93 11.03
5/6/2021 4:45:00 PM 13.17 55.706 0.084 7.35 2.91 11.02
5/6/2021 5:00:00 PM 13.1 55.58 0.084 7.31 3.09 11
5/6/2021 5:15:00 PM 12.99 55.382 0.084 7.32 6.37 10.98
5/6/2021 5:30:00 PM 12.89 55.202 0.084 7.3 3.41 10.97
5/6/2021 5:45:00 PM 12.8 55.04 0.084 7.31 3.12 10.95
5/6/2021 6:00:00 PM 12.73 54.914 0.084 7.3 3.12 10.95
5/6/2021 6:15:00 PM 12.65 54.77 0.084 7.3 3.71 10.94
5/6/2021 6:30:00 PM 12.57 54.626 0.084 7.22 2.98 10.92
5/6/2021 6:45:00 PM 12.51 54.518 0.084 7.3 3.24 10.9
5/6/2021 7:00:00 PM 12.45 54.41 0.084 7.28 2.94 10.87
5/6/2021 7:15:00 PM 12.38 54.284 0.084 7.22 2.89 10.85
5/6/2021 7:30:00 PM 12.3 54.14 0.084 7.23 2.89 10.82
5/6/2021 7:45:00 PM 12.24 54.032 0.084 7.23 3 10.78
5/6/2021 8:00:00 PM 12.19 53.942 0.084 7.23 2.94 10.74
5/6/2021 8:15:00 PM 12.14 53.852 0.084 7.17 7.33 10.7
5/6/2021 8:30:00 PM 12.09 53.762 0.084 7.19 3.38 10.66
5/6/2021 8:45:00 PM 12.04 53.672 0.085 7.19 3.2 10.63
5/6/2021 9:00:00 PM 11.99 53.582 0.085 7.17 3.1 10.61
5/6/2021 9:15:00 PM 11.94 53.492 0.085 7.17 3.07 10.6
5/6/2021 9:30:00 PM 11.88 53.384 0.085 7.16 5.04 10.6
5/6/2021 9:45:00 PM 11.83 53.294 0.085 7.1 3.74 10.6
5/6/2021 10:00:00 PM 11.77 53.186 0.085 7.15 3.14 10.6
5/6/2021 10:15:00 PM 11.72 53.096 0.085 7.09 3.55 10.61
5/6/2021 10:30:00 PM 11.68 53.024 0.085 7.13 2.99 10.61
5/6/2021 10:45:00 PM 11.65 52.97 0.085 7.16 3.04 10.62
5/6/2021 11:00:00 PM 11.62 52.916 0.085 7.15 3.03 10.62
5/6/2021 11:15:00 PM 11.59 52.862 0.085 7.15 3.1 10.63
5/6/2021 11:30:00 PM 11.55 52.79 0.085 7.15 2.89 10.64
5/6/2021 11:45:00 PM 11.52 52.736 0.085 7.15 3.09 10.64
5/7/2021 12:00:00 AM 11.49 52.682 0.085 7.1 3.02 10.65
5/7/2021 12:15:00 AM 11.46 52.628 0.085 7.14 2.96 10.66
5/7/2021 12:30:00 AM 11.43 52.574 0.085 7.14 3.04 10.66
5/7/2021 12:45:00 AM 11.4 52.52 0.085 7.14 2.85 10.67
5/7/2021 1:00:00 AM 11.38 52.484 0.085 7.14 2.94 10.67
5/7/2021 1:15:00 AM 11.36 52.448 0.085 7.14 3.18 10.68
5/7/2021 1:30:00 AM 11.32 52.376 0.085 7.11 3.01 10.68
5/7/2021 1:45:00 AM 11.29 52.322 0.085 7.14 2.98 10.69
5/7/2021 2:00:00 AM 11.26 52.268 0.085 7.14 3.09 10.69
5/7/2021 2:15:00 AM 11.24 52.232 0.085 7.14 2.83 10.7
5/7/2021 2:30:00 AM 11.22 52.196 0.085 7.1 3.08 10.7
5/7/2021 2:45:00 AM 11.21 52.178 0.085 7.14 3.01 10.7
5/7/2021 3:00:00 AM 11.19 52.142 0.085 7.14 3.04 10.71
5/7/2021 3:15:00 AM 11.18 52.124 0.085 7.15 2.98 10.71
5/7/2021 3:30:00 AM 11.17 52.106 0.085 7.15 3.03 10.71
5/7/2021 3:45:00 AM 11.16 52.088 0.085 7.16 2.92 10.72
5/7/2021 4:00:00 AM 11.14 52.052 0.085 7.15 3.26 10.72
5/7/2021 4:15:00 AM 11.12 52.016 0.085 7.15 3.52 10.72
5/7/2021 4:30:00 AM 11.1 51.98 0.085 7.14 3.1 10.73
5/7/2021 4:45:00 AM 11.07 51.926 0.085 7.14 3.06 10.73
5/7/2021 5:00:00 AM 11.06 51.908 0.085 7.14 2.84 10.73
5/7/2021 5:15:00 AM 11.05 51.89 0.085 7.14 3.01 10.73
5/7/2021 5:30:00 AM 11.03 51.854 0.085 7.15 2.78 10.74
5/7/2021 5:45:00 AM 11.01 51.818 0.085 7.14 3.04 10.74
5/7/2021 6:00:00 AM 10.99 51.782 0.085 7.14 3.11 10.74
5/7/2021 6:15:00 AM 10.98 51.764 0.085 7.15 2.97 10.76
5/7/2021 6:30:00 AM 10.97 51.746 0.085 7.11 3.79 10.78
5/7/2021 6:45:00 AM 10.98 51.764 0.085 7.14 2.9 10.81
5/7/2021 7:00:00 AM 10.98 51.764 0.085 7.16 3.24 10.84
5/7/2021 7:15:00 AM 10.99 51.782 0.085 7.15 2.78 10.88
5/7/2021 7:30:00 AM 11 51.8 0.085 7.18 2.94 10.92
5/7/2021 7:45:00 AM 11.02 51.836 0.085 7.19 3.99 10.97
5/7/2021 8:00:00 AM 11.04 51.872 0.084 7.2 2.7 11.01
5/7/2021 8:15:00 AM 11.06 51.908 0.084 7.21 2.69 11.06
5/7/2021 8:30:00 AM 11.08 51.944 0.084 7.22 3.66 11.1
5/7/2021 8:45:00 AM 11.11 51.998 0.084 7.23 4.02 11.13
5/7/2021 9:00:00 AM 11.14 52.052 0.084 7.24 2.73 11.17
5/7/2021 9:15:00 AM 11.17 52.106 0.084 7.25 2.79 11.19
5/7/2021 9:30:00 AM 11.2 52.16 0.084 7.24 2.75 11.22
5/7/2021 9:45:00 AM 11.25 52.25 0.084 7.27 2.83 11.24
5/7/2021 10:00:00 AM 11.29 52.322 0.084 7.28 10.93 11.25
5/7/2021 10:15:00 AM 11.35 52.43 0.084 7.29 3.45 11.27
5/7/2021 10:30:00 AM 11.4 52.52 0.084 7.3 3.06 11.27
5/7/2021 10:45:00 AM 11.49 52.682 0.084 7.32 2.95 11.28
5/7/2021 11:00:00 AM 11.56 52.808 0.084 7.31 2.84 11.28
5/7/2021 11:15:00 AM 11.66 52.988 0.084 7.32 2.78 11.28
5/7/2021 11:30:00 AM 11.78 53.204 0.084 7.33 4.55 11.28
5/7/2021 11:45:00 AM 11.89 53.402 0.084 7.32 3.74 11.28
5/7/2021 12:00:00 PM 11.95 53.51 0.084 7.33 3.85 11.27
5/7/2021 12:15:00 PM 12.06 53.708 0.084 7.35 2.99 11.26
5/7/2021 12:30:00 PM 12.11 53.798 0.085 7.35 2.75 11.25
5/7/2021 12:45:00 PM 12.06 53.708 0.085 7.34 2.75 11.24
5/7/2021 1:00:00 PM 11.95 53.51 0.085 7.33 2.82 11.22
5/7/2021 1:15:00 PM 11.86 53.348 0.085 7.34 2.85 11.21
5/7/2021 1:30:00 PM 11.79 53.222 0.085 7.33 2.83 11.21
5/7/2021 1:45:00 PM 11.68 53.024 0.085 7.32 4.82 11.2
5/7/2021 2:00:00 PM 11.57 52.826 0.085 7.28 3.03 11.21
5/7/2021 2:15:00 PM 11.47 52.646 0.085 7.3 3.04 11.2
5/7/2021 2:30:00 PM 11.38 52.484 0.085 7.3 3.89 11.21
5/7/2021 2:45:00 PM 11.31 52.358 0.085 7.26 2.9 11.24
5/7/2021 3:00:00 PM 11.28 52.304 0.085 7.28 3.06 11.28
5/7/2021 3:15:00 PM 11.21 52.178 0.085 7.29 4.35 11.31
5/7/2021 3:30:00 PM 11.15 52.07 0.085 7.31 2.95 11.33
5/7/2021 3:45:00 PM 11.04 51.872 0.085 7.3 2.96 11.33
5/7/2021 4:00:00 PM 10.92 51.656 0.085 7.28 2.8 11.31
5/7/2021 4:15:00 PM 10.81 51.458 0.086 7.28 3.09 11.29
5/7/2021 4:30:00 PM 10.71 51.278 0.086 7.27 2.79 11.26
5/7/2021 4:45:00 PM 10.62 51.116 0.085 7.25 2.9 11.25
5/7/2021 5:00:00 PM 10.55 50.99 0.086 7.24 3.23 11.25
5/7/2021 5:15:00 PM 10.49 50.882 0.086 7.27 3.24 11.24
5/7/2021 5:30:00 PM 10.47 50.846 0.086 7.24 7.1 11.22
5/7/2021 5:45:00 PM 10.46 50.828 0.086 7.23 5.17 11.18
5/7/2021 6:00:00 PM 10.47 50.846 0.085 7.23 3.19 11.14
5/7/2021 6:15:00 PM 10.48 50.864 0.085 7.22 2.93 11.1
5/7/2021 6:30:00 PM 10.51 50.918 0.085 7.21 3.24 11.07
5/7/2021 6:45:00 PM 10.54 50.972 0.085 7.2 3.31 11.03
5/7/2021 7:00:00 PM 10.58 51.044 0.085 7.19 3.33 10.99
5/7/2021 7:15:00 PM 10.63 51.134 0.085 7.18 4.03 10.95
5/7/2021 7:30:00 PM 10.69 51.242 0.084 7.18 3.34 10.92
5/7/2021 7:45:00 PM 10.73 51.314 0.084 7.16 3.38 10.88
5/7/2021 8:00:00 PM 10.76 51.368 0.084 7.17 3.46 10.86
5/7/2021 8:15:00 PM 10.76 51.368 0.084 7.16 3.23 10.84
5/7/2021 8:30:00 PM 10.76 51.368 0.084 7.15 3.18 10.82
5/7/2021 8:45:00 PM 10.76 51.368 0.084 7.15 3.47 10.81
5/7/2021 9:00:00 PM 10.75 51.35 0.084 7.14 3.17 10.81
5/7/2021 9:15:00 PM 10.75 51.35 0.084 7.14 3.36 10.8
5/7/2021 9:30:00 PM 10.74 51.332 0.084 7.13 3.29 10.8
5/7/2021 9:45:00 PM 10.74 51.332 0.084 7.14 3.18 10.8
5/7/2021 10:00:00 PM 10.73 51.314 0.084 7.13 3.21 10.8
5/7/2021 10:15:00 PM 10.72 51.296 0.084 7.13 3.35 10.81
5/7/2021 10:30:00 PM 10.72 51.296 0.084 7.13 3.1 10.81
5/7/2021 10:45:00 PM 10.71 51.278 0.084 7.13 3.17 10.82
5/7/2021 11:00:00 PM 10.7 51.26 0.084 7.14 3.11 10.82
5/7/2021 11:15:00 PM 10.69 51.242 0.084 7.14 3.03 10.83
5/7/2021 11:30:00 PM 10.67 51.206 0.084 7.14 2.97 10.84
5/7/2021 11:45:00 PM 10.65 51.17 0.085 7.13 2.98 10.85
5/8/2021 12:00:00 AM 10.63 51.134 0.084 7.15 3.01 10.86
5/8/2021 12:15:00 AM 10.61 51.098 0.084 7.15 3.03 10.87
5/8/2021 12:30:00 AM 10.59 51.062 0.085 7.05 2.87 10.88
5/8/2021 12:45:00 AM 10.57 51.026 0.084 7.15 3.22 10.88
5/8/2021 1:00:00 AM 10.55 50.99 0.084 7.15 3.05 10.89
5/8/2021 1:15:00 AM 10.52 50.936 0.085 7.14 2.96 10.9
5/8/2021 1:30:00 AM 10.5 50.9 0.084 7.14 3.09 10.91
5/8/2021 1:45:00 AM 10.47 50.846 0.084 7.12 3.11 10.92
5/8/2021 2:00:00 AM 10.44 50.792 0.084 7.14 3.04 10.93
5/8/2021 2:15:00 AM 10.41 50.738 0.084 7.13 2.99 10.94
5/8/2021 2:30:00 AM 10.38 50.684 0.084 7.15 2.93 10.95
5/8/2021 2:45:00 AM 10.36 50.648 0.084 7.14 3.21 10.95
5/8/2021 3:00:00 AM 10.34 50.612 0.084 7.14 2.97 10.96
5/8/2021 3:15:00 AM 10.32 50.576 0.084 7.12 3.09 10.97
5/8/2021 3:30:00 AM 10.29 50.522 0.084 7.11 3.12 10.98
5/8/2021 3:45:00 AM 10.27 50.486 0.084 7.14 3.04 10.99
5/8/2021 4:00:00 AM 10.26 50.468 0.084 7.14 2.97 11
5/8/2021 4:15:00 AM 10.25 50.45 0.084 7.15 3.06 11.01
5/8/2021 4:30:00 AM 10.24 50.432 0.084 7.16 3.96 11.01
5/8/2021 4:45:00 AM 10.22 50.396 0.084 7.15 19.39 11.02
5/8/2021 5:00:00 AM 10.19 50.342 0.084 7.14 3.17 11.03
5/8/2021 5:15:00 AM 10.17 50.306 0.084 7.14 3.12 11.04
5/8/2021 5:30:00 AM 10.16 50.288 0.084 7.14 3.26 11.04
5/8/2021 5:45:00 AM 10.14 50.252 0.084 7.12 3.22 11.05
5/8/2021 6:00:00 AM 10.12 50.216 0.084 7.13 3.44 11.07
5/8/2021 6:15:00 AM 10.09 50.162 0.084 7.14 3.42 11.09
5/8/2021 6:30:00 AM 10.07 50.126 0.084 7.14 3.25 11.11
5/8/2021 6:45:00 AM 10.06 50.108 0.084 7.14 3.36 11.13
5/8/2021 7:00:00 AM 10.06 50.108 0.084 7.15 3.35 11.17
5/8/2021 7:15:00 AM 10.07 50.126 0.084 7.13 3.18 11.22
5/8/2021 7:30:00 AM 10.09 50.162 0.084 7.16 3.19 11.26
5/8/2021 7:45:00 AM 10.1 50.18 0.084 7.18 3.84 11.32
5/8/2021 8:00:00 AM 10.12 50.216 0.084 7.16 3.23 11.36
5/8/2021 8:15:00 AM 10.14 50.252 0.084 7.2 3.25 11.39
5/8/2021 8:30:00 AM 10.16 50.288 0.084 7.21 3.12 11.42
5/8/2021 8:45:00 AM 10.19 50.342 0.084 7.22 3.28 11.45
5/8/2021 9:00:00 AM 10.21 50.378 0.084 7.23 4.48 11.48
5/8/2021 9:15:00 AM 10.25 50.45 0.084 7.24 3.54 11.51
5/8/2021 9:30:00 AM 10.25 50.45 0.084 7.24 3.4 11.51
5/8/2021 9:45:00 AM 10.23 50.414 0.084 7.24 3.27 11.51
5/8/2021 10:00:00 AM 10.23 50.414 0.084 7.25 3.38 11.52
5/8/2021 10:15:00 AM 10.25 50.45 0.084 7.25 3.47 11.54
5/8/2021 10:30:00 AM 10.25 50.45 0.084 7.24 3.38 11.56
5/8/2021 10:45:00 AM 10.28 50.504 0.084 7.25 3.43 11.58
5/8/2021 11:00:00 AM 10.3 50.54 0.084 7.25 3.65 11.6
5/8/2021 11:15:00 AM 10.28 50.504 0.084 7.25 3.28 11.6
5/8/2021 11:30:00 AM 10.27 50.486 0.084 7.26 3.42 11.61
5/8/2021 11:45:00 AM 10.27 50.486 0.084 7.25 3.37 11.61
5/8/2021 12:00:00 PM 10.23 50.414 0.084 7.25 3.32 11.59
5/8/2021 12:15:00 PM 10.25 50.45 0.083 7.25 4.3 11.6
5/8/2021 12:30:00 PM 10.28 50.504 0.083 7.25 3.39 11.62
5/8/2021 12:45:00 PM 10.29 50.522 0.083 7.22 4.33 11.64
5/8/2021 1:00:00 PM 10.31 50.558 0.083 7.25 3.86 11.65
5/8/2021 1:15:00 PM 10.41 50.738 0.083 7.26 5.19 11.67
5/8/2021 1:30:00 PM 10.43 50.774 0.083 7.26 4.88 11.67
5/8/2021 1:45:00 PM 10.35 50.63 0.083 7.25 4.7 11.66
5/8/2021 2:00:00 PM 10.24 50.432 0.083 7.23 4.43 11.6
5/8/2021 2:15:00 PM 10.18 50.324 0.083 7.21 3.86 11.58
5/8/2021 2:30:00 PM 10.12 50.216 0.082 7.23 3.64 11.57
5/8/2021 2:45:00 PM 10.16 50.288 0.083 7.23 3.82 11.59
5/8/2021 3:00:00 PM 10.32 50.576 0.083 7.25 4.42 11.61
5/8/2021 3:15:00 PM 10.38 50.684 0.083 7.25 3.4 11.6
5/8/2021 3:30:00 PM 10.5 50.9 0.083 7.27 3.24 11.61
5/8/2021 3:45:00 PM 10.7 51.26 0.083 7.27 3.21 11.61
5/8/2021 4:00:00 PM 10.62 51.116 0.083 7.26 3.85 11.57
5/8/2021 4:15:00 PM 10.56 51.008 0.083 7.26 3.98 11.53
5/8/2021 4:30:00 PM 10.47 50.846 0.083 7.24 3.62 11.49
5/8/2021 4:45:00 PM 10.39 50.702 0.083 7.23 7.08 11.49
5/8/2021 5:00:00 PM 10.39 50.702 0.082 7.25 3.12 11.51
5/8/2021 5:15:00 PM 10.37 50.666 0.082 7.26 3.63 11.51
5/8/2021 5:30:00 PM 10.29 50.522 0.082 7.24 3.43 11.5
5/8/2021 5:45:00 PM 10.25 50.45 0.082 7.23 3.42 11.47
5/8/2021 6:00:00 PM 10.22 50.396 0.082 7.23 3.6 11.46
5/8/2021 6:15:00 PM 10.18 50.324 0.082 7.17 3.23 11.48
5/8/2021 6:30:00 PM 10.15 50.27 0.082 7.24 3.24 11.48
5/8/2021 6:45:00 PM 10.11 50.198 0.082 7.22 3.33 11.47
5/8/2021 7:00:00 PM 10.05 50.09 0.082 7.17 3.16 11.47
5/8/2021 7:15:00 PM 9.98 49.964 0.082 7.23 3.5 11.45
5/8/2021 7:30:00 PM 9.92 49.856 0.082 7.21 4.33 11.44
5/8/2021 7:45:00 PM 9.9 49.82 0.082 7.21 3.48 11.43
5/8/2021 8:00:00 PM 9.88 49.784 0.082 7.16 3.3 11.4
5/8/2021 8:15:00 PM 9.86 49.748 0.082 7.18 3.22 11.38
5/8/2021 8:30:00 PM 9.83 49.694 0.082 7.18 3.35 11.37
5/8/2021 8:45:00 PM 9.81 49.658 0.081 7.18 3.39 11.35
5/8/2021 9:00:00 PM 9.78 49.604 0.081 7.18 3.31 11.35
5/8/2021 9:15:00 PM 9.75 49.55 0.081 7.17 3.51 11.34
5/8/2021 9:30:00 PM 9.72 49.496 0.081 7.17 3.34 11.34
5/8/2021 9:45:00 PM 9.7 49.46 0.081 7.16 3.32 11.34
5/8/2021 10:00:00 PM 9.68 49.424 0.081 7.16 3.32 11.34
5/8/2021 10:15:00 PM 9.66 49.388 0.081 7.16 3.33 11.35
5/8/2021 10:30:00 PM 9.65 49.37 0.081 7.16 3.44 11.35
5/8/2021 10:45:00 PM 9.64 49.352 0.081 7.16 3.35 11.35
5/8/2021 11:00:00 PM 9.63 49.334 0.081 7.16 3.49 11.35
5/8/2021 11:15:00 PM 9.62 49.316 0.081 7.16 3.53 11.36
5/8/2021 11:30:00 PM 9.6 49.28 0.081 7.11 3.46 11.37
5/8/2021 11:45:00 PM 9.58 49.244 0.081 7.14 3.31 11.37
5/9/2021 12:00:00 AM 9.57 49.226 0.081 7.16 3.33 11.37
5/9/2021 12:15:00 AM 9.56 49.208 0.081 7.16 3.31 11.37
5/9/2021 12:30:00 AM 9.56 49.208 0.081 7.16 3.39 11.37
5/9/2021 12:45:00 AM 9.56 49.208 0.081 7.16 3.31 11.38
5/9/2021 1:00:00 AM 9.54 49.172 0.081 7.16 3.28 11.38
5/9/2021 1:15:00 AM 9.53 49.154 0.08 7.13 3.33 11.38
5/9/2021 1:30:00 AM 9.53 49.154 0.08 7.12 3.35 11.38
5/9/2021 1:45:00 AM 9.52 49.136 0.08 7.13 3.33 11.38
5/9/2021 2:00:00 AM 9.53 49.154 0.081 7.15 3.16 11.38
5/9/2021 2:15:00 AM 9.53 49.154 0.08 7.16 3.16 11.38
5/9/2021 2:30:00 AM 9.52 49.136 0.081 7.16 3.32 11.38
5/9/2021 2:45:00 AM 9.52 49.136 0.081 7.15 3.22 11.37
5/9/2021 3:00:00 AM 9.52 49.136 0.081 7.13 3.3 11.38
5/9/2021 3:15:00 AM 9.52 49.136 0.08 7.17 3.31 11.38
5/9/2021 3:30:00 AM 9.51 49.118 0.08 7.11 3.35 11.37
5/9/2021 3:45:00 AM 9.51 49.118 0.081 7.13 3.3 11.37
5/9/2021 4:00:00 AM 9.5 49.1 0.081 7.15 3.18 11.37
5/9/2021 4:15:00 AM 9.49 49.082 0.081 7.15 3.25 11.38
5/9/2021 4:30:00 AM 9.47 49.046 0.081 7.15 3.31 11.38
5/9/2021 4:45:00 AM 9.45 49.01 0.081 7.15 3.17 11.38
5/9/2021 5:00:00 AM 9.43 48.974 0.08 7.13 3.31 11.39
5/9/2021 5:15:00 AM 9.42 48.956 0.08 7.14 3.17 11.39
5/9/2021 5:30:00 AM 9.41 48.938 0.08 7.15 3.12 11.39
5/9/2021 5:45:00 AM 9.39 48.902 0.08 7.14 3.37 11.39
5/9/2021 6:00:00 AM 9.37 48.866 0.08 7.13 3.63 11.4
5/9/2021 6:15:00 AM 9.36 48.848 0.08 7.11 5.18 11.41
5/9/2021 6:30:00 AM 9.34 48.812 0.08 7.13 3.39 11.42
5/9/2021 6:45:00 AM 9.33 48.794 0.08 7.15 3.34 11.44
5/9/2021 7:00:00 AM 9.33 48.794 0.08 7.15 3.4 11.47
5/9/2021 7:15:00 AM 9.33 48.794 0.08 7.17 3.17 11.52
5/9/2021 7:30:00 AM 9.33 48.794 0.08 7.14 3.16 11.54
5/9/2021 7:45:00 AM 9.34 48.812 0.08 7.17 3.09 11.58
5/9/2021 8:00:00 AM 9.37 48.866 0.08 7.18 3.21 11.62
5/9/2021 8:15:00 AM 9.39 48.902 0.08 7.19 349.73 11.65
5/9/2021 8:30:00 AM 9.4 48.92 0.08 7.2 4.06 11.68
5/9/2021 8:45:00 AM 9.43 48.974 0.08 7.21 3.15 11.7
5/9/2021 9:00:00 AM 9.45 49.01 0.08 7.18 3.13 11.72
5/9/2021 9:15:00 AM 9.48 49.064 0.08 7.22 3.05 11.75
5/9/2021 9:30:00 AM 9.52 49.136 0.08 7.24 2.99 11.77
5/9/2021 9:45:00 AM 9.57 49.226 0.08 7.24 2.98 11.79
5/9/2021 10:00:00 AM 9.62 49.316 0.08 7.25 4.49 11.8
5/9/2021 10:15:00 AM 9.65 49.37 0.08 7.26 3.83 11.81
5/9/2021 10:30:00 AM 9.68 49.424 0.08 7.26 4.21 11.8
5/9/2021 10:45:00 AM 9.7 49.46 0.08 7.26 4.71 11.8
5/9/2021 11:00:00 AM 9.7 49.46 0.08 7.27 4.56 11.8
5/9/2021 11:15:00 AM 9.7 49.46 0.08 7.3 3.5 11.81
5/9/2021 11:30:00 AM 9.7 49.46 0.08 7.25 2.95 11.81
5/9/2021 11:45:00 AM 9.7 49.46 0.08 7.24 3.09 11.81
5/9/2021 12:00:00 PM 9.67 49.406 0.081 7.26 2.96 11.82
5/9/2021 12:15:00 PM 9.62 49.316 0.081 7.26 3.06 11.8
5/9/2021 12:30:00 PM 9.58 49.244 0.081 7.24 2.99 11.79
5/9/2021 12:45:00 PM 9.54 49.172 0.081 7.22 4.88 11.77
5/9/2021 1:00:00 PM 9.47 49.046 0.08 7.24 3.06 11.76
5/9/2021 1:15:00 PM 9.41 48.938 0.08 7.2 2.87 11.75
5/9/2021 1:30:00 PM 9.32 48.776 0.08 7.23 3.05 11.75
5/9/2021 1:45:00 PM 9.24 48.632 0.08 7.18 3.39 11.74
5/9/2021 2:00:00 PM 9.17 48.506 0.08 7.21 3.3 11.74
5/9/2021 2:15:00 PM 9.1 48.38 0.08 7.21 3.07 11.76
5/9/2021 2:30:00 PM 9.04 48.272 0.08 7.21 3.4 11.77
5/9/2021 2:45:00 PM 8.99 48.182 0.08 7.19 3.53 11.79
5/9/2021 3:00:00 PM 8.97 48.146 0.08 7.21 3.52 11.81
5/9/2021 3:15:00 PM 8.94 48.092 0.08 7.21 3.23 11.8
5/9/2021 3:30:00 PM 8.91 48.038 0.08 7.2 3.2 11.79
5/9/2021 3:45:00 PM 8.91 48.038 0.08 7.2 3.24 11.78
5/9/2021 4:00:00 PM 8.9 48.02 0.08 7.2 3.38 11.77
5/9/2021 4:15:00 PM 8.9 48.02 0.08 7.2 3.37 11.76
5/9/2021 4:30:00 PM 8.91 48.038 0.08 7.17 3.44 11.74
5/9/2021 4:45:00 PM 8.89 48.002 0.08 7.17 3.41 11.72
5/9/2021 5:00:00 PM 8.88 47.984 0.079 7.19 3.83 11.7
5/9/2021 5:15:00 PM 8.86 47.948 0.079 7.2 4.26 11.7
5/9/2021 5:30:00 PM 8.84 47.912 0.079 7.22 4.96 11.69
5/9/2021 5:45:00 PM 8.83 47.894 0.079 7.19 5.08 11.68
5/9/2021 6:00:00 PM 8.82 47.876 0.079 7.19 4.61 11.67
5/9/2021 6:15:00 PM 8.82 47.876 0.079 7.2 5.48 11.65
5/9/2021 6:30:00 PM 8.81 47.858 0.078 7.19 5.02 11.63
5/9/2021 6:45:00 PM 8.81 47.858 0.078 7.17 4.69 11.6
5/9/2021 7:00:00 PM 8.82 47.876 0.079 7.16 4.89 11.58
5/9/2021 7:15:00 PM 8.82 47.876 0.078 7.16 4.42 11.57
5/9/2021 7:30:00 PM 8.81 47.858 0.078 7.15 4.43 11.56
5/9/2021 7:45:00 PM 8.8 47.84 0.078 7.12 4.76 11.55
5/9/2021 8:00:00 PM 8.79 47.822 0.078 7.16 5.3 11.53
5/9/2021 8:15:00 PM 8.77 47.786 0.078 7.14 5.12 11.53
5/9/2021 8:30:00 PM 8.76 47.768 0.078 7.13 5.61 11.52
5/9/2021 8:45:00 PM 8.75 47.75 0.077 7.13 6.34 11.51
5/9/2021 9:00:00 PM 8.75 47.75 0.077 7.13 6.37 11.51
5/9/2021 9:15:00 PM 8.74 47.732 0.077 7.12 59.37 11.51
5/9/2021 9:30:00 PM 8.73 47.714 0.077 7.09 7.57 11.52
5/9/2021 9:45:00 PM 8.71 47.678 0.078 7.21 23.57 11.52
5/9/2021 10:00:00 PM 8.7 47.66 0.077 7.23 21.71 11.54
5/9/2021 10:15:00 PM 8.69 47.642 0.077 7.18 19.16 11.54
5/9/2021 10:30:00 PM 8.69 47.642 0.077 7.16 2764.17 11.56
5/9/2021 10:45:00 PM 8.68 47.624 0.076 7.16 15.53 11.57
5/9/2021 11:00:00 PM 8.67 47.606 0.076 7.14 15.07 11.58
5/9/2021 11:15:00 PM 8.65 47.57 0.076 7.13 13.86 11.59
5/9/2021 11:30:00 PM 8.63 47.534 0.075 7.15 13.99 11.6
5/9/2021 11:45:00 PM 8.62 47.516 0.075 7.15 15.09 11.61
5/10/2021 12:00:00 AM 8.6 47.48 0.075 7.14 48.3 11.61
5/10/2021 12:15:00 AM 8.59 47.462 0.074 7.12 15.16 11.63
5/10/2021 12:30:00 AM 8.57 47.426 0.074 7.11 15.7 11.66
5/10/2021 12:45:00 AM 8.54 47.372 0.074 7.11 16.85 11.7
5/10/2021 1:00:00 AM 8.5 47.3 0.074 7.12 15.94 11.73
5/10/2021 1:15:00 AM 8.47 47.246 0.074 7.08 15.95 11.75
5/10/2021 1:30:00 AM 8.44 47.192 0.074 7.11 16.22 11.77
5/10/2021 1:45:00 AM 8.43 47.174 0.074 7.09 15.99 11.78
5/10/2021 2:00:00 AM 8.42 47.156 0.074 7.1 16.9 11.8
5/10/2021 2:15:00 AM 8.4 47.12 0.074 7.1 16.21 11.8
5/10/2021 2:30:00 AM 8.34 47.012 0.074 7.08 16.67 11.82
5/10/2021 2:45:00 AM 8.28 46.904 0.074 7.08 18.56 11.85
5/10/2021 3:00:00 AM 8.2 46.76 0.074 7.07 19.07 11.92
5/10/2021 3:15:00 AM 8.14 46.652 0.073 7.06 19.42 11.98
5/10/2021 3:30:00 AM 8.1 46.58 0.072 7.08 18.96 12
5/10/2021 3:45:00 AM 8.06 46.508 0.071 7.02 18.3 11.99
5/10/2021 4:00:00 AM 8.03 46.454 0.071 7.02 17.33 11.98
5/10/2021 4:15:00 AM 8 46.4 0.07 7.02 18.12 11.99
5/10/2021 4:30:00 AM 7.94 46.292 0.069 7.02 18.01 12
5/10/2021 4:45:00 AM 7.9 46.22 0.069 7.01 17.86 12.01
5/10/2021 5:00:00 AM 7.86 46.148 0.068 7.04 18.79 12.01
5/10/2021 5:15:00 AM 7.83 46.094 0.068 7.01 19.12 12.02
5/10/2021 5:30:00 AM 7.82 46.076 0.068 7.01 19.01 12.02
5/10/2021 5:45:00 AM 7.82 46.076 0.068 7.01 19.04 12.02
5/10/2021 6:00:00 AM 7.83 46.094 0.068 7 18.61 12.02
5/10/2021 6:15:00 AM 7.84 46.112 0.068 7.02 17.52 12.01
5/10/2021 6:30:00 AM 7.85 46.13 0.068 6.99 17.91 12.01
5/10/2021 6:45:00 AM 7.82 46.076 0.068 7 17.79 12.03
5/10/2021 7:00:00 AM 7.77 45.986 0.067 7.02 21.13 12.06
5/10/2021 7:15:00 AM 7.74 45.932 0.066 7.01 20.08 12.09
5/10/2021 7:30:00 AM 7.76 45.968 0.067 7.01 19.91 12.09
5/10/2021 7:45:00 AM 7.79 46.022 0.067 7.02 18.58 12.09
5/10/2021 8:00:00 AM 7.78 46.004 0.067 6.99 18.62 12.1
5/10/2021 8:15:00 AM 7.77 45.986 0.066 6.99 20.07 12.11
5/10/2021 8:30:00 AM 7.77 45.986 0.066 7.01 18.89 12.11
5/10/2021 8:45:00 AM 7.81 46.058 0.067 7.07 18.68 12.11
5/10/2021 9:00:00 AM 7.82 46.076 0.066 7.05 18.68 12.11
5/10/2021 9:15:00 AM 7.82 46.076 0.066 7.01 19.83 12.12
5/10/2021 9:30:00 AM 7.82 46.076 0.065 7 20.12 12.13
5/10/2021 9:45:00 AM 7.83 46.094 0.065 7.01 18.17 12.13
5/10/2021 10:00:00 AM 7.85 46.13 0.065 7.05 18.13 12.14
5/10/2021 10:15:00 AM 7.86 46.148 0.065 7.01 17.91 12.14
5/10/2021 10:30:00 AM 7.88 46.184 0.064 7.03 20.61 12.14
5/10/2021 10:45:00 AM 7.9 46.22 0.064 7 19.64 12.15
5/10/2021 11:00:00 AM 7.96 46.328 0.064 7.05 20.33 12.16
5/10/2021 11:15:00 AM 8 46.4 0.064 7.01 17.55 12.16
5/10/2021 11:30:00 AM 8.04 46.472 0.063 7.03 17.92 12.17
5/10/2021 11:45:00 AM 8.1 46.58 0.063 7.01 20.55 12.17
5/10/2021 12:00:00 PM 8.15 46.67 0.063 7.05 18.81 12.17
5/10/2021 12:15:00 PM 8.2 46.76 0.063 7.05 16.89 12.17
5/10/2021 12:30:00 PM 8.26 46.868 0.063 7.03 16.72 12.17
5/10/2021 12:45:00 PM 8.29 46.922 0.063 7.06 16.07 12.15
5/10/2021 1:00:00 PM 8.25 46.85 0.063 7.03 15.8 12.14
5/10/2021 1:15:00 PM 8.36 47.048 0.063 7.03 16.18 12.14
5/10/2021 1:30:00 PM 8.39 47.102 0.063 7.04 16.25 12.12
5/10/2021 1:45:00 PM 8.49 47.282 0.063 7.09 15.87 12.11
5/10/2021 2:00:00 PM 8.57 47.426 0.063 7.06 15.22 12.1
5/10/2021 2:15:00 PM 8.58 47.444 0.063 7.04 15.05 12.09
5/10/2021 2:30:00 PM 8.65 47.57 0.063 7.04 14.7 12.07
5/10/2021 2:45:00 PM 8.76 47.768 0.063 7.06 14.7 12.07
5/10/2021 3:00:00 PM 8.73 47.714 0.062 7.04 14.47 12.05
5/10/2021 3:15:00 PM 8.76 47.768 0.062 7.03 14.19 12.04
5/10/2021 3:30:00 PM 8.83 47.894 0.062 7.05 14.93 12.03
5/10/2021 3:45:00 PM 8.9 48.02 0.062 7.04 14.34 12.03
5/10/2021 4:00:00 PM 8.84 47.912 0.062 7.02 13.84 12
5/10/2021 4:15:00 PM 8.87 47.966 0.062 7.01 13.88 12
5/10/2021 4:30:00 PM 8.92 48.056 0.062 7.04 13.29 11.99
5/10/2021 4:45:00 PM 8.97 48.146 0.062 7.06 13.13 11.97
5/10/2021 5:00:00 PM 9.02 48.236 0.062 7.06 12.98 11.95
5/10/2021 5:15:00 PM 9.04 48.272 0.062 6.99 12.75 11.93
5/10/2021 5:30:00 PM 9.05 48.29 0.062 7.05 12.9 11.91
5/10/2021 5:45:00 PM 9.06 48.308 0.061 7 11.89 11.9
5/10/2021 6:00:00 PM 9.07 48.326 0.061 7.03 11.67 11.88
5/10/2021 6:15:00 PM 9.07 48.326 0.061 7.01 12.06 11.87
5/10/2021 6:30:00 PM 9.06 48.308 0.061 7 12.06 11.85
5/10/2021 6:45:00 PM 9.08 48.344 0.061 7 11.67 11.84
5/10/2021 7:00:00 PM 9.1 48.38 0.061 7.01 11.43 11.83
5/10/2021 7:15:00 PM 9.13 48.434 0.061 7.01 10.77 11.82
5/10/2021 7:30:00 PM 9.16 48.488 0.061 6.99 10.86 11.8
5/10/2021 7:45:00 PM 9.19 48.542 0.061 6.96 10.68 11.79
5/10/2021 8:00:00 PM 9.22 48.596 0.06 7 10.28 11.77
5/10/2021 8:15:00 PM 9.25 48.65 0.06 6.99 10.22 11.76
5/10/2021 8:30:00 PM 9.28 48.704 0.06 6.99 10.06 11.74
5/10/2021 8:45:00 PM 9.32 48.776 0.06 6.98 10.14 11.72
5/10/2021 9:00:00 PM 9.36 48.848 0.06 7 9.77 11.7
5/10/2021 9:15:00 PM 9.41 48.938 0.06 6.96 9.41 11.68
5/10/2021 9:30:00 PM 9.46 49.028 0.06 6.99 9.81 11.66
5/10/2021 9:45:00 PM 9.51 49.118 0.06 6.99 9.75 11.65
5/10/2021 10:00:00 PM 9.55 49.19 0.06 6.99 9.11 11.63
5/10/2021 10:15:00 PM 9.59 49.262 0.06 7 8.71 11.62
5/10/2021 10:30:00 PM 9.61 49.298 0.06 6.96 8.65 11.61
5/10/2021 10:45:00 PM 9.63 49.334 0.06 6.98 8.6 11.6
5/10/2021 11:00:00 PM 9.66 49.388 0.06 6.97 8.38 11.59
5/10/2021 11:15:00 PM 9.66 49.388 0.06 6.98 8.54 11.59
5/10/2021 11:30:00 PM 9.64 49.352 0.06 6.99 8.4 11.6
5/10/2021 11:45:00 PM 9.62 49.316 0.06 6.96 8.33 11.6
5/11/2021 12:00:00 AM 9.61 49.298 0.06 6.96 8.38 11.6
5/11/2021 12:15:00 AM 9.6 49.28 0.06 6.93 8.23 11.6
5/11/2021 12:30:00 AM 9.59 49.262 0.06 6.95 7.88 11.6
5/11/2021 12:45:00 AM 9.58 49.244 0.061 7 7.91 11.6
5/11/2021 1:00:00 AM 9.57 49.226 0.061 6.96 8.01 11.59
5/11/2021 1:15:00 AM 9.56 49.208 0.061 6.94 7.68 11.59
5/11/2021 1:30:00 AM 9.55 49.19 0.061 6.93 7.8 11.6
5/11/2021 1:45:00 AM 9.54 49.172 0.061 6.97 8.06 11.6
5/11/2021 2:00:00 AM 9.53 49.154 0.061 6.94 7.49 11.6
5/11/2021 2:15:00 AM 9.53 49.154 0.061 6.93 7.96 11.6
5/11/2021 2:30:00 AM 9.53 49.154 0.061 6.95 7.39 11.6
5/11/2021 2:45:00 AM 9.5 49.1 0.061 6.96 7.48 11.61
5/11/2021 3:00:00 AM 9.45 49.01 0.061 6.96 7.42 11.62
5/11/2021 3:15:00 AM 9.42 48.956 0.061 6.91 7.14 11.63
5/11/2021 3:30:00 AM 9.39 48.902 0.061 6.93 7.44 11.64
5/11/2021 3:45:00 AM 9.35 48.83 0.061 6.94 7.63 11.66
5/11/2021 4:00:00 AM 9.33 48.794 0.061 6.95 7.41 11.67
5/11/2021 4:15:00 AM 9.31 48.758 0.061 6.96 7.62 11.67
5/11/2021 4:30:00 AM 9.27 48.686 0.061 6.91 7.11 11.68
5/11/2021 4:45:00 AM 9.25 48.65 0.061 6.91 6.73 11.68
5/11/2021 5:00:00 AM 9.2 48.56 0.061 6.91 6.67 11.69
5/11/2021 5:15:00 AM 9.13 48.434 0.061 6.93 6.82 11.72
5/11/2021 5:30:00 AM 9.06 48.308 0.06 6.94 6.41 11.74
5/11/2021 5:45:00 AM 9 48.2 0.06 6.89 6.3 11.75
5/11/2021 6:00:00 AM 8.97 48.146 0.06 6.93 6.15 11.76
5/11/2021 6:15:00 AM 8.93 48.074 0.06 6.88 6.23 11.78
5/11/2021 6:30:00 AM 8.9 48.02 0.06 6.88 7.02 11.8
5/11/2021 6:45:00 AM 8.9 48.02 0.06 6.9 6.18 11.8
5/11/2021 7:00:00 AM 8.89 48.002 0.06 6.9 6.21 11.82
5/11/2021 7:15:00 AM 8.85 47.93 0.06 6.91 6.01 11.84
5/11/2021 7:30:00 AM 8.8 47.84 0.06 6.9 5.8 11.88
5/11/2021 7:45:00 AM 8.74 47.732 0.06 6.9 5.87 11.92
5/11/2021 8:00:00 AM 8.71 47.678 0.06 6.92 5.79 11.94
5/11/2021 8:15:00 AM 8.71 47.678 0.06 6.92 5.55 11.95
5/11/2021 8:30:00 AM 8.71 47.678 0.06 6.96 5.77 11.97
5/11/2021 8:45:00 AM 8.69 47.642 0.06 6.92 5.47 11.99
5/11/2021 9:00:00 AM 8.71 47.678 0.06 6.95 5.35 12
5/11/2021 9:15:00 AM 8.78 47.804 0.06 6.92 5.31 11.99
5/11/2021 9:30:00 AM 8.83 47.894 0.06 6.92 5.48 11.99
5/11/2021 9:45:00 AM 8.83 47.894 0.059 6.94 5.33 12
5/11/2021 10:00:00 AM 8.84 47.912 0.059 6.95 5.17 12.01
5/11/2021 10:15:00 AM 8.85 47.93 0.059 6.93 5.43 12
5/11/2021 10:30:00 AM 8.94 48.092 0.059 6.98 5.25 11.98
5/11/2021 10:45:00 AM 8.94 48.092 0.059 6.98 5.27 11.98
5/11/2021 11:00:00 AM 8.89 48.002 0.059 6.95 5.27 12
5/11/2021 11:15:00 AM 8.86 47.948 0.059 6.97 4.91 12.02
5/11/2021 11:30:00 AM 8.83 47.894 0.059 6.98 4.94 12.03
5/11/2021 11:45:00 AM 8.88 47.984 0.059 6.96 5 12.05
5/11/2021 12:00:00 PM 8.88 47.984 0.059 6.98 5.06 12.06
5/11/2021 12:15:00 PM 8.8 47.84 0.059 6.97 5.11 12.07
5/11/2021 12:30:00 PM 8.77 47.786 0.059 7 4.98 12.07
5/11/2021 12:45:00 PM 8.86 47.948 0.059 7.02 4.99 12.06
5/11/2021 1:00:00 PM 8.88 47.984 0.059 6.98 4.8 12.05
5/11/2021 1:15:00 PM 8.95 48.11 0.059 6.97 4.87 12.06
5/11/2021 1:30:00 PM 8.95 48.11 0.059 6.98 4.84 12.04
5/11/2021 1:45:00 PM 9.03 48.254 0.059 7.01 4.76 12.04
5/11/2021 2:00:00 PM 8.98 48.164 0.059 6.99 5.05 12.02
5/11/2021 2:15:00 PM 9.04 48.272 0.059 7 4.77 12.03
5/11/2021 2:30:00 PM 9.02 48.236 0.059 6.99 4.51 12.03
5/11/2021 2:45:00 PM 9.02 48.236 0.059 7.01 4.56 12.03
5/11/2021 3:00:00 PM 8.97 48.146 0.059 6.98 4.49 12.01
5/11/2021 3:15:00 PM 9.1 48.38 0.059 7 4.73 12.01
5/11/2021 3:30:00 PM 9.04 48.272 0.059 7.01 4.58 11.99
5/11/2021 3:45:00 PM 9.15 48.47 0.059 6.99 4.29 11.99
5/11/2021 4:00:00 PM 9.16 48.488 0.059 6.99 4.53 11.98
5/11/2021 4:15:00 PM 9.14 48.452 0.059 6.99 4.51 11.97
5/11/2021 4:30:00 PM 9.15 48.47 0.059 6.98 4.54 11.96
5/11/2021 4:45:00 PM 9.07 48.326 0.059 7.01 4.61 11.96
5/11/2021 5:00:00 PM 9.08 48.344 0.059 6.97 4.36 11.96
5/11/2021 5:15:00 PM 9.06 48.308 0.059 6.98 4.24 11.95
5/11/2021 5:30:00 PM 9.08 48.344 0.059 7.02 4.16 11.93
5/11/2021 5:45:00 PM 9.07 48.326 0.059 6.99 4.33 11.9
5/11/2021 6:00:00 PM 9.08 48.344 0.059 7 4.22 11.89
5/11/2021 6:15:00 PM 9.08 48.344 0.059 7.01 4.19 11.88
5/11/2021 6:30:00 PM 9.07 48.326 0.059 7 4.3 11.87
5/11/2021 6:45:00 PM 9.05 48.29 0.059 7 4.31 11.85
5/11/2021 7:00:00 PM 9.03 48.254 0.059 6.97 4.21 11.83
5/11/2021 7:15:00 PM 9.03 48.254 0.059 6.96 4.51 11.81
5/11/2021 7:30:00 PM 9.03 48.254 0.059 6.96 4.2 11.79
5/11/2021 7:45:00 PM 9.04 48.272 0.059 6.97 4.3 11.78
5/11/2021 8:00:00 PM 9.05 48.29 0.059 6.99 4.07 11.76
5/11/2021 8:15:00 PM 9.06 48.308 0.059 7.02 4.26 11.75
5/11/2021 8:30:00 PM 9.06 48.308 0.059 6.98 4.23 11.73
5/11/2021 8:45:00 PM 9.07 48.326 0.059 6.95 4.2 11.72
5/11/2021 9:00:00 PM 9.08 48.344 0.059 6.94 4.26 11.71
5/11/2021 9:15:00 PM 9.09 48.362 0.059 6.94 4.26 11.7
5/11/2021 9:30:00 PM 9.1 48.38 0.059 6.94 4.19 11.69
5/11/2021 9:45:00 PM 9.1 48.38 0.059 6.94 4.28 11.69
5/11/2021 10:00:00 PM 9.1 48.38 0.059 6.97 4.11 11.69
5/11/2021 10:15:00 PM 9.11 48.398 0.059 6.97 4.19 11.69
5/11/2021 10:30:00 PM 9.11 48.398 0.059 6.96 3.99 11.68
5/11/2021 10:45:00 PM 9.13 48.434 0.059 6.97 4.08 11.68
5/11/2021 11:00:00 PM 9.14 48.452 0.059 6.91 4.05 11.68
5/11/2021 11:15:00 PM 9.15 48.47 0.059 6.98 3.95 11.67
5/11/2021 11:30:00 PM 9.16 48.488 0.059 6.95 3.94 11.67
5/11/2021 11:45:00 PM 9.16 48.488 0.059 6.98 3.93 11.66
5/12/2021 12:00:00 AM 9.16 48.488 0.059 6.99 3.92 11.66
5/12/2021 12:15:00 AM 9.16 48.488 0.059 6.96 4.03 11.66
5/12/2021 12:30:00 AM 9.16 48.488 0.059 6.97 4.05 11.66
5/12/2021 12:45:00 AM 9.14 48.452 0.059 6.95 3.88 11.67
5/12/2021 1:00:00 AM 9.11 48.398 0.059 6.93 3.91 11.67
5/12/2021 1:15:00 AM 9.09 48.362 0.059 6.93 3.87 11.67
5/12/2021 1:30:00 AM 9.07 48.326 0.059 6.95 3.93 11.68
5/12/2021 1:45:00 AM 9.05 48.29 0.059 6.94 3.82 11.68
5/12/2021 2:00:00 AM 9.01 48.218 0.059 6.94 3.82 11.69
5/12/2021 2:15:00 AM 8.97 48.146 0.059 6.94 3.83 11.69
5/12/2021 2:30:00 AM 8.93 48.074 0.059 6.94 3.85 11.7
5/12/2021 2:45:00 AM 8.91 48.038 0.059 6.95 3.94 11.71
5/12/2021 3:00:00 AM 8.88 47.984 0.059 6.93 3.81 11.71
5/12/2021 3:15:00 AM 8.86 47.948 0.059 6.94 3.96 11.71
5/12/2021 3:30:00 AM 8.83 47.894 0.059 6.95 3.74 11.72
5/12/2021 3:45:00 AM 8.79 47.822 0.059 6.95 3.76 11.73
5/12/2021 4:00:00 AM 8.75 47.75 0.059 6.91 3.76 11.74
5/12/2021 4:15:00 AM 8.71 47.678 0.06 6.98 3.81 11.75
5/12/2021 4:30:00 AM 8.69 47.642 0.06 6.97 3.8 11.75
5/12/2021 4:45:00 AM 8.69 47.642 0.059 6.93 3.8 11.75
5/12/2021 5:00:00 AM 8.69 47.642 0.06 6.92 3.82 11.75
5/12/2021 5:15:00 AM 8.66 47.588 0.06 6.93 3.88 11.76
5/12/2021 5:30:00 AM 8.63 47.534 0.06 6.93 3.99 11.77
5/12/2021 5:45:00 AM 8.6 47.48 0.06 6.94 3.82 11.78
5/12/2021 6:00:00 AM 8.57 47.426 0.06 6.9 3.81 11.79
5/12/2021 6:15:00 AM 8.54 47.372 0.06 6.92 3.83 11.81
5/12/2021 6:30:00 AM 8.5 47.3 0.06 6.97 3.8 11.84
5/12/2021 6:45:00 AM 8.44 47.192 0.061 6.96 3.74 11.87
5/12/2021 7:00:00 AM 8.39 47.102 0.061 6.96 3.76 11.89
5/12/2021 7:15:00 AM 8.36 47.048 0.061 6.9 3.79 11.91
5/12/2021 7:30:00 AM 8.32 46.976 0.061 6.93 3.78 11.94
5/12/2021 7:45:00 AM 8.28 46.904 0.061 6.9 3.89 11.96
5/12/2021 8:00:00 AM 8.28 46.904 0.061 6.91 3.74 11.99
5/12/2021 8:15:00 AM 8.28 46.904 0.061 6.92 3.7 12.01
5/12/2021 8:30:00 AM 8.3 46.94 0.061 6.93 3.51 12.03
5/12/2021 8:45:00 AM 8.32 46.976 0.061 6.94 3.58 12.04
5/12/2021 9:00:00 AM 8.34 47.012 0.061 6.94 3.68 12.06
5/12/2021 9:15:00 AM 8.35 47.03 0.061 6.95 3.73 12.09
5/12/2021 9:30:00 AM 8.36 47.048 0.061 6.96 3.52 12.11
5/12/2021 9:45:00 AM 8.39 47.102 0.061 6.97 3.5 12.13
5/12/2021 10:00:00 AM 8.46 47.228 0.061 6.98 3.54 12.14
5/12/2021 10:15:00 AM 8.53 47.354 0.061 6.99 3.5 12.14
5/12/2021 10:30:00 AM 8.6 47.48 0.061 6.98 3.47 12.14
5/12/2021 10:45:00 AM 8.65 47.57 0.061 6.99 3.48 12.15
5/12/2021 11:00:00 AM 8.7 47.66 0.061 7.02 3.54 12.16
5/12/2021 11:15:00 AM 8.77 47.786 0.061 7 3.55 12.17
5/12/2021 11:30:00 AM 8.81 47.858 0.061 7.04 3.5 12.16
5/12/2021 11:45:00 AM 8.82 47.876 0.061 6.99 3.52 12.16
5/12/2021 12:00:00 PM 8.91 48.038 0.061 7.02 3.5 12.16
5/12/2021 12:15:00 PM 8.94 48.092 0.061 7.05 3.51 12.15
5/12/2021 12:30:00 PM 8.97 48.146 0.061 7.06 3.54 12.15
5/12/2021 12:45:00 PM 9 48.2 0.061 7.02 3.56 12.14
5/12/2021 1:00:00 PM 8.97 48.146 0.061 7.02 3.51 12.13
5/12/2021 1:15:00 PM 9.05 48.29 0.061 7.01 3.57 12.14
5/12/2021 1:30:00 PM 9.03 48.254 0.061 7.05 3.52 12.13
5/12/2021 1:45:00 PM 9.08 48.344 0.062 6.98 3.58 12.14
5/12/2021 2:00:00 PM 9.09 48.362 0.062 7.06 3.46 12.14
5/12/2021 2:15:00 PM 9.11 48.398 0.062 7.04 3.5 12.13
5/12/2021 2:30:00 PM 9.3 48.74 0.062 7.03 3.54 12.12
5/12/2021 2:45:00 PM 9.3 48.74 0.062 7.03 3.33 12.12
5/12/2021 3:00:00 PM 9.23 48.614 0.062 7.04 3.44 12.11
5/12/2021 3:15:00 PM 9.2 48.56 0.062 7.02 3.52 12.11
5/12/2021 3:30:00 PM 9.12 48.416 0.062 7.02 3.53 12.1
5/12/2021 3:45:00 PM 9.07 48.326 0.062 7.01 3.51 12.11
5/12/2021 4:00:00 PM 9.17 48.506 0.062 7.05 3.89 12.12
5/12/2021 4:15:00 PM 9.18 48.524 0.062 7.05 3.38 12.11
5/12/2021 4:30:00 PM 9.15 48.47 0.062 7.03 3.54 12.09
5/12/2021 4:45:00 PM 9.06 48.308 0.062 7.02 3.43 12.07
5/12/2021 5:00:00 PM 9.14 48.452 0.062 7.05 3.68 12.07
5/12/2021 5:15:00 PM 9.04 48.272 0.062 7.01 3.46 12.03
5/12/2021 5:30:00 PM 9.04 48.272 0.062 7.01 3.54 12.02
5/12/2021 5:45:00 PM 9.03 48.254 0.062 7.01 3.48 11.99
5/12/2021 6:00:00 PM 9.05 48.29 0.062 7.02 3.26 11.98
5/12/2021 6:15:00 PM 9.05 48.29 0.062 7.01 3.31 11.95
5/12/2021 6:30:00 PM 9.06 48.308 0.062 7.02 3.32 11.91
5/12/2021 6:45:00 PM 9.06 48.308 0.062 7.02 3.36 11.88
5/12/2021 7:00:00 PM 9.06 48.308 0.062 7.02 3.24 11.86
5/12/2021 7:15:00 PM 9.07 48.326 0.062 7.01 3.37 11.83
5/12/2021 7:30:00 PM 9.08 48.344 0.063 7.02 3.3 11.81
5/12/2021 7:45:00 PM 9.08 48.344 0.063 7.03 3.23 11.79
5/12/2021 8:00:00 PM 9.08 48.344 0.063 7.02 3.4 11.77
5/12/2021 8:15:00 PM 9.09 48.362 0.063 6.99 3.35 11.75
5/12/2021 8:30:00 PM 9.1 48.38 0.063 6.97 3.71 11.72
5/12/2021 8:45:00 PM 9.11 48.398 0.063 6.95 3.48 11.7
5/12/2021 9:00:00 PM 9.12 48.416 0.063 6.94 3.38 11.68
5/12/2021 9:15:00 PM 9.13 48.434 0.063 6.99 3.25 11.67
5/12/2021 9:30:00 PM 9.14 48.452 0.063 6.98 3.45 11.66
5/12/2021 9:45:00 PM 9.14 48.452 0.063 6.96 3.36 11.66
5/12/2021 10:00:00 PM 9.15 48.47 0.063 6.91 3.21 11.65
5/12/2021 10:15:00 PM 9.16 48.488 0.063 6.94 3.36 11.65
5/12/2021 10:30:00 PM 9.17 48.506 0.063 6.95 3.17 11.64
5/12/2021 10:45:00 PM 9.18 48.524 0.063 6.94 3.67 11.64
5/12/2021 11:00:00 PM 9.19 48.542 0.063 6.99 3.14 11.63
5/12/2021 11:15:00 PM 9.21 48.578 0.063 6.96 3.18 11.63
5/12/2021 11:30:00 PM 9.22 48.596 0.063 6.96 3.19 11.62
5/12/2021 11:45:00 PM 9.24 48.632 0.063 6.95 3.21 11.62
5/13/2021 12:00:00 AM 9.25 48.65 0.063 6.97 3.06 11.61
5/13/2021 12:15:00 AM 9.26 48.668 0.063 6.97 3.16 11.6
5/13/2021 12:30:00 AM 9.28 48.704 0.063 6.96 3.12 11.6
5/13/2021 12:45:00 AM 9.29 48.722 0.063 6.97 3.11 11.59
5/13/2021 1:00:00 AM 9.31 48.758 0.063 6.98 3.07 11.58
5/13/2021 1:15:00 AM 9.32 48.776 0.063 6.96 3.04 11.58
5/13/2021 1:30:00 AM 9.32 48.776 0.063 6.95 3.21 11.57
5/13/2021 1:45:00 AM 9.32 48.776 0.063 6.97 3 11.57
5/13/2021 2:00:00 AM 9.32 48.776 0.063 6.99 3.08 11.57
5/13/2021 2:15:00 AM 9.32 48.776 0.063 6.96 3.07 11.56
5/13/2021 2:30:00 AM 9.3 48.74 0.063 6.94 2.97 11.57
5/13/2021 2:45:00 AM 9.28 48.704 0.063 6.98 3.16 11.56
5/13/2021 3:00:00 AM 9.27 48.686 0.063 6.96 2.99 11.57
5/13/2021 3:15:00 AM 9.26 48.668 0.063 6.98 3.04 11.57
5/13/2021 3:30:00 AM 9.24 48.632 0.063 6.94 3.14 11.56
5/13/2021 3:45:00 AM 9.22 48.596 0.063 6.94 3.02 11.57
5/13/2021 4:00:00 AM 9.2 48.56 0.063 7 2.96 11.57
5/13/2021 4:15:00 AM 9.18 48.524 0.063 6.98 3.12 11.58
5/13/2021 4:30:00 AM 9.16 48.488 0.063 6.98 3.09 11.58
5/13/2021 4:45:00 AM 9.14 48.452 0.063 6.93 3.23 11.58
5/13/2021 5:00:00 AM 9.12 48.416 0.063 6.97 3.03 11.59
5/13/2021 5:15:00 AM 9.1 48.38 0.064 6.95 3.09 11.59
5/13/2021 5:30:00 AM 9.08 48.344 0.064 6.95 3.13 11.59
5/13/2021 5:45:00 AM 9.06 48.308 0.064 6.95 3.1 11.6
5/13/2021 6:00:00 AM 9.04 48.272 0.064 6.95 3.04 11.6
5/13/2021 6:15:00 AM 9.02 48.236 0.064 6.97 2.9 11.62
5/13/2021 6:30:00 AM 9 48.2 0.064 6.99 3.18 11.64
5/13/2021 6:45:00 AM 8.98 48.164 0.064 6.97 3.09 11.66
5/13/2021 7:00:00 AM 8.96 48.128 0.064 6.96 3.03 11.68
5/13/2021 7:15:00 AM 8.95 48.11 0.064 6.96 3.12 11.7
5/13/2021 7:30:00 AM 8.93 48.074 0.064 6.97 3.03 11.71
5/13/2021 7:45:00 AM 8.93 48.074 0.064 6.97 2.98 11.74
5/13/2021 8:00:00 AM 8.93 48.074 0.064 6.97 3.02 11.77
5/13/2021 8:15:00 AM 8.93 48.074 0.064 6.97 2.91 11.79
5/13/2021 8:30:00 AM 8.94 48.092 0.064 6.99 3.02 11.82
5/13/2021 8:45:00 AM 8.96 48.128 0.064 6.97 2.98 11.84
5/13/2021 9:00:00 AM 8.99 48.182 0.064 7.01 2.98 11.86
5/13/2021 9:15:00 AM 9.02 48.236 0.064 7.02 2.97 11.88
5/13/2021 9:30:00 AM 9.07 48.326 0.064 6.99 3.03 11.9
5/13/2021 9:45:00 AM 9.12 48.416 0.064 7.03 3.03 11.91
5/13/2021 10:00:00 AM 9.18 48.524 0.064 7.03 2.97 11.93
5/13/2021 10:15:00 AM 9.25 48.65 0.064 7.06 2.94 11.94
5/13/2021 10:30:00 AM 9.33 48.794 0.064 7.05 2.99 11.95
5/13/2021 10:45:00 AM 9.42 48.956 0.064 7.05 2.97 11.96
5/13/2021 11:00:00 AM 9.54 49.172 0.064 7.06 3.04 11.97
5/13/2021 11:15:00 AM 9.58 49.244 0.065 7.04 3.04 11.97
5/13/2021 11:30:00 AM 9.63 49.334 0.065 6.92 2.98 11.97
5/13/2021 11:45:00 AM 9.68 49.424 0.065 7.06 2.95 11.97
5/13/2021 12:00:00 PM 9.83 49.694 0.065 7.07 3.06 11.97
5/13/2021 12:15:00 PM 9.79 49.622 0.065 7.07 3.05 11.95
5/13/2021 12:30:00 PM 9.67 49.406 0.065 7.02 3.03 11.93
5/13/2021 12:45:00 PM 9.6 49.28 0.065 7.06 2.99 11.95
5/13/2021 1:00:00 PM 9.54 49.172 0.065 7.07 3.2 11.95
5/13/2021 1:15:00 PM 9.55 49.19 0.065 7.04 3.02 11.96
5/13/2021 1:30:00 PM 9.55 49.19 0.065 7.06 3.1 11.97
5/13/2021 1:45:00 PM 9.53 49.154 0.065 7.06 2.97 11.97
5/13/2021 2:00:00 PM 9.65 49.37 0.065 7.08 2.96 11.98
5/13/2021 2:15:00 PM 9.84 49.712 0.065 7.08 2.95 11.98
5/13/2021 2:30:00 PM 9.77 49.586 0.065 7.09 3.07 11.95
5/13/2021 2:45:00 PM 9.74 49.532 0.065 7.08 2.92 11.92
5/13/2021 3:00:00 PM 9.75 49.55 0.065 7.06 2.96 11.92
5/13/2021 3:15:00 PM 9.91 49.838 0.065 7.11 2.95 11.91
5/13/2021 3:30:00 PM 9.94 49.892 0.065 7.08 2.87 11.89
5/13/2021 3:45:00 PM 9.97 49.946 0.065 7.09 2.99 11.87
5/13/2021 4:00:00 PM 9.96 49.928 0.065 7.07 2.96 11.87
5/13/2021 4:15:00 PM 9.91 49.838 0.065 7.07 3.13 11.86
5/13/2021 4:30:00 PM 9.9 49.82 0.065 7.04 3.1 11.87
5/13/2021 4:45:00 PM 9.92 49.856 0.065 7.05 3.16 11.87
5/13/2021 5:00:00 PM 9.76 49.568 0.065 7.05 3.12 11.84
5/13/2021 5:15:00 PM 9.71 49.478 0.066 7.04 3.07 11.84
5/13/2021 5:30:00 PM 9.67 49.406 0.066 7.06 3.06 11.86
5/13/2021 5:45:00 PM 9.61 49.298 0.066 7.04 3.01 11.85
5/13/2021 6:00:00 PM 9.59 49.262 0.066 7.05 2.96 11.84
5/13/2021 6:15:00 PM 9.56 49.208 0.066 7.05 3.04 11.81
5/13/2021 6:30:00 PM 9.52 49.136 0.066 7.03 3 11.79
5/13/2021 6:45:00 PM 9.5 49.1 0.066 7.05 2.94 11.79
5/13/2021 7:00:00 PM 9.46 49.028 0.066 7.07 2.84 11.78
5/13/2021 7:15:00 PM 9.45 49.01 0.067 7.04 2.82 11.76
5/13/2021 7:30:00 PM 9.44 48.992 0.067 7.02 2.85 11.73
5/13/2021 7:45:00 PM 9.42 48.956 0.067 6.99 2.82 11.71
5/13/2021 8:00:00 PM 9.4 48.92 0.067 7 3.02 11.68
5/13/2021 8:15:00 PM 9.39 48.902 0.067 7 2.76 11.66
5/13/2021 8:30:00 PM 9.37 48.866 0.067 7.01 2.8 11.63
5/13/2021 8:45:00 PM 9.37 48.866 0.067 6.97 2.93 11.6
5/13/2021 9:00:00 PM 9.36 48.848 0.067 7.02 2.94 11.58
5/13/2021 9:15:00 PM 9.35 48.83 0.067 7.02 2.96 11.56
5/13/2021 9:30:00 PM 9.34 48.812 0.067 7 2.86 11.56
5/13/2021 9:45:00 PM 9.34 48.812 0.067 7.01 2.93 11.55
5/13/2021 10:00:00 PM 9.33 48.794 0.067 6.99 2.89 11.54
5/13/2021 10:15:00 PM 9.32 48.776 0.067 6.98 3.15 11.54
5/13/2021 10:30:00 PM 9.31 48.758 0.067 6.97 2.92 11.54
5/13/2021 10:45:00 PM 9.3 48.74 0.067 6.95 3.11 11.54
5/13/2021 11:00:00 PM 9.3 48.74 0.067 6.97 2.84 11.54
5/13/2021 11:15:00 PM 9.3 48.74 0.068 6.98 2.86 11.54
5/13/2021 11:30:00 PM 9.3 48.74 0.067 6.97 3.83 11.54
5/13/2021 11:45:00 PM 9.31 48.758 0.067 6.98 2.97 11.53
5/14/2021 12:00:00 AM 9.31 48.758 0.067 6.98 2.85 11.53
5/14/2021 12:15:00 AM 9.31 48.758 0.067 7 2.83 11.53
5/14/2021 12:30:00 AM 9.31 48.758 0.067 6.94 2.9 11.53
5/14/2021 12:45:00 AM 9.31 48.758 0.068 7 2.93 11.53
5/14/2021 1:00:00 AM 9.31 48.758 0.068 6.99 2.89 11.52
5/14/2021 1:15:00 AM 9.31 48.758 0.068 6.98 2.82 11.52
5/14/2021 1:30:00 AM 9.31 48.758 0.068 6.98 2.79 11.52
5/14/2021 1:45:00 AM 9.3 48.74 0.068 6.94 2.75 11.52
5/14/2021 2:00:00 AM 9.3 48.74 0.068 6.96 2.86 11.52
5/14/2021 2:15:00 AM 9.29 48.722 0.068 6.95 2.82 11.52
5/14/2021 2:30:00 AM 9.28 48.704 0.068 7 2.8 11.52
5/14/2021 2:45:00 AM 9.27 48.686 0.068 6.99 2.75 11.52
5/14/2021 3:00:00 AM 9.27 48.686 0.068 6.99 2.83 11.52
5/14/2021 3:15:00 AM 9.27 48.686 0.068 6.98 2.8 11.52
5/14/2021 3:30:00 AM 9.26 48.668 0.068 7 2.79 11.52
5/14/2021 3:45:00 AM 9.24 48.632 0.068 6.98 2.83 11.52
5/14/2021 4:00:00 AM 9.22 48.596 0.068 6.97 2.78 11.52
5/14/2021 4:15:00 AM 9.21 48.578 0.068 6.97 2.7 11.52
5/14/2021 4:30:00 AM 9.2 48.56 0.068 6.98 2.73 11.53
5/14/2021 4:45:00 AM 9.18 48.524 0.068 6.95 2.69 11.53
5/14/2021 5:00:00 AM 9.16 48.488 0.068 6.98 2.83 11.53
5/14/2021 5:15:00 AM 9.14 48.452 0.068 6.97 2.87 11.54
5/14/2021 5:30:00 AM 9.13 48.434 0.068 6.97 2.88 11.54
5/14/2021 5:45:00 AM 9.11 48.398 0.068 6.97 2.8 11.54
5/14/2021 6:00:00 AM 9.08 48.344 0.068 6.97 2.73 11.56
5/14/2021 6:15:00 AM 9.06 48.308 0.068 6.96 2.75 11.57
5/14/2021 6:30:00 AM 9.05 48.29 0.068 6.97 2.76 11.59
5/14/2021 6:45:00 AM 9.04 48.272 0.068 6.99 2.68 11.6
5/14/2021 7:00:00 AM 9.03 48.254 0.068 7.01 2.77 11.63
5/14/2021 7:15:00 AM 9.02 48.236 0.068 7 2.68 11.65
5/14/2021 7:30:00 AM 9 48.2 0.068 7.01 2.73 11.68
5/14/2021 7:45:00 AM 9 48.2 0.068 6.96 2.66 11.71
5/14/2021 8:00:00 AM 9.01 48.218 0.068 7 2.7 11.75
5/14/2021 8:15:00 AM 9.03 48.254 0.068 7.02 2.69 11.77
5/14/2021 8:30:00 AM 9.07 48.326 0.068 7.06 2.91 11.79
5/14/2021 8:45:00 AM 9.11 48.398 0.068 7.06 2.64 11.81
5/14/2021 9:00:00 AM 9.15 48.47 0.068 7.04 2.58 11.83
5/14/2021 9:15:00 AM 9.21 48.578 0.068 7.06 2.69 11.84
5/14/2021 9:30:00 AM 9.27 48.686 0.068 7.07 2.6 11.86
5/14/2021 9:45:00 AM 9.35 48.83 0.068 7.08 2.69 11.87
5/14/2021 10:00:00 AM 9.42 48.956 0.068 7.08 2.66 11.88
5/14/2021 10:15:00 AM 9.49 49.082 0.069 7.09 2.89 11.89
5/14/2021 10:30:00 AM 9.59 49.262 0.069 7.1 2.67 11.9
5/14/2021 10:45:00 AM 9.72 49.496 0.069 7.09 2.69 11.9
5/14/2021 11:00:00 AM 9.85 49.73 0.069 7.12 2.75 11.9
5/14/2021 11:15:00 AM 9.97 49.946 0.069 7.12 2.69 11.89
5/14/2021 11:30:00 AM 10.12 50.216 0.069 7.13 2.73 11.89
5/14/2021 11:45:00 AM 10.25 50.45 0.069 7.14 2.68 11.88
5/14/2021 12:00:00 PM 10.32 50.576 0.069 7.12 2.67 11.87
5/14/2021 12:15:00 PM 10.38 50.684 0.07 7.09 2.65 11.87
5/14/2021 12:30:00 PM 10.28 50.504 0.07 7.12 2.61 11.84
5/14/2021 12:45:00 PM 10.37 50.666 0.07 7.13 2.67 11.85
5/14/2021 1:00:00 PM 10.61 51.098 0.07 7.16 2.8 11.86
5/14/2021 1:15:00 PM 10.86 51.548 0.07 7.16 2.59 11.85
5/14/2021 1:30:00 PM 11.07 51.926 0.07 7.15 2.85 11.84
5/14/2021 1:45:00 PM 11.04 51.872 0.07 7.14 2.68 11.8
5/14/2021 2:00:00 PM 10.77 51.386 0.07 7.13 2.65 11.77
5/14/2021 2:15:00 PM 10.74 51.332 0.07 7.09 2.87 11.79
5/14/2021 2:30:00 PM 10.71 51.278 0.07 7.12 2.74 11.8
5/14/2021 2:45:00 PM 10.52 50.936 0.07 7.12 2.75 11.79
5/14/2021 3:00:00 PM 10.31 50.558 0.07 7.1 2.8 11.78
5/14/2021 3:15:00 PM 10.21 50.378 0.07 7.11 2.91 11.8
5/14/2021 3:30:00 PM 10.17 50.306 0.07 7.12 2.69 11.81
5/14/2021 3:45:00 PM 10.13 50.234 0.07 7.12 2.62 11.82
5/14/2021 4:00:00 PM 10.16 50.288 0.07 7.12 2.9 11.85
5/14/2021 4:15:00 PM 10.27 50.486 0.07 7.14 2.59 11.87
5/14/2021 4:30:00 PM 10.26 50.468 0.07 7.14 2.72 11.88
5/14/2021 4:45:00 PM 10.21 50.378 0.07 7.13 2.73 11.87
5/14/2021 5:00:00 PM 10.15 50.27 0.07 7.12 2.64 11.85
5/14/2021 5:15:00 PM 10.12 50.216 0.071 7.14 2.71 11.83
5/14/2021 5:30:00 PM 10.13 50.234 0.071 7.14 2.74 11.79
5/14/2021 5:45:00 PM 10.14 50.252 0.071 7.15 2.82 11.77
5/14/2021 6:00:00 PM 10.14 50.252 0.071 7.14 2.67 11.75
5/14/2021 6:15:00 PM 10.16 50.288 0.071 7.14 2.66 11.73
5/14/2021 6:30:00 PM 10.14 50.252 0.071 7.12 2.68 11.71
5/14/2021 6:45:00 PM 10.11 50.198 0.071 7.13 2.8 11.7
5/14/2021 7:00:00 PM 10.1 50.18 0.071 7.07 2.78 11.67
5/14/2021 7:15:00 PM 10.11 50.198 0.071 7.13 2.72 11.62
5/14/2021 7:30:00 PM 10.16 50.288 0.071 7.1 2.68 11.57
5/14/2021 7:45:00 PM 10.22 50.396 0.072 7.11 2.73 11.5
5/14/2021 8:00:00 PM 10.31 50.558 0.072 7.09 2.63 11.42
5/14/2021 8:15:00 PM 10.39 50.702 0.072 7.08 2.69 11.35
5/14/2021 8:30:00 PM 10.47 50.846 0.072 7.03 2.68 11.28
5/14/2021 8:45:00 PM 10.55 50.99 0.072 7.03 2.61 11.22
5/14/2021 9:00:00 PM 10.64 51.152 0.073 7.05 2.64 11.16
5/14/2021 9:15:00 PM 10.7 51.26 0.073 7.04 2.56 11.13
5/14/2021 9:30:00 PM 10.72 51.296 0.073 7.02 2.63 11.1
5/14/2021 9:45:00 PM 10.73 51.314 0.073 7.04 2.65 11.08
5/14/2021 10:00:00 PM 10.73 51.314 0.073 6.97 2.68 11.08
5/14/2021 10:15:00 PM 10.7 51.26 0.073 7.03 2.76 11.08
5/14/2021 10:30:00 PM 10.68 51.224 0.073 6.98 2.68 11.08
5/14/2021 10:45:00 PM 10.67 51.206 0.073 7.02 2.58 11.08
5/14/2021 11:00:00 PM 10.68 51.224 0.073 6.97 2.66 11.07
5/14/2021 11:15:00 PM 10.67 51.206 0.073 7.02 2.68 11.07
5/14/2021 11:30:00 PM 10.65 51.17 0.073 7.01 2.73 11.08
5/14/2021 11:45:00 PM 10.62 51.116 0.073 7.01 2.63 11.08
5/15/2021 12:00:00 AM 10.59 51.062 0.073 7.01 2.61 11.09
5/15/2021 12:15:00 AM 10.56 51.008 0.073 6.98 2.65 11.09
5/15/2021 12:30:00 AM 10.54 50.972 0.073 7.04 3.05 11.1
5/15/2021 12:45:00 AM 10.49 50.882 0.073 7.02 2.64 11.11
5/15/2021 1:00:00 AM 10.46 50.828 0.073 6.96 2.67 11.12
5/15/2021 1:15:00 AM 10.43 50.774 0.073 7.01 2.72 11.13
5/15/2021 1:30:00 AM 10.41 50.738 0.073 6.99 2.63 11.13
5/15/2021 1:45:00 AM 10.39 50.702 0.073 7.01 2.64 11.14
5/15/2021 2:00:00 AM 10.37 50.666 0.073 6.97 2.63 11.14
5/15/2021 2:15:00 AM 10.36 50.648 0.073 6.97 2.58 11.13
5/15/2021 2:30:00 AM 10.36 50.648 0.073 7.03 2.59 11.13
5/15/2021 2:45:00 AM 10.35 50.63 0.073 7.02 2.62 11.13
5/15/2021 3:00:00 AM 10.34 50.612 0.073 6.9 2.73 11.13
5/15/2021 3:15:00 AM 10.31 50.558 0.073 7.03 2.68 11.14
5/15/2021 3:30:00 AM 10.27 50.486 0.073 7 2.69 11.15
5/15/2021 3:45:00 AM 10.23 50.414 0.073 6.99 2.7 11.16
5/15/2021 4:00:00 AM 10.2 50.36 0.073 6.97 2.68 11.17
5/15/2021 4:15:00 AM 10.17 50.306 0.073 7.01 2.65 11.18
5/15/2021 4:30:00 AM 10.15 50.27 0.073 6.97 2.65 11.18
5/15/2021 4:45:00 AM 10.13 50.234 0.073 7 2.68 11.19
5/15/2021 5:00:00 AM 10.11 50.198 0.073 6.95 2.64 11.19
5/15/2021 5:15:00 AM 10.08 50.144 0.073 7 2.62 11.19
5/15/2021 5:30:00 AM 10.06 50.108 0.073 7 2.68 11.2
5/15/2021 5:45:00 AM 10.03 50.054 0.073 6.96 2.83 11.21
5/15/2021 6:00:00 AM 10 50 0.073 6.98 2.63 11.22
5/15/2021 6:15:00 AM 9.98 49.964 0.073 7.01 2.56 11.24
5/15/2021 6:30:00 AM 9.97 49.946 0.073 6.98 2.56 11.26
5/15/2021 6:45:00 AM 9.95 49.91 0.073 7.03 2.73 11.29
5/15/2021 7:00:00 AM 9.94 49.892 0.073 7.03 2.63 11.31
5/15/2021 7:15:00 AM 9.93 49.874 0.073 6.98 2.53 11.34
5/15/2021 7:30:00 AM 9.92 49.856 0.073 6.98 2.67 11.37
5/15/2021 7:45:00 AM 9.92 49.856 0.073 7.03 2.52 11.41
5/15/2021 8:00:00 AM 9.93 49.874 0.073 7.03 2.45 11.45
5/15/2021 8:15:00 AM 9.95 49.91 0.073 7.06 2.45 11.48
5/15/2021 8:30:00 AM 9.98 49.964 0.073 6.97 2.58 11.51
5/15/2021 8:45:00 AM 10.02 50.036 0.073 7.05 2.49 11.53
5/15/2021 9:00:00 AM 10.08 50.144 0.073 7.07 2.49 11.55
5/15/2021 9:15:00 AM 10.14 50.252 0.073 7.08 2.46 11.56
5/15/2021 9:30:00 AM 10.22 50.396 0.073 7.09 2.5 11.58
5/15/2021 9:45:00 AM 10.3 50.54 0.073 7.1 2.44 11.59
5/15/2021 10:00:00 AM 10.39 50.702 0.073 7.1 2.52 11.6
5/15/2021 10:15:00 AM 10.48 50.864 0.073 7.11 2.57 11.62
5/15/2021 10:30:00 AM 10.59 51.062 0.073 7.14 2.55 11.63
5/15/2021 10:45:00 AM 10.72 51.296 0.073 7.11 2.49 11.63
5/15/2021 11:00:00 AM 10.87 51.566 0.074 7.16 2.64 11.64
5/15/2021 11:15:00 AM 11.04 51.872 0.074 7.14 2.56 11.64
5/15/2021 11:30:00 AM 11.03 51.854 0.074 7.16 2.76 11.62
5/15/2021 11:45:00 AM 11 51.8 0.074 7.16 2.59 11.58
5/15/2021 12:00:00 PM 10.97 51.746 0.074 7.11 2.63 11.53
5/15/2021 12:15:00 PM 10.95 51.71 0.074 7.14 2.63 11.5
5/15/2021 12:30:00 PM 10.89 51.602 0.075 7.12 2.68 11.47
5/15/2021 12:45:00 PM 10.79 51.422 0.075 7.12 2.65 11.48
5/15/2021 1:00:00 PM 10.71 51.278 0.075 7.11 2.59 11.5
5/15/2021 1:15:00 PM 10.67 51.206 0.075 7.12 2.97 11.55
5/15/2021 1:30:00 PM 10.63 51.134 0.075 7.12 2.73 11.59
5/15/2021 1:45:00 PM 10.6 51.08 0.075 7.13 2.75 11.63
5/15/2021 2:00:00 PM 10.58 51.044 0.075 7.14 2.69 11.66
5/15/2021 2:15:00 PM 10.56 51.008 0.075 7.14 2.72 11.68
5/15/2021 2:30:00 PM 10.57 51.026 0.075 7.16 2.65 11.71
5/15/2021 2:45:00 PM 10.6 51.08 0.075 7.17 2.7 11.73
5/15/2021 3:00:00 PM 10.76 51.368 0.076 7.17 2.62 11.76
5/15/2021 3:15:00 PM 10.81 51.458 0.076 7.2 2.61 11.75
5/15/2021 3:30:00 PM 10.79 51.422 0.076 7.2 2.59 11.75
5/15/2021 3:45:00 PM 10.89 51.602 0.076 7.2 2.57 11.75
5/15/2021 4:00:00 PM 10.95 51.71 0.076 7.23 2.75 11.74
5/15/2021 4:15:00 PM 11.02 51.836 0.076 7.23 2.56 11.73
5/15/2021 4:30:00 PM 11.03 51.854 0.076 7.23 2.63 11.72
5/15/2021 4:45:00 PM 11.03 51.854 0.076 7.19 2.6 11.71
5/15/2021 5:00:00 PM 10.93 51.674 0.076 7.21 2.62 11.69
5/15/2021 5:15:00 PM 10.87 51.566 0.076 7.15 2.61 11.69
5/15/2021 5:30:00 PM 10.83 51.494 0.076 7.18 2.73 11.69
5/15/2021 5:45:00 PM 10.72 51.296 0.076 7.17 2.6 11.68
5/15/2021 6:00:00 PM 10.64 51.152 0.076 7.21 2.72 11.66
5/15/2021 6:15:00 PM 10.59 51.062 0.076 7.19 2.66 11.63
5/15/2021 6:30:00 PM 10.57 51.026 0.076 7.19 2.63 11.6
5/15/2021 6:45:00 PM 10.54 50.972 0.076 7.16 2.57 11.56
5/15/2021 7:00:00 PM 10.51 50.918 0.077 7.15 2.67 11.53
5/15/2021 7:15:00 PM 10.48 50.864 0.077 7.12 2.54 11.49
5/15/2021 7:30:00 PM 10.46 50.828 0.077 7.1 2.54 11.45
5/15/2021 7:45:00 PM 10.44 50.792 0.077 7.09 2.6 11.4
5/15/2021 8:00:00 PM 10.44 50.792 0.077 7.1 2.64 11.35
5/15/2021 8:15:00 PM 10.45 50.81 0.077 7.1 2.55 11.3
5/15/2021 8:30:00 PM 10.48 50.864 0.077 7.09 2.52 11.23
5/15/2021 8:45:00 PM 10.53 50.954 0.077 7.07 2.49 11.17
5/15/2021 9:00:00 PM 10.59 51.062 0.077 7.05 2.64 11.12
5/15/2021 9:15:00 PM 10.63 51.134 0.077 7.05 2.64 11.09
5/15/2021 9:30:00 PM 10.66 51.188 0.077 6.96 2.6 11.05
5/15/2021 9:45:00 PM 10.68 51.224 0.077 7.04 2.7 11.03
5/15/2021 10:00:00 PM 10.7 51.26 0.077 6.98 2.54 11.02
5/15/2021 10:15:00 PM 10.72 51.296 0.078 7.03 2.68 11
5/15/2021 10:30:00 PM 10.72 51.296 0.078 7.03 2.63 11
5/15/2021 10:45:00 PM 10.72 51.296 0.078 7.02 2.62 11
5/15/2021 11:00:00 PM 10.71 51.278 0.078 7.03 2.66 11
5/15/2021 11:15:00 PM 10.71 51.278 0.078 6.98 2.64 10.99
5/15/2021 11:30:00 PM 10.71 51.278 0.078 7.02 2.59 10.99
5/15/2021 11:45:00 PM 10.72 51.296 0.078 6.98 2.57 10.99
5/16/2021 12:00:00 AM 10.74 51.332 0.078 7.03 2.66 10.98
5/16/2021 12:15:00 AM 10.74 51.332 0.078 6.97 2.66 10.98
5/16/2021 12:30:00 AM 10.73 51.314 0.078 7.03 2.66 10.98
5/16/2021 12:45:00 AM 10.72 51.296 0.078 7.03 2.64 10.98
5/16/2021 1:00:00 AM 10.72 51.296 0.078 6.97 2.7 10.98
5/16/2021 1:15:00 AM 10.71 51.278 0.079 7.02 2.67 10.98
5/16/2021 1:30:00 AM 10.71 51.278 0.078 7.03 2.47 10.98
5/16/2021 1:45:00 AM 10.71 51.278 0.078 7.03 2.63 10.98
5/16/2021 2:00:00 AM 10.71 51.278 0.078 7.01 2.46 10.97
5/16/2021 2:15:00 AM 10.7 51.26 0.079 7.02 2.53 10.98
5/16/2021 2:30:00 AM 10.68 51.224 0.078 7.02 2.43 10.98
5/16/2021 2:45:00 AM 10.65 51.17 0.079 7.02 2.69 10.98
5/16/2021 3:00:00 AM 10.62 51.116 0.078 7.01 2.52 10.98
5/16/2021 3:15:00 AM 10.6 51.08 0.079 7.01 2.56 10.99
5/16/2021 3:30:00 AM 10.58 51.044 0.079 7.01 3.16 10.99
5/16/2021 3:45:00 AM 10.56 51.008 0.079 7.01 2.6 10.99
5/16/2021 4:00:00 AM 10.54 50.972 0.079 7.01 2.58 11
5/16/2021 4:15:00 AM 10.53 50.954 0.079 6.98 2.62 11
5/16/2021 4:30:00 AM 10.52 50.936 0.079 6.92 2.51 11
5/16/2021 4:45:00 AM 10.5 50.9 0.079 7.02 2.48 11
5/16/2021 5:00:00 AM 10.49 50.882 0.079 7.02 2.54 11
5/16/2021 5:15:00 AM 10.48 50.864 0.079 6.97 2.37 11
5/16/2021 5:30:00 AM 10.47 50.846 0.079 7.02 3.21 11
5/16/2021 5:45:00 AM 10.46 50.828 0.079 7.02 2.59 11
5/16/2021 6:00:00 AM 10.46 50.828 0.079 7 2.54 11.02
5/16/2021 6:15:00 AM 10.45 50.81 0.079 7.02 2.42 11.03
5/16/2021 6:30:00 AM 10.44 50.792 0.079 6.99 2.51 11.06
5/16/2021 6:45:00 AM 10.45 50.81 0.079 7.02 2.59 11.09
5/16/2021 7:00:00 AM 10.45 50.81 0.079 7.04 2.59 11.12
5/16/2021 7:15:00 AM 10.46 50.828 0.079 7.06 2.43 11.17
5/16/2021 7:30:00 AM 10.47 50.846 0.079 7.07 2.43 11.21
5/16/2021 7:45:00 AM 10.49 50.882 0.079 7.08 2.32 11.25
5/16/2021 8:00:00 AM 10.5 50.9 0.079 7.08 2.45 11.26
5/16/2021 8:15:00 AM 10.51 50.918 0.079 7.08 2.36 11.28
5/16/2021 8:30:00 AM 10.53 50.954 0.079 7.09 2.38 11.32
5/16/2021 8:45:00 AM 10.57 51.026 0.078 7.1 2.47 11.37
5/16/2021 9:00:00 AM 10.62 51.116 0.078 7.12 2.37 11.42
5/16/2021 9:15:00 AM 10.65 51.17 0.078 7.15 2.43 11.46
5/16/2021 9:30:00 AM 10.7 51.26 0.078 7.15 2.33 11.48
5/16/2021 9:45:00 AM 10.75 51.35 0.078 7.16 2.35 11.52
5/16/2021 10:00:00 AM 10.8 51.44 0.078 7.17 2.32 11.54
5/16/2021 10:15:00 AM 10.85 51.53 0.078 7.13 2.44 11.57
5/16/2021 10:30:00 AM 10.93 51.674 0.078 7.15 2.34 11.6
5/16/2021 10:45:00 AM 11.01 51.818 0.078 7.17 2.43 11.62
5/16/2021 11:00:00 AM 11.1 51.98 0.078 7.22 2.39 11.63
5/16/2021 11:15:00 AM 11.17 52.106 0.078 7.23 2.32 11.63
5/16/2021 11:30:00 AM 11.23 52.214 0.078 7.24 2.42 11.63
5/16/2021 11:45:00 AM 11.28 52.304 0.078 7.24 2.33 11.63
5/16/2021 12:00:00 PM 11.34 52.412 0.078 7.26 2.59 11.62
5/16/2021 12:15:00 PM 11.41 52.538 0.078 7.26 2.45 11.62
5/16/2021 12:30:00 PM 11.47 52.646 0.078 7.26 2.35 11.62
5/16/2021 12:45:00 PM 11.51 52.718 0.078 7.23 2.43 11.61
5/16/2021 1:00:00 PM 11.54 52.772 0.079 7.21 2.49 11.6
5/16/2021 1:15:00 PM 11.61 52.898 0.079 7.27 2.57 11.6
5/16/2021 1:30:00 PM 11.69 53.042 0.079 7.28 2.45 11.6
5/16/2021 1:45:00 PM 11.77 53.186 0.079 7.29 2.6 11.6
5/16/2021 2:00:00 PM 11.81 53.258 0.079 7.29 2.46 11.6
5/16/2021 2:15:00 PM 11.84 53.312 0.08 7.29 2.32 11.59
5/16/2021 2:30:00 PM 11.88 53.384 0.08 7.29 2.45 11.59
5/16/2021 2:45:00 PM 11.87 53.366 0.08 7.3 2.38 11.59
5/16/2021 3:00:00 PM 11.9 53.42 0.08 7.31 2.3 11.59
5/16/2021 3:15:00 PM 11.93 53.474 0.08 7.28 2.55 11.57
5/16/2021 3:30:00 PM 11.96 53.528 0.08 7.3 2.42 11.57
5/16/2021 3:45:00 PM 11.95 53.51 0.08 7.28 2.56 11.57
5/16/2021 4:00:00 PM 11.93 53.474 0.08 7.28 2.51 11.56
5/16/2021 4:15:00 PM 11.91 53.438 0.08 7.31 2.56 11.56
5/16/2021 4:30:00 PM 11.81 53.258 0.081 7.27 2.43 11.56
5/16/2021 4:45:00 PM 11.73 53.114 0.081 7.28 2.52 11.55
5/16/2021 5:00:00 PM 11.64 52.952 0.081 7.28 2.51 11.53
5/16/2021 5:15:00 PM 11.6 52.88 0.081 7.26 2.49 11.52
5/16/2021 5:30:00 PM 11.47 52.646 0.082 7.25 2.56 11.49
5/16/2021 5:45:00 PM 11.32 52.376 0.082 7.26 2.59 11.46
5/16/2021 6:00:00 PM 11.2 52.16 0.082 7.19 2.62 11.43
5/16/2021 6:15:00 PM 11.1 51.98 0.082 7.2 2.6 11.41
5/16/2021 6:30:00 PM 11.04 51.872 0.082 7.2 2.5 11.4
5/16/2021 6:45:00 PM 10.98 51.764 0.083 7.19 2.58 11.37
5/16/2021 7:00:00 PM 10.94 51.692 0.083 7.19 2.65 11.34
5/16/2021 7:15:00 PM 10.9 51.62 0.083 7.18 2.54 11.33
5/16/2021 7:30:00 PM 10.88 51.584 0.083 7.18 2.51 11.32
5/16/2021 7:45:00 PM 10.86 51.548 0.083 7.17 2.46 11.28
5/16/2021 8:00:00 PM 10.86 51.548 0.083 7.15 2.57 11.22
5/16/2021 8:15:00 PM 10.86 51.548 0.083 7.14 2.66 11.15
5/16/2021 8:30:00 PM 10.86 51.548 0.083 7.12 2.54 11.1
5/16/2021 8:45:00 PM 10.85 51.53 0.083 7.13 2.51 11.05
5/16/2021 9:00:00 PM 10.85 51.53 0.083 7.09 2.56 11.01
5/16/2021 9:15:00 PM 10.85 51.53 0.083 7.09 2.6 10.98
5/16/2021 9:30:00 PM 10.86 51.548 0.082 7.09 2.91 10.95
5/16/2021 9:45:00 PM 10.88 51.584 0.083 7.03 2.71 10.92
5/16/2021 10:00:00 PM 10.9 51.62 0.082 7.07 2.55 10.89
5/16/2021 10:15:00 PM 10.91 51.638 0.083 7.07 2.64 10.88
5/16/2021 10:30:00 PM 10.91 51.638 0.083 7.06 3.17 10.87
5/16/2021 10:45:00 PM 10.91 51.638 0.083 7.06 2.67 10.87
5/16/2021 11:00:00 PM 10.89 51.602 0.083 7.06 2.69 10.87
5/16/2021 11:15:00 PM 10.87 51.566 0.083 7.05 2.73 10.87
5/16/2021 11:30:00 PM 10.85 51.53 0.083 7.06 2.64 10.87
5/16/2021 11:45:00 PM 10.83 51.494 0.083 7.06 2.51 10.88
5/17/2021 12:00:00 AM 10.82 51.476 0.083 7.02 2.9 10.88
5/17/2021 12:15:00 AM 10.81 51.458 0.083 7.05 2.78 10.88
5/17/2021 12:30:00 AM 10.81 51.458 0.083 7.04 2.55 10.88
5/17/2021 12:45:00 AM 10.82 51.476 0.083 7.05 2.57 10.87
5/17/2021 1:00:00 AM 10.81 51.458 0.083 7.05 2.65 10.87
5/17/2021 1:15:00 AM 10.81 51.458 0.083 7.04 2.78 10.87
5/17/2021 1:30:00 AM 10.8 51.44 0.083 7.05 2.47 10.87
5/17/2021 1:45:00 AM 10.8 51.44 0.083 7.01 2.45 10.87
5/17/2021 2:00:00 AM 10.79 51.422 0.083 7.04 2.52 10.87
5/17/2021 2:15:00 AM 10.8 51.44 0.083 7.05 2.68 10.87
5/17/2021 2:30:00 AM 10.8 51.44 0.083 7.04 2.79 10.86
5/17/2021 2:45:00 AM 10.81 51.458 0.083 7.04 2.73 10.86
5/17/2021 3:00:00 AM 10.82 51.476 0.083 7.05 2.62 10.86
5/17/2021 3:15:00 AM 10.82 51.476 0.083 7.05 2.5 10.86
5/17/2021 3:30:00 AM 10.81 51.458 0.083 7.03 2.6 10.86
5/17/2021 3:45:00 AM 10.8 51.44 0.083 7.03 2.61 10.86
5/17/2021 4:00:00 AM 10.79 51.422 0.083 7.05 2.52 10.86
5/17/2021 4:15:00 AM 10.77 51.386 0.083 7.02 2.39 10.86
5/17/2021 4:30:00 AM 10.76 51.368 0.083 7.03 2.47 10.87
5/17/2021 4:45:00 AM 10.74 51.332 0.084 7.04 2.56 10.87
5/17/2021 5:00:00 AM 10.73 51.314 0.083 7.04 2.47 10.87
5/17/2021 5:15:00 AM 10.72 51.296 0.083 7.04 2.45 10.87
5/17/2021 5:30:00 AM 10.71 51.278 0.083 7.04 2.5 10.87
5/17/2021 5:45:00 AM 10.69 51.242 0.084 7.04 2.52 10.88
5/17/2021 6:00:00 AM 10.68 51.224 0.083 7.03 2.42 10.89
5/17/2021 6:15:00 AM 10.67 51.206 0.083 7.04 2.45 10.91
5/17/2021 6:30:00 AM 10.66 51.188 0.083 7.04 2.39 10.94
5/17/2021 6:45:00 AM 10.65 51.17 0.083 7.06 2.52 10.97
5/17/2021 7:00:00 AM 10.64 51.152 0.083 7.04 2.37 11
5/17/2021 7:15:00 AM 10.64 51.152 0.083 7.07 2.64 11.03
5/17/2021 7:30:00 AM 10.63 51.134 0.083 7.06 2.43 11.06
5/17/2021 7:45:00 AM 10.65 51.17 0.083 7.1 2.41 11.11
5/17/2021 8:00:00 AM 10.68 51.224 0.083 7.1 2.36 11.16
5/17/2021 8:15:00 AM 10.71 51.278 0.083 7.11 2.42 11.19
5/17/2021 8:30:00 AM 10.75 51.35 0.083 7.13 2.47 11.23
5/17/2021 8:45:00 AM 10.8 51.44 0.083 7.13 2.31 11.27
5/17/2021 9:00:00 AM 10.86 51.548 0.083 7.14 2.37 11.29
5/17/2021 9:15:00 AM 10.92 51.656 0.083 7.11 2.33 11.32
5/17/2021 9:30:00 AM 10.99 51.782 0.083 7.16 2.47 11.35
5/17/2021 9:45:00 AM 11.07 51.926 0.083 7.18 2.38 11.37
5/17/2021 10:00:00 AM 11.15 52.07 0.083 7.19 2.45 11.39
5/17/2021 10:15:00 AM 11.27 52.286 0.083 7.2 2.44 11.39
5/17/2021 10:30:00 AM 11.41 52.538 0.083 7.22 2.37 11.4
5/17/2021 10:45:00 AM 11.56 52.808 0.083 7.23 2.4 11.41
5/17/2021 11:00:00 AM 11.72 53.096 0.083 7.24 2.4 11.41
5/17/2021 11:15:00 AM 11.9 53.42 0.083 7.24 2.42 11.41
5/17/2021 11:30:00 AM 12.07 53.726 0.084 7.26 2.38 11.4
5/17/2021 11:45:00 AM 12.26 54.068 0.084 7.26 2.44 11.39
5/17/2021 12:00:00 PM 12.45 54.41 0.084 7.27 2.44 11.37
5/17/2021 12:15:00 PM 12.65 54.77 0.084 7.27 2.42 11.35
5/17/2021 12:30:00 PM 12.84 55.112 0.084 7.29 2.46 11.33
5/17/2021 12:45:00 PM 13.04 55.472 0.084 7.29 2.43 11.31
5/17/2021 1:00:00 PM 13.23 55.814 0.084 7.3 2.4 11.3
5/17/2021 1:15:00 PM 13.43 56.174 0.085 7.32 2.41 11.29
5/17/2021 1:30:00 PM 13.46 56.228 0.085 7.28 2.43 11.26
5/17/2021 1:45:00 PM 13.47 56.246 0.085 7.29 2.48 11.24
5/17/2021 2:00:00 PM 13.51 56.318 0.085 7.3 2.46 11.22
5/17/2021 2:15:00 PM 13.49 56.282 0.085 7.25 2.44 11.21
5/17/2021 2:30:00 PM 13.5 56.3 0.085 7.26 2.64 11.21
5/17/2021 2:45:00 PM 13.63 56.534 0.086 7.31 2.31 11.21
5/17/2021 3:00:00 PM 13.55 56.39 0.086 7.31 2.49 11.21
5/17/2021 3:15:00 PM 13.46 56.228 0.086 7.29 2.53 11.2
5/17/2021 3:30:00 PM 13.24 55.832 0.086 7.29 2.56 11.19
5/17/2021 3:45:00 PM 13.06 55.508 0.086 7.24 2.72 11.22
5/17/2021 4:00:00 PM 13.06 55.508 0.087 7.3 2.69 11.26
5/17/2021 4:15:00 PM 12.76 54.968 0.087 7.29 2.57 11.25
5/17/2021 4:30:00 PM 12.54 54.572 0.087 7.3 2.65 11.25
5/17/2021 4:45:00 PM 12.35 54.23 0.087 7.21 2.54 11.26
5/17/2021 5:00:00 PM 12.16 53.888 0.087 7.25 2.57 11.24
5/17/2021 5:15:00 PM 12.02 53.636 0.087 7.25 2.52 11.24
5/17/2021 5:30:00 PM 11.92 53.456 0.087 7.26 2.53 11.24
5/17/2021 5:45:00 PM 11.81 53.258 0.087 7.24 2.53 11.23
5/17/2021 6:00:00 PM 11.73 53.114 0.087 7.23 2.66 11.22
5/17/2021 6:15:00 PM 11.66 52.988 0.087 7.22 2.47 11.19
5/17/2021 6:30:00 PM 11.61 52.898 0.087 7.18 2.61 11.16
5/17/2021 6:45:00 PM 11.59 52.862 0.087 7.18 2.58 11.12
5/17/2021 7:00:00 PM 11.61 52.898 0.087 7.2 2.49 11.09
5/17/2021 7:15:00 PM 11.64 52.952 0.087 7.19 2.4 11.06
5/17/2021 7:30:00 PM 11.65 52.97 0.087 7.18 2.31 11.01
5/17/2021 7:45:00 PM 11.67 53.006 0.087 7.18 2.44 10.96
5/17/2021 8:00:00 PM 11.68 53.024 0.087 7.17 2.41 10.91
5/17/2021 8:15:00 PM 11.7 53.06 0.087 7.16 2.41 10.85
5/17/2021 8:30:00 PM 11.71 53.078 0.087 7.12 2.37 10.8
5/17/2021 8:45:00 PM 11.7 53.06 0.087 7.11 2.39 10.75
5/17/2021 9:00:00 PM 11.69 53.042 0.088 7.11 2.53 10.72
5/17/2021 9:15:00 PM 11.67 53.006 0.087 7.11 2.89 10.69
5/17/2021 9:30:00 PM 11.66 52.988 0.087 7.1 2.62 10.67
5/17/2021 9:45:00 PM 11.64 52.952 0.087 7.09 2.68 10.66
5/17/2021 10:00:00 PM 11.62 52.916 0.087 7.03 2.61 10.65
5/17/2021 10:15:00 PM 11.61 52.898 0.087 7.08 2.53 10.64
5/17/2021 10:30:00 PM 11.6 52.88 0.087 7.08 2.49 10.63
5/17/2021 10:45:00 PM 11.6 52.88 0.087 7.08 2.61 10.63
5/17/2021 11:00:00 PM 11.61 52.898 0.087 7.07 2.55 10.62
5/17/2021 11:15:00 PM 11.62 52.916 0.087 7.07 2.54 10.61
5/17/2021 11:30:00 PM 11.64 52.952 0.087 7.07 2.5 10.6
5/17/2021 11:45:00 PM 11.65 52.97 0.087 7.08 2.51 10.59
5/18/2021 12:00:00 AM 11.68 53.024 0.087 7.04 2.49 10.59
5/18/2021 12:15:00 AM 11.71 53.078 0.087 7.06 2.47 10.58
5/18/2021 12:30:00 AM 11.76 53.168 0.087 7.07 2.5 10.56
5/18/2021 12:45:00 AM 11.85 53.33 0.087 7.07 2.44 10.53
5/18/2021 1:00:00 AM 11.96 53.528 0.088 7.07 2.43 10.49
5/18/2021 1:15:00 AM 12.07 53.726 0.088 7.08 2.56 10.46
5/18/2021 1:30:00 AM 12.16 53.888 0.088 7.07 2.65 10.43
5/18/2021 1:45:00 AM 12.25 54.05 0.088 7.06 2.58 10.41
5/18/2021 2:00:00 AM 12.32 54.176 0.088 7.05 2.57 10.39
5/18/2021 2:15:00 AM 12.37 54.266 0.089 7.08 2.62 10.38
5/18/2021 2:30:00 AM 12.39 54.302 0.089 7.07 2.43 10.37
5/18/2021 2:45:00 AM 12.4 54.32 0.089 7.01 2.5 10.37
5/18/2021 3:00:00 AM 12.39 54.302 0.089 7.07 2.54 10.37
5/18/2021 3:15:00 AM 12.38 54.284 0.089 7.06 2.65 10.38
5/18/2021 3:30:00 AM 12.37 54.266 0.089 7.06 2.55 10.38
5/18/2021 3:45:00 AM 12.36 54.248 0.089 7.06 2.43 10.38
5/18/2021 4:00:00 AM 12.35 54.23 0.089 7.06 2.57 10.38
5/18/2021 4:15:00 AM 12.33 54.194 0.089 7.06 2.43 10.39
5/18/2021 4:30:00 AM 12.32 54.176 0.089 7.04 2.58 10.39
5/18/2021 4:45:00 AM 12.3 54.14 0.089 7.06 2.38 10.4
5/18/2021 5:00:00 AM 12.27 54.086 0.089 7.06 2.53 10.4
5/18/2021 5:15:00 AM 12.25 54.05 0.089 7.06 2.44 10.41
5/18/2021 5:30:00 AM 12.22 53.996 0.089 7.06 2.47 10.42
5/18/2021 5:45:00 AM 12.19 53.942 0.089 7.05 2.58 10.43
5/18/2021 6:00:00 AM 12.16 53.888 0.089 7.06 2.55 10.45
5/18/2021 6:15:00 AM 12.14 53.852 0.089 7.02 2.4 10.48
5/18/2021 6:30:00 AM 12.12 53.816 0.089 7.06 2.39 10.51
5/18/2021 6:45:00 AM 12.11 53.798 0.089 7.08 2.37 10.55
5/18/2021 7:00:00 AM 12.09 53.762 0.089 7.09 2.32 10.59
5/18/2021 7:15:00 AM 12.08 53.744 0.088 7.09 2.32 10.62
5/18/2021 7:30:00 AM 12.07 53.726 0.088 7.12 2.31 10.66
5/18/2021 7:45:00 AM 12.09 53.762 0.089 7.08 2.25 10.71
5/18/2021 8:00:00 AM 12.11 53.798 0.088 7.12 2.26 10.76
5/18/2021 8:15:00 AM 12.15 53.87 0.088 7.12 2.3 10.81
5/18/2021 8:30:00 AM 12.2 53.96 0.088 7.15 2.42 10.85
5/18/2021 8:45:00 AM 12.24 54.032 0.088 7.16 2.24 10.89
5/18/2021 9:00:00 AM 12.29 54.122 0.088 7.17 2.3 10.92
5/18/2021 9:15:00 AM 12.34 54.212 0.088 7.18 2.35 10.95
5/18/2021 9:30:00 AM 12.4 54.32 0.088 7.2 2.25 10.98
5/18/2021 9:45:00 AM 12.47 54.446 0.088 7.21 2.42 11
5/18/2021 10:00:00 AM 12.56 54.608 0.088 7.23 2.28 11.03
5/18/2021 10:15:00 AM 12.66 54.788 0.088 7.23 2.24 11.05
5/18/2021 10:30:00 AM 12.79 55.022 0.088 7.24 2.32 11.07
5/18/2021 10:45:00 AM 12.92 55.256 0.087 7.26 2.28 11.09
5/18/2021 11:00:00 AM 13.08 55.544 0.087 7.28 2.18 11.1
5/18/2021 11:15:00 AM 13.26 55.868 0.087 7.29 2.24 11.1
5/18/2021 11:30:00 AM 13.45 56.21 0.087 7.27 2.3 11.1
5/18/2021 11:45:00 AM 13.66 56.588 0.087 7.31 2.25 11.1
5/18/2021 12:00:00 PM 13.87 56.966 0.087 7.32 2.25 11.09
5/18/2021 12:15:00 PM 14.09 57.362 0.087 7.34 2.28 11.08
5/18/2021 12:30:00 PM 14.31 57.758 0.087 7.32 2.42 11.07
5/18/2021 12:45:00 PM 14.48 58.064 0.087 7.35 2.29 11.06
5/18/2021 1:00:00 PM 14.59 58.262 0.088 7.35 2.4 11.03
5/18/2021 1:15:00 PM 14.82 58.676 0.088 7.37 2.34 11.02
5/18/2021 1:30:00 PM 14.99 58.982 0.088 7.37 2.39 11.02
5/18/2021 1:45:00 PM 14.97 58.946 0.088 7.36 2.35 10.96
5/18/2021 2:00:00 PM 15.18 59.324 0.088 7.38 2.36 10.97
5/18/2021 2:15:00 PM 15.09 59.162 0.088 7.37 2.39 10.96
5/18/2021 2:30:00 PM 15.33 59.594 0.088 7.4 2.46 10.97
5/18/2021 2:45:00 PM 15.13 59.234 0.089 7.37 2.6 10.97
5/18/2021 3:00:00 PM 14.94 58.892 0.089 7.38 2.32 10.98
5/18/2021 3:15:00 PM 14.83 58.694 0.089 7.37 2.5 10.99
5/18/2021 3:30:00 PM 14.77 58.586 0.089 7.38 2.5 11.02
5/18/2021 3:45:00 PM 14.62 58.316 0.089 7.32 2.48 11.02
5/18/2021 4:00:00 PM 14.51 58.118 0.089 7.39 2.5 11.02
5/18/2021 4:15:00 PM 14.53 58.154 0.089 7.38 2.37 11.02
5/18/2021 4:30:00 PM 14.49 58.082 0.089 7.38 2.42 11.03
5/18/2021 4:45:00 PM 14.38 57.884 0.09 7.37 2.44 11.03
5/18/2021 5:00:00 PM 14.23 57.614 0.09 7.37 2.45 11.01
5/18/2021 5:15:00 PM 14.08 57.344 0.09 7.35 2.41 10.99
5/18/2021 5:30:00 PM 13.93 57.074 0.09 7.34 2.46 10.94
5/18/2021 5:45:00 PM 13.78 56.804 0.09 7.31 2.67 10.89
5/18/2021 6:00:00 PM 13.67 56.606 0.09 7.3 2.39 10.85
5/18/2021 6:15:00 PM 13.6 56.48 0.09 7.24 2.34 10.83
5/18/2021 6:30:00 PM 13.51 56.318 0.091 7.27 2.42 10.78
5/18/2021 6:45:00 PM 13.43 56.174 0.091 7.22 2.39 10.75
5/18/2021 7:00:00 PM 13.35 56.03 0.091 7.23 2.41 10.71
5/18/2021 7:15:00 PM 13.28 55.904 0.091 7.18 2.42 10.67
5/18/2021 7:30:00 PM 13.22 55.796 0.091 7.18 2.52 10.64
5/18/2021 7:45:00 PM 13.16 55.688 0.091 7.2 2.42 10.59
5/18/2021 8:00:00 PM 13.09 55.562 0.091 7.12 2.45 10.56
5/18/2021 8:15:00 PM 13.02 55.436 0.091 7.15 2.35 10.51
5/18/2021 8:30:00 PM 12.95 55.31 0.091 7.15 2.48 10.46
5/18/2021 8:45:00 PM 12.88 55.184 0.091 7.14 3.23 10.42
5/18/2021 9:00:00 PM 12.85 55.13 0.091 7.12 2.43 10.38
5/18/2021 9:15:00 PM 12.82 55.076 0.091 7.12 2.51 10.36
5/18/2021 9:30:00 PM 12.79 55.022 0.091 7.11 2.53 10.33
5/18/2021 9:45:00 PM 12.75 54.95 0.092 7.11 2.52 10.33
5/18/2021 10:00:00 PM 12.72 54.896 0.092 7.1 2.48 10.32
5/18/2021 10:15:00 PM 12.69 54.842 0.092 7.08 2.58 10.32
5/18/2021 10:30:00 PM 12.68 54.824 0.093 7.08 2.54 10.3
5/18/2021 10:45:00 PM 12.69 54.842 0.093 7.09 2.49 10.29
5/18/2021 11:00:00 PM 12.72 54.896 0.093 7.09 2.62 10.27
5/18/2021 11:15:00 PM 12.78 55.004 0.093 7.09 2.46 10.25
5/18/2021 11:30:00 PM 12.85 55.13 0.093 7.08 2.52 10.23
5/18/2021 11:45:00 PM 12.92 55.256 0.093 7.08 2.44 10.2
5/19/2021 12:00:00 AM 12.99 55.382 0.093 7.07 2.62 10.18
5/19/2021 12:15:00 AM 13.06 55.508 0.093 7.08 2.43 10.16
5/19/2021 12:30:00 AM 13.12 55.616 0.093 7.03 2.41 10.15
5/19/2021 12:45:00 AM 13.17 55.706 0.093 7.06 2.48 10.13
5/19/2021 1:00:00 AM 13.21 55.778 0.093 7.07 2.42 10.12
5/19/2021 1:15:00 AM 13.25 55.85 0.093 7.04 2.57 10.1
5/19/2021 1:30:00 AM 13.28 55.904 0.093 7.04 2.54 10.1
5/19/2021 1:45:00 AM 13.3 55.94 0.093 7.06 2.53 10.09
5/19/2021 2:00:00 AM 13.32 55.976 0.093 7.07 2.36 10.09
5/19/2021 2:15:00 AM 13.32 55.976 0.093 7.07 2.52 10.09
5/19/2021 2:30:00 AM 13.32 55.976 0.093 7.07 2.46 10.09
5/19/2021 2:45:00 AM 13.32 55.976 0.093 7.06 2.56 10.08
5/19/2021 3:00:00 AM 13.32 55.976 0.093 7.06 2.47 10.09
5/19/2021 3:15:00 AM 13.32 55.976 0.093 7.06 2.46 10.08
5/19/2021 3:30:00 AM 13.31 55.958 0.093 7.04 2.47 10.09
5/19/2021 3:45:00 AM 13.3 55.94 0.093 7.05 2.44 10.08
5/19/2021 4:00:00 AM 13.27 55.886 0.093 7.05 2.58 10.1
5/19/2021 4:15:00 AM 13.24 55.832 0.093 7.06 2.45 10.11
5/19/2021 4:30:00 AM 13.2 55.76 0.093 7.05 2.38 10.12
5/19/2021 4:45:00 AM 13.17 55.706 0.093 7.06 2.65 10.13
5/19/2021 5:00:00 AM 13.13 55.634 0.093 7.01 2.58 10.13
5/19/2021 5:15:00 AM 13.1 55.58 0.093 7.05 2.63 10.14
5/19/2021 5:30:00 AM 13.07 55.526 0.093 6.99 2.5 10.15
5/19/2021 5:45:00 AM 13.04 55.472 0.093 7.06 2.53 10.16
5/19/2021 6:00:00 AM 13.02 55.436 0.094 7.07 2.58 10.18
5/19/2021 6:15:00 AM 13 55.4 0.094 7.07 2.5 10.21
5/19/2021 6:30:00 AM 12.98 55.364 0.093 6.98 2.47 10.25
5/19/2021 6:45:00 AM 12.96 55.328 0.094 7.1 2.38 10.29
5/19/2021 7:00:00 AM 12.94 55.292 0.093 7.08 2.44 10.33
5/19/2021 7:15:00 AM 12.92 55.256 0.093 7.05 2.46 10.37
5/19/2021 7:30:00 AM 12.91 55.238 0.093 7.1 2.41 10.42
5/19/2021 7:45:00 AM 12.92 55.256 0.093 7.12 2.45 10.48
5/19/2021 8:00:00 AM 12.94 55.292 0.093 7.13 2.4 10.54
5/19/2021 8:15:00 AM 12.96 55.328 0.093 7.12 2.32 10.59
5/19/2021 8:30:00 AM 12.99 55.382 0.093 7.15 2.35 10.65
5/19/2021 8:45:00 AM 13.03 55.454 0.093 7.15 2.35 10.7
5/19/2021 9:00:00 AM 13.06 55.508 0.093 7.17 2.39 10.74
5/19/2021 9:15:00 AM 13.11 55.598 0.092 7.2 2.53 10.79
5/19/2021 9:30:00 AM 13.16 55.688 0.093 7.21 2.43 10.82
5/19/2021 9:45:00 AM 13.22 55.796 0.092 7.21 2.42 10.85
5/19/2021 10:00:00 AM 13.29 55.922 0.092 7.23 2.41 10.88
5/19/2021 10:15:00 AM 13.39 56.102 0.093 7.25 2.32 10.9
5/19/2021 10:30:00 AM 13.51 56.318 0.093 7.26 2.39 10.92
5/19/2021 10:45:00 AM 13.65 56.57 0.093 7.27 2.3 10.93
5/19/2021 11:00:00 AM 13.81 56.858 0.093 7.29 2.35 10.93
5/19/2021 11:15:00 AM 14 57.2 0.093 7.3 2.38 10.94
5/19/2021 11:30:00 AM 14.21 57.578 0.093 7.32 2.41 10.93
5/19/2021 11:45:00 AM 14.43 57.974 0.093 7.33 2.38 10.93
5/19/2021 12:00:00 PM 14.66 58.388 0.093 7.35 2.31 10.92
5/19/2021 12:15:00 PM 14.89 58.802 0.094 7.36 2.36 10.9
5/19/2021 12:30:00 PM 15.13 59.234 0.094 7.36 2.43 10.88
5/19/2021 12:45:00 PM 15.36 59.648 0.094 7.37 2.41 10.86
5/19/2021 1:00:00 PM 15.6 60.08 0.094 7.38 2.27 10.84
5/19/2021 1:15:00 PM 15.82 60.476 0.094 7.38 2.28 10.82
5/19/2021 1:30:00 PM 16.03 60.854 0.094 7.37 2.28 10.8
5/19/2021 1:45:00 PM 16.22 61.196 0.094 7.39 2.28 10.78
5/19/2021 2:00:00 PM 16.39 61.502 0.094 7.41 2.28 10.76
5/19/2021 2:15:00 PM 16.55 61.79 0.095 7.41 2.24 10.73
5/19/2021 2:30:00 PM 16.67 62.006 0.095 7.42 2.26 10.72
5/19/2021 2:45:00 PM 16.77 62.186 0.095 7.41 2.24 10.7
5/19/2021 3:00:00 PM 16.79 62.222 0.095 7.42 2.43 10.69
5/19/2021 3:15:00 PM 16.79 62.222 0.095 7.42 2.42 10.68
5/19/2021 3:30:00 PM 16.8 62.24 0.095 7.4 2.42 10.69
5/19/2021 3:45:00 PM 16.68 62.024 0.095 7.39 2.38 10.68
5/19/2021 4:00:00 PM 16.55 61.79 0.095 7.39 2.3 10.67
5/19/2021 4:15:00 PM 16.41 61.538 0.095 7.39 2.59 10.66
5/19/2021 4:30:00 PM 16.38 61.484 0.095 7.39 2.35 10.64
5/19/2021 4:45:00 PM 16.33 61.394 0.095 7.4 2.34 10.62
5/19/2021 5:00:00 PM 16.22 61.196 0.095 7.38 2.33 10.6
5/19/2021 5:15:00 PM 16.09 60.962 0.095 7.38 2.32 10.55
5/19/2021 5:30:00 PM 15.92 60.656 0.095 7.34 2.42 10.48
5/19/2021 5:45:00 PM 15.82 60.476 0.095 7.33 2.33 10.42
5/19/2021 6:00:00 PM 15.76 60.368 0.095 7.38 2.4 10.39
5/19/2021 6:15:00 PM 15.67 60.206 0.095 7.31 2.21 10.36
5/19/2021 6:30:00 PM 15.54 59.972 0.095 7.29 2.38 10.36
5/19/2021 6:45:00 PM 15.36 59.648 0.095 7.32 2.32 10.35
5/19/2021 7:00:00 PM 15.18 59.324 0.096 7.31 2.45 10.34
5/19/2021 7:15:00 PM 14.98 58.964 0.096 7.23 2.4 10.33
5/19/2021 7:30:00 PM 14.77 58.586 0.096 7.21 2.39 10.32
5/19/2021 7:45:00 PM 14.57 58.226 0.096 7.18 2.41 10.31
5/19/2021 8:00:00 PM 14.37 57.866 0.096 7.17 2.57 10.29
5/19/2021 8:15:00 PM 14.2 57.56 0.096 7.15 2.51 10.26
5/19/2021 8:30:00 PM 14.05 57.29 0.096 7.12 2.62 10.22
5/19/2021 8:45:00 PM 13.92 57.056 0.096 7.12 2.5 10.19
5/19/2021 9:00:00 PM 13.82 56.876 0.097 7.13 2.51 10.16
5/19/2021 9:15:00 PM 13.74 56.732 0.097 7.11 2.44 10.13
5/19/2021 9:30:00 PM 13.68 56.624 0.097 7.11 2.56 10.11
5/19/2021 9:45:00 PM 13.66 56.588 0.097 7.11 2.55 10.09
5/19/2021 10:00:00 PM 13.68 56.624 0.097 7.1 2.45 10.06
5/19/2021 10:15:00 PM 13.75 56.75 0.097 7.1 2.4 10.01
5/19/2021 10:30:00 PM 13.85 56.93 0.097 7.1 2.47 9.96
5/19/2021 10:45:00 PM 13.97 57.146 0.097 7.1 2.34 9.92
5/19/2021 11:00:00 PM 14.09 57.362 0.097 7.08 2.36 9.87
5/19/2021 11:15:00 PM 14.2 57.56 0.097 7.07 2.57 9.83
5/19/2021 11:30:00 PM 14.3 57.74 0.097 7.08 2.47 9.8
5/19/2021 11:45:00 PM 14.39 57.902 0.097 7.09 2.34 9.78
5/20/2021 12:00:00 AM 14.46 58.028 0.097 7.09 2.49 9.76
5/20/2021 12:15:00 AM 14.51 58.118 0.097 7.08 2.39 9.75
5/20/2021 12:30:00 AM 14.54 58.172 0.097 7.08 2.37 9.74
5/20/2021 12:45:00 AM 14.55 58.19 0.097 7.05 2.43 9.74
5/20/2021 1:00:00 AM 14.55 58.19 0.097 7.09 2.52 9.74
5/20/2021 1:15:00 AM 14.55 58.19 0.097 7.07 2.54 9.74
5/20/2021 1:30:00 AM 14.54 58.172 0.097 7.07 2.51 9.74
5/20/2021 1:45:00 AM 14.53 58.154 0.097 7.05 2.46 9.75
5/20/2021 2:00:00 AM 14.53 58.154 0.097 7.06 2.45 9.74
5/20/2021 2:15:00 AM 14.54 58.172 0.097 7.04 2.31 9.74
5/20/2021 2:30:00 AM 14.55 58.19 0.097 7.05 2.43 9.73
5/20/2021 2:45:00 AM 14.56 58.208 0.097 7.04 2.67 9.73
5/20/2021 3:00:00 AM 14.57 58.226 0.097 7.03 2.52 9.72
5/20/2021 3:15:00 AM 14.58 58.244 0.097 7.04 2.43 9.71
5/20/2021 3:30:00 AM 14.58 58.244 0.097 7.06 2.43 9.72
5/20/2021 3:45:00 AM 14.59 58.262 0.097 7.06 2.54 9.72
5/20/2021 4:00:00 AM 14.59 58.262 0.097 7.05 2.52 9.72
5/20/2021 4:15:00 AM 14.59 58.262 0.098 7.06 2.54 9.72
5/20/2021 4:30:00 AM 14.6 58.28 0.098 7.06 2.46 9.72
5/20/2021 4:45:00 AM 14.6 58.28 0.098 7.06 2.39 9.72
5/20/2021 5:00:00 AM 14.61 58.298 0.098 7.03 2.61 9.72
5/20/2021 5:15:00 AM 14.61 58.298 0.098 6.99 2.5 9.72
5/20/2021 5:30:00 AM 14.61 58.298 0.098 7.06 2.49 9.72
5/20/2021 5:45:00 AM 14.61 58.298 0.098 7.06 2.47 9.72
5/20/2021 6:00:00 AM 14.6 58.28 0.098 7.04 2.26 9.74
5/20/2021 6:15:00 AM 14.59 58.262 0.098 7.03 2.34 9.77
5/20/2021 6:30:00 AM 14.57 58.226 0.098 7.08 2.33 9.82
5/20/2021 6:45:00 AM 14.56 58.208 0.098 7.08 2.33 9.9
5/20/2021 7:00:00 AM 14.54 58.172 0.098 7.06 2.5 9.98
5/20/2021 7:15:00 AM 14.53 58.154 0.098 7.1 2.25 10.05
5/20/2021 7:30:00 AM 14.53 58.154 0.097 7.08 2.26 10.14
5/20/2021 7:45:00 AM 14.54 58.172 0.097 7.14 2.35 10.21
5/20/2021 8:00:00 AM 14.53 58.154 0.097 7.15 2.28 10.26
5/20/2021 8:15:00 AM 14.51 58.118 0.097 7.17 2.37 10.29
5/20/2021 8:30:00 AM 14.51 58.118 0.097 7.17 2.22 10.34
5/20/2021 8:45:00 AM 14.55 58.19 0.097 7.17 2.18 10.39
5/20/2021 9:00:00 AM 14.58 58.244 0.097 7.19 2.17 10.43
5/20/2021 9:15:00 AM 14.64 58.352 0.097 7.21 2.23 10.48
5/20/2021 9:30:00 AM 14.71 58.478 0.097 7.24 2.15 10.53
5/20/2021 9:45:00 AM 14.77 58.586 0.097 7.24 2.22 10.57
5/20/2021 10:00:00 AM 14.84 58.712 0.097 7.27 2.26 10.61
5/20/2021 10:15:00 AM 14.93 58.874 0.097 7.28 2.14 10.64
5/20/2021 10:30:00 AM 15.04 59.072 0.097 7.32 2.34 10.65
5/20/2021 10:45:00 AM 15.15 59.27 0.097 7.3 2.24 10.66
5/20/2021 11:00:00 AM 15.31 59.558 0.097 7.33 2.13 10.66
5/20/2021 11:15:00 AM 15.49 59.882 0.097 7.35 2.2 10.66
5/20/2021 11:30:00 AM 15.69 60.242 0.097 7.35 2.25 10.65
5/20/2021 11:45:00 AM 15.9 60.62 0.097 7.36 2.31 10.65
5/20/2021 12:00:00 PM 16.11 60.998 0.097 7.37 2.21 10.64
5/20/2021 12:15:00 PM 16.33 61.394 0.097 7.38 2.32 10.62
5/20/2021 12:30:00 PM 16.56 61.808 0.097 7.41 2.29 10.61
5/20/2021 12:45:00 PM 16.8 62.24 0.097 7.42 2.22 10.59
5/20/2021 1:00:00 PM 17.03 62.654 0.097 7.44 2.38 10.56
5/20/2021 1:15:00 PM 17.27 63.086 0.098 7.43 2.33 10.54
5/20/2021 1:30:00 PM 17.49 63.482 0.098 7.45 2.38 10.53
5/20/2021 1:45:00 PM 17.68 63.824 0.098 7.46 2.22 10.5
5/20/2021 2:00:00 PM 17.88 64.184 0.098 7.46 2.17 10.49
5/20/2021 2:15:00 PM 18.04 64.472 0.098 7.48 2.14 10.46
5/20/2021 2:30:00 PM 18.2 64.76 0.098 7.48 2.18 10.44
5/20/2021 2:45:00 PM 18.33 64.994 0.099 7.48 2.14 10.41
5/20/2021 3:00:00 PM 18.42 65.156 0.099 7.48 2.17 10.4
5/20/2021 3:15:00 PM 18.36 65.048 0.099 7.47 2.16 10.36
5/20/2021 3:30:00 PM 18.27 64.886 0.099 7.45 2.29 10.35
5/20/2021 3:45:00 PM 18.05 64.49 0.099 7.44 2.23 10.3
5/20/2021 4:00:00 PM 17.91 64.238 0.1 7.41 2.21 10.3
5/20/2021 4:15:00 PM 17.88 64.184 0.1 7.42 2.37 10.31
5/20/2021 4:30:00 PM 17.54 63.572 0.1 7.4 2.22 10.3
5/20/2021 4:45:00 PM 17.48 63.464 0.1 7.41 2.32 10.33
5/20/2021 5:00:00 PM 17.32 63.176 0.1 7.39 2.4 10.33
5/20/2021 5:15:00 PM 17.12 62.816 0.1 7.38 2.21 10.32
5/20/2021 5:30:00 PM 16.8 62.24 0.101 7.36 2.34 10.3
5/20/2021 5:45:00 PM 16.6 61.88 0.101 7.33 2.37 10.31
5/20/2021 6:00:00 PM 16.37 61.466 0.101 7.33 2.3 10.28
5/20/2021 6:15:00 PM 16.18 61.124 0.101 7.31 2.3 10.26
5/20/2021 6:30:00 PM 16 60.8 0.101 7.31 2.39 10.27
5/20/2021 6:45:00 PM 15.81 60.458 0.101 7.3 2.36 10.28
5/20/2021 7:00:00 PM 15.64 60.152 0.101 7.27 2.31 10.24
5/20/2021 7:15:00 PM 15.49 59.882 0.101 7.28 2.21 10.2
5/20/2021 7:30:00 PM 15.41 59.738 0.102 7.23 2.36 10.15
5/20/2021 7:45:00 PM 15.38 59.684 0.102 7.22 2.31 10.08
5/20/2021 8:00:00 PM 15.38 59.684 0.102 7.23 2.26 9.99
5/20/2021 8:15:00 PM 15.4 59.72 0.102 7.19 2.27 9.91
5/20/2021 8:30:00 PM 15.44 59.792 0.102 7.19 2.22 9.82
5/20/2021 8:45:00 PM 15.48 59.864 0.102 7.18 2.33 9.74
5/20/2021 9:00:00 PM 15.52 59.936 0.102 7.16 861.02 9.68
5/20/2021 9:15:00 PM 15.54 59.972 0.102 7.17 2.38 9.63
5/20/2021 9:30:00 PM 15.56 60.008 0.103 7.12 2.42 9.6
5/20/2021 9:45:00 PM 15.56 60.008 0.103 7.12 2.47 9.57
5/20/2021 10:00:00 PM 15.56 60.008 0.103 7.11 2.27 9.55
5/20/2021 10:15:00 PM 15.55 59.99 0.103 7.11 2.89 9.54
5/20/2021 10:30:00 PM 15.55 59.99 0.103 7.11 2.41 9.52
5/20/2021 10:45:00 PM 15.56 60.008 0.103 7.08 2.41 9.5
5/20/2021 11:00:00 PM 15.59 60.062 0.103 7.09 2.51 9.48
5/20/2021 11:15:00 PM 15.62 60.116 0.103 7.07 2.55 9.47
5/20/2021 11:30:00 PM 15.67 60.206 0.103 7.1 2.38 9.45
5/20/2021 11:45:00 PM 15.71 60.278 0.103 7.09 2.48 9.44
5/21/2021 12:00:00 AM 15.75 60.35 0.103 7.06 2.51 9.42
5/21/2021 12:15:00 AM 15.8 60.44 0.103 7.08 2.43 9.41
5/21/2021 12:30:00 AM 15.85 60.53 0.103 7.07 2.56 9.4
5/21/2021 12:45:00 AM 15.89 60.602 0.103 7.04 2.34 9.38
5/21/2021 1:00:00 AM 15.92 60.656 0.103 7.05 2.43 9.37
5/21/2021 1:15:00 AM 15.95 60.71 0.103 7.08 2.51 9.37
5/21/2021 1:30:00 AM 15.96 60.728 0.103 7.08 2.54 9.37
5/21/2021 1:45:00 AM 15.97 60.746 0.103 7.04 2.43 9.37
5/21/2021 2:00:00 AM 15.97 60.746 0.103 7.05 2.44 9.36
5/21/2021 2:15:00 AM 15.97 60.746 0.103 7.05 2.41 9.37
5/21/2021 2:30:00 AM 15.97 60.746 0.103 7.07 2.42 9.36
5/21/2021 2:45:00 AM 15.97 60.746 0.103 7.06 2.37 9.36
5/21/2021 3:00:00 AM 15.97 60.746 0.103 7.06 2.6 9.36
5/21/2021 3:15:00 AM 15.97 60.746 0.103 7.09 2.61 9.37
5/21/2021 3:30:00 AM 15.98 60.764 0.103 7.07 2.35 9.36
5/21/2021 3:45:00 AM 15.99 60.782 0.103 7.06 2.43 9.36
5/21/2021 4:00:00 AM 16 60.8 0.103 7.07 2.35 9.36
5/21/2021 4:15:00 AM 16.01 60.818 0.103 7.04 2.61 9.36
5/21/2021 4:30:00 AM 16.01 60.818 0.103 7.07 2.46 9.35
5/21/2021 4:45:00 AM 16 60.8 0.103 7.07 2.55 9.35
5/21/2021 5:00:00 AM 16 60.8 0.103 7.06 2.67 9.35
5/21/2021 5:15:00 AM 15.99 60.782 0.103 7.07 2.43 9.36
5/21/2021 5:30:00 AM 15.97 60.746 0.103 7.04 2.45 9.36
5/21/2021 5:45:00 AM 15.95 60.71 0.103 7.03 2.56 9.37
5/21/2021 6:00:00 AM 15.93 60.674 0.103 7.04 2.56 9.4
5/21/2021 6:15:00 AM 15.9 60.62 0.103 7.05 2.39 9.43
5/21/2021 6:30:00 AM 15.88 60.584 0.103 7.09 2.27 9.47
5/21/2021 6:45:00 AM 15.85 60.53 0.103 7.05 2.37 9.53
5/21/2021 7:00:00 AM 15.83 60.494 0.103 7.06 2.39 9.58
5/21/2021 7:15:00 AM 15.8 60.44 0.103 7.06 2.39 9.63
5/21/2021 7:30:00 AM 15.78 60.404 0.103 7.08 2.49 9.69
5/21/2021 7:45:00 AM 15.79 60.422 0.103 7.1 2.33 9.76
5/21/2021 8:00:00 AM 15.81 60.458 0.103 7.13 2.31 9.82
5/21/2021 8:15:00 AM 15.83 60.494 0.103 7.1 2.24 9.89
5/21/2021 8:30:00 AM 15.87 60.566 0.103 7.17 2.26 9.96
5/21/2021 8:45:00 AM 15.91 60.638 0.102 7.19 2.38 10
5/21/2021 9:00:00 AM 15.95 60.71 0.102 7.15 2.55 10.05
5/21/2021 9:15:00 AM 15.99 60.782 0.102 7.21 2.27 10.08
5/21/2021 9:30:00 AM 16.03 60.854 0.102 7.22 2.23 10.14
5/21/2021 9:45:00 AM 16.07 60.926 0.102 7.25 2.26 10.18
5/21/2021 10:00:00 AM 16.13 61.034 0.102 7.3 2.27 10.21
5/21/2021 10:15:00 AM 16.19 61.142 0.103 7.28 2.38 10.25
5/21/2021 10:30:00 AM 16.28 61.304 0.103 7.29 2.22 10.29
5/21/2021 10:45:00 AM 16.39 61.502 0.103 7.31 2.37 10.32
5/21/2021 11:00:00 AM 16.52 61.736 0.103 7.33 2.26 10.34
5/21/2021 11:15:00 AM 16.69 62.042 0.104 7.35 2.2 10.36
5/21/2021 11:30:00 AM 16.89 62.402 0.104 7.37 2.13 10.37
5/21/2021 11:45:00 AM 17.11 62.798 0.105 7.4 2.28 10.37
5/21/2021 12:00:00 PM 17.35 63.23 0.106 7.41 2.17 10.36
5/21/2021 12:15:00 PM 17.61 63.698 0.107 7.41 2.22 10.36
5/21/2021 12:30:00 PM 17.88 64.184 0.108 7.43 2.17 10.34
5/21/2021 12:45:00 PM 18.15 64.67 0.108 7.45 2.25 10.32
5/21/2021 1:00:00 PM 18.39 65.102 0.108 7.44 2.24 10.31
5/21/2021 1:15:00 PM 18.65 65.57 0.109 7.46 2.2 10.29
5/21/2021 1:30:00 PM 18.94 66.092 0.109 7.49 2.2 10.28
5/21/2021 1:45:00 PM 19.17 66.506 0.109 7.5 2.22 10.26
5/21/2021 2:00:00 PM 19.23 66.614 0.11 7.48 2.14 10.22
5/21/2021 2:15:00 PM 19.09 66.362 0.11 7.46 2.25 10.16
5/21/2021 2:30:00 PM 18.99 66.182 0.111 7.46 2.2 10.11
5/21/2021 2:45:00 PM 19.21 66.578 0.111 7.49 2.23 10.15
5/21/2021 3:00:00 PM 19.47 67.046 0.111 7.51 2.25 10.16
5/21/2021 3:15:00 PM 19.58 67.244 0.112 7.52 2.19 10.15
5/21/2021 3:30:00 PM 19.58 67.244 0.112 7.5 2.27 10.13
5/21/2021 3:45:00 PM 19.4 66.92 0.112 7.47 2.3 10.07
5/21/2021 4:00:00 PM 19.06 66.308 0.112 7.44 2.26 10.03
5/21/2021 4:15:00 PM 19.1 66.38 0.112 7.48 2.37 10.05
5/21/2021 4:30:00 PM 18.83 65.894 0.112 7.43 2.3 10.02
5/21/2021 4:45:00 PM 18.89 66.002 0.112 7.47 2.22 10.06
5/21/2021 5:00:00 PM 18.75 65.75 0.111 7.47 2.28 10.06
5/21/2021 5:15:00 PM 18.56 65.408 0.111 7.45 2.26 10.05
5/21/2021 5:30:00 PM 18.38 65.084 0.111 7.44 2.24 10.03
5/21/2021 5:45:00 PM 18.16 64.688 0.111 7.44 2.17 10
5/21/2021 6:00:00 PM 17.99 64.382 0.111 7.44 2.35 9.98
5/21/2021 6:15:00 PM 17.83 64.094 0.111 7.42 2.31 9.95
5/21/2021 6:30:00 PM 17.7 63.86 0.111 7.35 2.24 9.92
5/21/2021 6:45:00 PM 17.6 63.68 0.111 7.35 2.4 9.87
5/21/2021 7:00:00 PM 17.52 63.536 0.111 7.34 2.27 9.8
5/21/2021 7:15:00 PM 17.45 63.41 0.111 7.32 2.48 9.72
5/21/2021 7:30:00 PM 17.41 63.338 0.111 7.3 2.34 9.64
5/21/2021 7:45:00 PM 17.37 63.266 0.111 7.29 2.31 9.57
5/21/2021 8:00:00 PM 17.34 63.212 0.111 7.26 2.34 9.48
5/21/2021 8:15:00 PM 17.3 63.14 0.111 7.24 2.49 9.41
5/21/2021 8:30:00 PM 17.24 63.032 0.111 7.18 2.52 9.34
5/21/2021 8:45:00 PM 17.17 62.906 0.111 7.19 3.02 9.3
5/21/2021 9:00:00 PM 17.08 62.744 0.111 7.15 2.43 9.28
5/21/2021 9:15:00 PM 17 62.6 0.111 7.19 2.53 9.26
5/21/2021 9:30:00 PM 16.92 62.456 0.111 7.14 2.63 9.23
5/21/2021 9:45:00 PM 16.85 62.33 0.111 7.17 2.42 9.22
5/21/2021 10:00:00 PM 16.8 62.24 0.111 7.14 2.64 9.21
5/21/2021 10:15:00 PM 16.76 62.168 0.111 7.13 2.64 9.2
5/21/2021 10:30:00 PM 16.75 62.15 0.111 7.12 2.5 9.19
5/21/2021 10:45:00 PM 16.76 62.168 0.111 7.12 2.5 9.17
5/21/2021 11:00:00 PM 16.77 62.186 0.111 7.12 2.6 9.15
5/21/2021 11:15:00 PM 16.8 62.24 0.111 7.15 2.48 9.14
5/21/2021 11:30:00 PM 16.82 62.276 0.11 7.12 2.44 9.13
5/21/2021 11:45:00 PM 16.84 62.312 0.11 7.11 2.42 9.12
5/22/2021 12:00:00 AM 16.85 62.33 0.11 7.12 2.5 9.11
5/22/2021 12:15:00 AM 16.86 62.348 0.11 7.11 2.52 9.1
5/22/2021 12:30:00 AM 16.87 62.366 0.11 7.12 2.44 9.1
5/22/2021 12:45:00 AM 16.87 62.366 0.11 7.1 2.54 9.1
5/22/2021 1:00:00 AM 16.87 62.366 0.11 7.1 2.55 9.1
5/22/2021 1:15:00 AM 16.87 62.366 0.111 7.1 2.53 9.1
5/22/2021 1:30:00 AM 16.87 62.366 0.111 7.1 2.54 9.1
5/22/2021 1:45:00 AM 16.88 62.384 0.111 7.07 2.52 9.09
5/22/2021 2:00:00 AM 16.9 62.42 0.111 7.09 2.59 9.09
5/22/2021 2:15:00 AM 16.92 62.456 0.111 7.07 2.61 9.08
5/22/2021 2:30:00 AM 16.95 62.51 0.111 7.08 2.58 9.08
5/22/2021 2:45:00 AM 16.99 62.582 0.11 7.09 2.53 9.07
5/22/2021 3:00:00 AM 17.02 62.636 0.11 7.1 2.89 9.05
5/22/2021 3:15:00 AM 17.05 62.69 0.11 7.03 2.77 9.04
5/22/2021 3:30:00 AM 17.08 62.744 0.11 7.11 2.55 9.04
5/22/2021 3:45:00 AM 17.11 62.798 0.11 7.1 2.82 9.02
5/22/2021 4:00:00 AM 17.13 62.834 0.11 7.06 2.58 9.02
5/22/2021 4:15:00 AM 17.14 62.852 0.11 7.07 2.58 9.02
5/22/2021 4:30:00 AM 17.15 62.87 0.11 7.08 2.64 9.01
5/22/2021 4:45:00 AM 17.15 62.87 0.11 7.05 2.77 9.02
5/22/2021 5:00:00 AM 17.15 62.87 0.11 7.06 2.48 9.02
5/22/2021 5:15:00 AM 17.14 62.852 0.11 7.09 2.65 9.03
5/22/2021 5:30:00 AM 17.12 62.816 0.11 7.09 2.61 9.03
5/22/2021 5:45:00 AM 17.1 62.78 0.11 7.09 2.66 9.03
5/22/2021 6:00:00 AM 17.07 62.726 0.11 7.07 2.73 9.04
5/22/2021 6:15:00 AM 17.05 62.69 0.109 7.09 2.52 9.09
5/22/2021 6:30:00 AM 17.05 62.69 0.109 7.11 2.54 9.15
5/22/2021 6:45:00 AM 17.04 62.672 0.109 7.12 2.37 9.22
5/22/2021 7:00:00 AM 17.03 62.654 0.109 7.12 2.38 9.28
5/22/2021 7:15:00 AM 17.02 62.636 0.109 7.15 2.4 9.34
5/22/2021 7:30:00 AM 17 62.6 0.109 7.16 2.33 9.38
5/22/2021 7:45:00 AM 17.01 62.618 0.109 7.12 2.4 9.49
5/22/2021 8:00:00 AM 17.02 62.636 0.109 7.18 2.28 9.6
5/22/2021 8:15:00 AM 17.02 62.636 0.109 7.2 2.49 9.67
5/22/2021 8:30:00 AM 17.02 62.636 0.109 7.22 2.5 9.74
5/22/2021 8:45:00 AM 17.02 62.636 0.109 7.24 2.41 9.8
5/22/2021 9:00:00 AM 17.08 62.744 0.109 7.27 2.4 9.91
5/22/2021 9:15:00 AM 17.14 62.852 0.109 7.29 2.35 9.98
5/22/2021 9:30:00 AM 17.18 62.924 0.109 7.32 2.61 10.03
5/22/2021 9:45:00 AM 17.22 62.996 0.109 7.35 2.28 10.1
5/22/2021 10:00:00 AM 17.25 63.05 0.109 7.36 2.25 10.14
5/22/2021 10:15:00 AM 17.3 63.14 0.109 7.39 2.42 10.18
5/22/2021 10:30:00 AM 17.34 63.212 0.109 7.4 2.35 10.22
5/22/2021 10:45:00 AM 17.38 63.284 0.109 7.43 2.37 10.26
5/22/2021 11:00:00 AM 17.42 63.356 0.109 7.43 2.39 10.27
5/22/2021 11:15:00 AM 17.49 63.482 0.109 7.44 2.39 10.28
5/22/2021 11:30:00 AM 17.57 63.626 0.109 7.48 2.29 10.3
5/22/2021 11:45:00 AM 17.68 63.824 0.109 7.49 2.3 10.3
5/22/2021 12:00:00 PM 17.8 64.04 0.109 7.52 2.41 10.31
5/22/2021 12:15:00 PM 17.91 64.238 0.109 7.53 2.43 10.3
5/22/2021 12:30:00 PM 18.07 64.526 0.109 7.52 2.24 10.31
5/22/2021 12:45:00 PM 18.3 64.94 0.109 7.59 2.29 10.3
5/22/2021 1:00:00 PM 18.39 65.102 0.109 7.59 3.75 10.29
5/22/2021 1:15:00 PM 18.54 65.372 0.109 7.61 2.36 10.29
5/22/2021 1:30:00 PM 18.72 65.696 0.109 7.62 2.3 10.26
5/22/2021 1:45:00 PM 18.75 65.75 0.109 7.62 2.25 10.23
5/22/2021 2:00:00 PM 18.77 65.786 0.109 7.62 2.27 10.21
5/22/2021 2:15:00 PM 18.81 65.858 0.11 7.59 2.32 10.19
5/22/2021 2:30:00 PM 18.79 65.82201 0.11 7.61 2.31 10.15
5/22/2021 2:45:00 PM 18.82 65.876 0.11 7.58 2.27 10.14
5/22/2021 3:00:00 PM 18.86 65.948 0.11 7.62 2.4 10.12
5/22/2021 3:15:00 PM 18.88 65.984 0.11 7.62 2.26 10.12
5/22/2021 3:30:00 PM 18.89 66.002 0.11 7.61 2.19 10.12
5/22/2021 3:45:00 PM 18.95 66.11 0.11 7.65 2.35 10.12
5/22/2021 4:00:00 PM 18.91 66.038 0.11 7.63 2.31 10.1
5/22/2021 4:15:00 PM 18.78 65.804 0.11 7.6 2.37 10.03
5/22/2021 4:30:00 PM 18.66 65.588 0.111 7.55 2.47 9.97
5/22/2021 4:45:00 PM 18.6 65.48 0.111 7.53 2.33 9.93
5/22/2021 5:00:00 PM 18.78 65.804 0.111 7.57 2.29 9.97
5/22/2021 5:15:00 PM 18.66 65.588 0.111 7.56 2.36 9.97
5/22/2021 5:30:00 PM 18.5 65.3 0.111 7.54 2.32 9.95
5/22/2021 5:45:00 PM 18.45 65.21 0.111 7.54 2.29 9.95
5/22/2021 6:00:00 PM 18.47 65.246 0.111 7.54 2.35 9.91
5/22/2021 6:15:00 PM 18.54 65.372 0.111 7.51 2.26 9.83
5/22/2021 6:30:00 PM 18.7 65.66 0.11 7.51 2.3 9.75
5/22/2021 6:45:00 PM 18.88 65.984 0.11 7.5 2.28 9.63
5/22/2021 7:00:00 PM 19.04 66.272 0.11 7.47 2.21 9.46
5/22/2021 7:15:00 PM 19.19 66.542 0.11 7.42 2.08 9.32
5/22/2021 7:30:00 PM 19.32 66.776 0.11 7.38 2.17 9.19
5/22/2021 7:45:00 PM 19.43 66.974 0.11 7.35 2.16 9.06
5/22/2021 8:00:00 PM 19.5 67.1 0.11 7.27 2.28 8.95
5/22/2021 8:15:00 PM 19.51 67.118 0.111 7.27 2.16 8.85
5/22/2021 8:30:00 PM 19.5 67.1 0.111 7.25 2.23 8.77
5/22/2021 8:45:00 PM 19.46 67.028 0.111 7.2 2.21 8.71
5/22/2021 9:00:00 PM 19.41 66.938 0.111 7.21 2.36 8.66
5/22/2021 9:15:00 PM 19.35 66.83 0.111 7.19 2.43 8.63
5/22/2021 9:30:00 PM 19.27 66.686 0.112 7.19 2.27 8.6
5/22/2021 9:45:00 PM 19.18 66.524 0.112 7.15 2.31 8.6
5/22/2021 10:00:00 PM 19.08 66.344 0.112 7.16 2.5 8.6
5/22/2021 10:15:00 PM 18.96 66.128 0.112 7.16 2.42 8.61
5/22/2021 10:30:00 PM 18.84 65.912 0.112 7.15 2.48 8.62
5/22/2021 10:45:00 PM 18.73 65.714 0.112 7.15 2.47 8.64
5/22/2021 11:00:00 PM 18.62 65.516 0.113 7.14 2.68 8.65
5/22/2021 11:15:00 PM 18.53 65.354 0.113 7.1 2.52 8.66
5/22/2021 11:30:00 PM 18.45 65.21 0.113 7.14 2.54 8.67
5/22/2021 11:45:00 PM 18.39 65.102 0.113 7.09 2.53 8.68
5/23/2021 12:00:00 AM 18.33 64.994 0.113 7.12 2.44 8.69
5/23/2021 12:15:00 AM 18.27 64.886 0.113 7.12 2.55 8.7
5/23/2021 12:30:00 AM 18.21 64.778 0.113 7.12 2.6 8.71
5/23/2021 12:45:00 AM 18.13 64.634 0.113 7.08 2.56 8.73
5/23/2021 1:00:00 AM 18.04 64.472 0.113 7.11 2.59 8.75
5/23/2021 1:15:00 AM 17.95 64.31 0.113 7.11 2.53 8.77
5/23/2021 1:30:00 AM 17.86 64.148 0.113 7.09 2.55 8.79
5/23/2021 1:45:00 AM 17.78 64.004 0.113 7.1 2.8 8.8
5/23/2021 2:00:00 AM 17.7 63.86 0.113 7.12 2.58 8.82
5/23/2021 2:15:00 AM 17.63 63.734 0.113 7.12 2.51 8.83
5/23/2021 2:30:00 AM 17.58 63.644 0.113 7.11 2.88 8.84
5/23/2021 2:45:00 AM 17.53 63.554 0.113 7.09 2.48 8.85
5/23/2021 3:00:00 AM 17.49 63.482 0.113 7.11 2.54 8.86
5/23/2021 3:15:00 AM 17.45 63.41 0.113 7.1 2.58 8.86
5/23/2021 3:30:00 AM 17.42 63.356 0.113 7.1 2.53 8.87
5/23/2021 3:45:00 AM 17.38 63.284 0.113 7.07 2.6 8.88
5/23/2021 4:00:00 AM 17.33 63.194 0.113 7.11 2.6 8.89
5/23/2021 4:15:00 AM 17.27 63.086 0.113 7.07 2.82 8.91
5/23/2021 4:30:00 AM 17.22 62.996 0.113 7.1 2.76 8.92
5/23/2021 4:45:00 AM 17.16 62.888 0.113 7.1 2.68 8.92
5/23/2021 5:00:00 AM 17.11 62.798 0.113 7.1 2.76 8.93
5/23/2021 5:15:00 AM 17.06 62.708 0.113 7.09 2.58 8.95
5/23/2021 5:30:00 AM 17.01 62.618 0.113 7.11 2.73 8.97
5/23/2021 5:45:00 AM 16.96 62.528 0.113 7.11 2.45 8.96
5/23/2021 6:00:00 AM 16.93 62.474 0.113 7.12 2.53 9
5/23/2021 6:15:00 AM 16.89 62.402 0.113 7.12 2.7 9.05
5/23/2021 6:30:00 AM 16.86 62.348 0.113 7.13 2.54 9.1
5/23/2021 6:45:00 AM 16.84 62.312 0.113 7.14 2.48 9.15
5/23/2021 7:00:00 AM 16.82 62.276 0.113 7.15 2.44 9.21
5/23/2021 7:15:00 AM 16.8 62.24 0.113 7.12 2.41 9.26
5/23/2021 7:30:00 AM 16.78 62.204 0.113 7.17 2.39 9.3
5/23/2021 7:45:00 AM 16.79 62.222 0.113 7.19 2.38 9.38
5/23/2021 8:00:00 AM 16.81 62.258 0.113 7.2 2.41 9.45
5/23/2021 8:15:00 AM 16.84 62.312 0.113 7.22 2.31 9.51
5/23/2021 8:30:00 AM 16.88 62.384 0.113 7.22 2.37 9.58
5/23/2021 8:45:00 AM 16.92 62.456 0.113 7.24 2.39 9.62
5/23/2021 9:00:00 AM 16.97 62.546 0.113 7.26 2.33 9.67
5/23/2021 9:15:00 AM 17.01 62.618 0.113 7.28 2.41 9.72
5/23/2021 9:30:00 AM 17.07 62.726 0.113 7.29 2.32 9.75
5/23/2021 9:45:00 AM 17.14 62.852 0.113 7.3 2.37 9.77
5/23/2021 10:00:00 AM 17.23 63.014 0.113 7.32 2.32 9.8
5/23/2021 10:15:00 AM 17.33 63.194 0.113 7.33 2.52 9.85
5/23/2021 10:30:00 AM 17.45 63.41 0.113 7.37 2.25 9.88
5/23/2021 10:45:00 AM 17.64 63.752 0.113 7.4 2.4 9.94
5/23/2021 11:00:00 AM 17.8 64.04 0.112 7.42 2.25 9.96
5/23/2021 11:15:00 AM 17.98 64.364 0.112 7.45 2.27 9.98
5/23/2021 11:30:00 AM 18.18 64.724 0.112 7.46 2.36 10
5/23/2021 11:45:00 AM 18.41 65.138 0.112 7.48 2.26 10.01
5/23/2021 12:00:00 PM 18.7 65.66 0.112 7.51 2.35 10.02
5/23/2021 12:15:00 PM 18.95 66.11 0.112 7.53 2.28 10.02
5/23/2021 12:30:00 PM 19.14 66.452 0.112 7.55 2.29 10
5/23/2021 12:45:00 PM 19.25 66.65 0.112 7.56 2.24 9.99
5/23/2021 1:00:00 PM 19.43 66.974 0.112 7.57 2.18 9.98
5/23/2021 1:15:00 PM 19.53 67.154 0.112 7.58 2.3 9.97
5/23/2021 1:30:00 PM 19.67 67.406 0.112 7.59 2.19 9.94
5/23/2021 1:45:00 PM 19.91 67.838 0.112 7.61 2.22 9.94
5/23/2021 2:00:00 PM 19.93 67.874 0.112 7.61 2.25 9.9
5/23/2021 2:15:00 PM 19.82 67.676 0.112 7.58 2.28 9.82
5/23/2021 2:30:00 PM 19.87 67.766 0.112 7.59 2.36 9.83
5/23/2021 2:45:00 PM 19.96 67.92799 0.112 7.6 2.19 9.82
5/23/2021 3:00:00 PM 19.99 67.982 0.112 7.49 2.17 9.79
5/23/2021 3:15:00 PM 20.16 68.288 0.112 7.62 2.17 9.77
5/23/2021 3:30:00 PM 20.48 68.864 0.112 7.65 2.17 9.73
5/23/2021 3:45:00 PM 20.57 69.026 0.112 7.64 2.16 9.69
5/23/2021 4:00:00 PM 20.59 69.062 0.112 7.63 2.11 9.63
5/23/2021 4:15:00 PM 20.61 69.098 0.112 7.62 2.04 9.61
5/23/2021 4:30:00 PM 20.69 69.242 0.112 7.63 2.05 9.58
5/23/2021 4:45:00 PM 20.82 69.476 0.112 7.64 2.08 9.59
5/23/2021 5:00:00 PM 20.93 69.674 0.112 7.65 2.1 9.57
5/23/2021 5:15:00 PM 20.78 69.404 0.112 7.6 2.03 9.51
5/23/2021 5:30:00 PM 20.74 69.332 0.112 7.6 2.04 9.51
5/23/2021 5:45:00 PM 20.56 69.008 0.112 7.57 2.01 9.42
5/23/2021 6:00:00 PM 20.46 68.828 0.112 7.55 2.1 9.37
5/23/2021 6:15:00 PM 20.41 68.738 0.112 7.49 2.22 9.36
5/23/2021 6:30:00 PM 20.34 68.612 0.113 7.51 2.07 9.32
5/23/2021 6:45:00 PM 20.27 68.486 0.113 7.47 2.07 9.28
5/23/2021 7:00:00 PM 20.17 68.306 0.113 7.4 2.09 9.16
5/23/2021 7:15:00 PM 20.1 68.18 0.113 7.42 2.15 9.11
5/23/2021 7:30:00 PM 20.04 68.07201 0.113 7.41 2.2 9.09
5/23/2021 7:45:00 PM 19.97 67.946 0.113 7.39 2.95 9.01
5/23/2021 8:00:00 PM 19.88 67.784 0.114 7.35 2.13 8.89
5/23/2021 8:15:00 PM 19.81 67.658 0.114 7.32 2.18 8.78
5/23/2021 8:30:00 PM 19.72 67.496 0.114 7.27 2.26 8.71
5/23/2021 8:45:00 PM 19.64 67.352 0.114 7.27 2.3 8.65
5/23/2021 9:00:00 PM 19.54 67.172 0.114 7.24 2.21 8.59
5/23/2021 9:15:00 PM 19.44 66.992 0.115 7.22 2.2 8.57
5/23/2021 9:30:00 PM 19.34 66.812 0.115 7.22 2.55 8.55
5/23/2021 9:45:00 PM 19.24 66.632 0.115 7.17 2.5 8.54
5/23/2021 10:00:00 PM 19.15 66.47 0.115 7.2 2.38 8.54
5/23/2021 10:15:00 PM 19.07 66.326 0.115 7.19 2.4 8.54
5/23/2021 10:30:00 PM 18.97 66.146 0.115 7.17 2.45 8.55
5/23/2021 10:45:00 PM 18.88 65.984 0.115 7.17 2.41 8.55
5/23/2021 11:00:00 PM 18.81 65.858 0.115 7.18 2.35 8.56
5/23/2021 11:15:00 PM 18.73 65.714 0.115 7.18 2.47 8.57
5/23/2021 11:30:00 PM 18.65 65.57 0.115 7.18 2.38 8.58
5/23/2021 11:45:00 PM 18.57 65.426 0.115 7.17 2.59 8.59
5/24/2021 12:00:00 AM 18.5 65.3 0.115 7.17 2.46 8.6
5/24/2021 12:15:00 AM 18.44 65.192 0.115 7.17 2.4 8.62
5/24/2021 12:30:00 AM 18.37 65.066 0.115 7.17 2.55 8.63
5/24/2021 12:45:00 AM 18.29 64.922 0.116 7.17 2.52 8.65
5/24/2021 1:00:00 AM 18.2 64.76 0.116 7.17 2.37 8.67
5/24/2021 1:15:00 AM 18.11 64.598 0.116 7.17 2.39 8.69
5/24/2021 1:30:00 AM 18.02 64.436 0.116 7.17 2.45 8.71
5/24/2021 1:45:00 AM 17.95 64.31 0.116 7.17 2.44 8.73
5/24/2021 2:00:00 AM 17.87 64.166 0.116 7.17 2.69 8.75
5/24/2021 2:15:00 AM 17.78 64.004 0.116 7.16 2.52 8.77
5/24/2021 2:30:00 AM 17.73 63.914 0.116 7.16 2.77 8.78
5/24/2021 2:45:00 AM 17.68 63.824 0.116 7.16 2.46 8.8
5/24/2021 3:00:00 AM 17.63 63.734 0.116 7.17 2.38 8.81
5/24/2021 3:15:00 AM 17.59 63.662 0.116 7.15 2.47 8.81
5/24/2021 3:30:00 AM 17.54 63.572 0.116 7.17 2.42 8.83
5/24/2021 3:45:00 AM 17.47 63.446 0.116 7.17 2.41 8.84
5/24/2021 4:00:00 AM 17.42 63.356 0.116 7.17 2.42 8.86
5/24/2021 4:15:00 AM 17.36 63.248 0.116 7.16 2.57 8.87
5/24/2021 4:30:00 AM 17.31 63.158 0.116 7.17 2.96 8.88
5/24/2021 4:45:00 AM 17.25 63.05 0.116 7.14 2.52 8.89
5/24/2021 5:00:00 AM 17.19 62.942 0.116 7.16 2.52 8.91
5/24/2021 5:15:00 AM 17.13 62.834 0.116 7.15 2.48 8.93
5/24/2021 5:30:00 AM 17.07 62.726 0.116 7.16 2.57 8.93
5/24/2021 5:45:00 AM 17.01 62.618 0.116 7.16 2.51 8.97
5/24/2021 6:00:00 AM 16.96 62.528 0.116 7.16 2.43 8.99
5/24/2021 6:15:00 AM 16.92 62.456 0.116 7.17 2.49 9.04
5/24/2021 6:30:00 AM 16.89 62.402 0.116 7.18 2.51 9.11
5/24/2021 6:45:00 AM 16.87 62.366 0.116 7.18 2.35 9.18
5/24/2021 7:00:00 AM 16.85 62.33 0.115 7.2 2.38 9.25
5/24/2021 7:15:00 AM 16.83 62.294 0.115 7.22 2.37 9.34
5/24/2021 7:30:00 AM 16.83 62.294 0.115 7.24 2.28 9.43
5/24/2021 7:45:00 AM 16.85 62.33 0.115 7.27 2.37 9.56
5/24/2021 8:00:00 AM 16.89 62.402 0.115 7.29 2.34 9.68
5/24/2021 8:15:00 AM 16.92 62.456 0.115 7.32 2.36 9.77
5/24/2021 8:30:00 AM 16.96 62.528 0.114 7.35 2.32 9.82
5/24/2021 8:45:00 AM 16.97 62.546 0.114 7.36 2.3 9.87
5/24/2021 9:00:00 AM 17.01 62.618 0.114 7.38 2.37 9.92
5/24/2021 9:15:00 AM 17.07 62.726 0.114 7.41 2.3 9.99
5/24/2021 9:30:00 AM 17.12 62.816 0.114 7.43 2.27 10.06
5/24/2021 9:45:00 AM 17.17 62.906 0.114 7.46 2.28 10.1
5/24/2021 10:00:00 AM 17.22 62.996 0.114 7.48 2.36 10.13
5/24/2021 10:15:00 AM 17.3 63.14 0.114 7.5 2.16 10.18
5/24/2021 10:30:00 AM 17.41 63.338 0.114 7.54 2.19 10.22
5/24/2021 10:45:00 AM 17.5 63.5 0.113 7.56 2.3 10.23
5/24/2021 11:00:00 AM 17.54 63.572 0.113 7.56 2.26 10.2
5/24/2021 11:15:00 AM 17.61 63.698 0.113 7.57 2.45 10.21
5/24/2021 11:30:00 AM 17.64 63.752 0.113 7.58 2.22 10.18
5/24/2021 11:45:00 AM 17.7 63.86 0.113 7.58 2.28 10.17
5/24/2021 12:00:00 PM 17.74 63.932 0.113 7.59 2.2 10.17
5/24/2021 12:15:00 PM 17.78 64.004 0.113 7.61 2.21 10.17
5/24/2021 12:30:00 PM 17.82 64.076 0.113 7.61 2.23 10.16
5/24/2021 12:45:00 PM 17.84 64.112 0.113 7.61 2.14 10.14
5/24/2021 1:00:00 PM 17.85 64.13 0.114 7.61 2.18 10.12
5/24/2021 1:15:00 PM 17.85 64.13 0.114 7.58 2.16 10.09
5/24/2021 1:30:00 PM 17.86 64.148 0.114 7.59 2.28 10.07
5/24/2021 1:45:00 PM 17.87 64.166 0.114 7.62 2.34 10.09
5/24/2021 2:00:00 PM 17.89 64.202 0.114 7.62 2.15 10.1
5/24/2021 2:15:00 PM 17.87 64.166 0.114 7.61 2.31 10.08
5/24/2021 2:30:00 PM 17.82 64.076 0.114 7.61 2.2 10.04
5/24/2021 2:45:00 PM 17.77 63.986 0.114 7.6 2.18 10.03
5/24/2021 3:00:00 PM 17.72 63.896 0.114 7.59 2.26 10.02
5/24/2021 3:15:00 PM 17.66 63.788 0.114 7.59 2.13 10.02
5/24/2021 3:30:00 PM 17.6 63.68 0.115 7.59 2.23 10.03
5/24/2021 3:45:00 PM 17.52 63.536 0.115 7.58 2.32 10.01
5/24/2021 4:00:00 PM 17.44 63.392 0.115 7.56 2.21 9.99
5/24/2021 4:15:00 PM 17.34 63.212 0.116 7.54 2.22 9.96
5/24/2021 4:30:00 PM 17.24 63.032 0.116 7.51 2.14 9.94
5/24/2021 4:45:00 PM 17.15 62.87 0.116 7.51 2.29 9.92
5/24/2021 5:00:00 PM 17.06 62.708 0.117 7.49 2.25 9.88
5/24/2021 5:15:00 PM 16.98 62.564 0.117 7.47 2.28 9.86
5/24/2021 5:30:00 PM 16.9 62.42 0.117 7.46 2.29 9.84
5/24/2021 5:45:00 PM 16.84 62.312 0.117 7.45 2.34 9.84
5/24/2021 6:00:00 PM 16.77 62.186 0.118 7.44 2.31 9.81
5/24/2021 6:15:00 PM 16.69 62.042 0.118 7.42 2.4 9.75
5/24/2021 6:30:00 PM 16.61 61.898 0.118 7.4 2.34 9.7
5/24/2021 6:45:00 PM 16.53 61.754 0.118 7.38 2.49 9.65
5/24/2021 7:00:00 PM 16.46 61.628 0.118 7.37 2.34 9.62
5/24/2021 7:15:00 PM 16.39 61.502 0.118 7.32 2.45 9.58
5/24/2021 7:30:00 PM 16.31 61.358 0.118 7.32 2.35 9.54
5/24/2021 7:45:00 PM 16.24 61.232 0.118 7.32 2.55 9.51
5/24/2021 8:00:00 PM 16.17 61.106 0.118 7.31 2.43 9.48
5/24/2021 8:15:00 PM 16.11 60.998 0.118 7.3 2.55 9.44
5/24/2021 8:30:00 PM 16.08 60.944 0.118 7.29 2.53 9.41
5/24/2021 8:45:00 PM 16.05 60.89 0.118 7.28 2.68 9.38
5/24/2021 9:00:00 PM 16.05 60.89 0.118 7.27 2.54 9.34
5/24/2021 9:15:00 PM 16.05 60.89 0.118 7.27 2.89 9.32
5/24/2021 9:30:00 PM 16.06 60.908 0.118 7.26 2.48 9.29
5/24/2021 9:45:00 PM 16.08 60.944 0.118 7.26 2.52 9.27
5/24/2021 10:00:00 PM 16.09 60.962 0.119 7.25 2.56 9.26
5/24/2021 10:15:00 PM 16.1 60.98 0.119 7.25 2.48 9.24
5/24/2021 10:30:00 PM 16.1 60.98 0.119 7.23 2.7 9.23
5/24/2021 10:45:00 PM 16.1 60.98 0.119 7.24 2.6 9.22
5/24/2021 11:00:00 PM 16.1 60.98 0.119 7.24 2.61 9.22
5/24/2021 11:15:00 PM 16.1 60.98 0.119 7.23 2.46 9.22
5/24/2021 11:30:00 PM 16.09 60.962 0.118 7.23 2.45 9.22
5/24/2021 11:45:00 PM 16.07 60.926 0.118 7.23 2.55 9.22
5/25/2021 12:00:00 AM 16.06 60.908 0.118 7.23 2.65 9.22
5/25/2021 12:15:00 AM 16.05 60.89 0.118 7.22 2.66 9.22
5/25/2021 12:30:00 AM 16.04 60.872 0.118 7.22 2.54 9.23
5/25/2021 12:45:00 AM 16.02 60.836 0.118 7.22 2.67 9.23
5/25/2021 1:00:00 AM 16.01 60.818 0.118 7.21 2.59 9.24
5/25/2021 1:15:00 AM 16 60.8 0.118 7.21 2.51 9.24
5/25/2021 1:30:00 AM 15.98 60.764 0.118 7.21 2.48 9.24
5/25/2021 1:45:00 AM 15.97 60.746 0.118 7.2 2.56 9.24
5/25/2021 2:00:00 AM 15.95 60.71 0.118 7.2 2.56 9.25
5/25/2021 2:15:00 AM 15.93 60.674 0.119 7.21 2.58 9.26
5/25/2021 2:30:00 AM 15.92 60.656 0.119 7.2 2.52 9.26
5/25/2021 2:45:00 AM 15.9 60.62 0.119 7.2 3.06 9.26
5/25/2021 3:00:00 AM 15.88 60.584 0.119 7.19 2.53 9.27
5/25/2021 3:15:00 AM 15.86 60.548 0.119 7.19 2.64 9.27
5/25/2021 3:30:00 AM 15.85 60.53 0.119 7.19 2.66 9.28
5/25/2021 3:45:00 AM 15.84 60.512 0.119 7.19 2.62 9.28
5/25/2021 4:00:00 AM 15.83 60.494 0.119 7.2 2.63 9.28
5/25/2021 4:15:00 AM 15.82 60.476 0.119 7.19 2.63 9.29
5/25/2021 4:30:00 AM 15.8 60.44 0.119 7.19 2.64 9.29
5/25/2021 4:45:00 AM 15.79 60.422 0.119 7.2 2.52 9.29
5/25/2021 5:00:00 AM 15.78 60.404 0.119 7.19 2.54 9.3
5/25/2021 5:15:00 AM 15.76 60.368 0.119 7.19 2.71 9.3
5/25/2021 5:30:00 AM 15.75 60.35 0.118 7.19 2.49 9.31
5/25/2021 5:45:00 AM 15.74 60.332 0.118 7.18 2.57 9.31
5/25/2021 6:00:00 AM 15.72 60.296 0.118 7.19 2.47 9.32
5/25/2021 6:15:00 AM 15.71 60.278 0.118 7.19 2.64 9.35
5/25/2021 6:30:00 AM 15.7 60.26 0.118 7.2 2.47 9.37
5/25/2021 6:45:00 AM 15.7 60.26 0.118 7.2 2.54 9.41
5/25/2021 7:00:00 AM 15.7 60.26 0.118 7.21 2.43 9.45
5/25/2021 7:15:00 AM 15.7 60.26 0.118 7.22 2.53 9.5
5/25/2021 7:30:00 AM 15.7 60.26 0.118 7.23 2.4 9.54
5/25/2021 7:45:00 AM 15.72 60.296 0.118 7.24 2.34 9.63
5/25/2021 8:00:00 AM 15.73 60.314 0.118 7.26 2.45 9.71
5/25/2021 8:15:00 AM 15.75 60.35 0.118 7.27 2.49 9.77
5/25/2021 8:30:00 AM 15.77 60.386 0.118 7.29 2.41 9.84
5/25/2021 8:45:00 AM 15.81 60.458 0.118 7.31 2.62 9.93
5/25/2021 9:00:00 AM 15.82 60.476 0.118 7.32 2.41 9.97
5/25/2021 9:15:00 AM 15.85 60.53 0.118 7.34 2.37 10.02
5/25/2021 9:30:00 AM 15.87 60.566 0.118 7.36 2.37 10.08
5/25/2021 9:45:00 AM 15.91 60.638 0.118 7.38 2.34 10.13
5/25/2021 10:00:00 AM 15.94 60.692 0.118 7.39 2.24 10.17
5/25/2021 10:15:00 AM 15.99 60.782 0.118 7.42 2.36 10.22
5/25/2021 10:30:00 AM 16.04 60.872 0.117 7.44 2.44 10.28
5/25/2021 10:45:00 AM 16.1 60.98 0.117 7.47 2.38 10.32
5/25/2021 11:00:00 AM 16.15 61.07 0.117 7.49 2.63 10.36
5/25/2021 11:15:00 AM 16.2 61.16 0.117 7.5 2.37 10.38
5/25/2021 11:30:00 AM 16.24 61.232 0.117 7.52 2.42 10.4
5/25/2021 11:45:00 AM 16.29 61.322 0.117 7.53 2.4 10.42
5/25/2021 12:00:00 PM 16.35 61.43 0.117 7.55 2.54 10.44
5/25/2021 12:15:00 PM 16.41 61.538 0.117 7.57 2.36 10.44
5/25/2021 12:30:00 PM 16.48 61.664 0.117 7.58 2.43 10.46
5/25/2021 12:45:00 PM 16.57 61.826 0.116 7.6 2.43 10.46
5/25/2021 1:00:00 PM 16.67 62.006 0.116 7.62 2.28 10.48
5/25/2021 1:15:00 PM 16.76 62.168 0.116 7.64 2.35 10.48
5/25/2021 1:30:00 PM 16.86 62.348 0.116 7.66 2.31 10.48
5/25/2021 1:45:00 PM 16.95 62.51 0.116 7.67 2.47 10.48
5/25/2021 2:00:00 PM 17.06 62.708 0.116 7.69 2.78 10.49
5/25/2021 2:15:00 PM 17.17 62.906 0.116 7.7 2.38 10.47
5/25/2021 2:30:00 PM 17.42 63.356 0.116 7.72 2.22 10.47
5/25/2021 2:45:00 PM 17.57 63.626 0.116 7.73 2.27 10.45
5/25/2021 3:00:00 PM 17.83 64.094 0.116 7.74 2.29 10.43
5/25/2021 3:15:00 PM 18.07 64.526 0.116 7.74 2.48 10.4
5/25/2021 3:30:00 PM 18.16 64.688 0.116 7.74 2.37 10.37
5/25/2021 3:45:00 PM 18.34 65.012 0.116 7.75 2.51 10.34
5/25/2021 4:00:00 PM 18.48 65.264 0.116 7.75 2.37 10.3
5/25/2021 4:15:00 PM 18.48 65.264 0.116 7.74 2.4 10.26
5/25/2021 4:30:00 PM 18.37 65.066 0.116 7.73 2.35 10.22
5/25/2021 4:45:00 PM 18.44 65.192 0.116 7.73 2.36 10.21
5/25/2021 5:00:00 PM 18.44 65.192 0.116 7.72 2.39 10.18
5/25/2021 5:15:00 PM 18.35 65.03 0.116 7.71 2.37 10.14
5/25/2021 5:30:00 PM 18.23 64.814 0.116 7.69 2.39 10.08
5/25/2021 5:45:00 PM 18.05 64.49 0.116 7.65 2.36 10.03
5/25/2021 6:00:00 PM 17.99 64.382 0.117 7.64 2.4 10.01
5/25/2021 6:15:00 PM 17.89 64.202 0.117 7.62 2.47 9.99
5/25/2021 6:30:00 PM 17.77 63.986 0.117 7.6 2.31 9.94
5/25/2021 6:45:00 PM 17.63 63.734 0.117 7.56 2.31 9.85
5/25/2021 7:00:00 PM 17.51 63.518 0.117 7.51 2.38 9.78
5/25/2021 7:15:00 PM 17.42 63.356 0.118 7.49 2.39 9.75
5/25/2021 7:30:00 PM 17.33 63.194 0.118 7.47 2.47 9.72
5/25/2021 7:45:00 PM 17.22 62.996 0.118 7.43 2.51 9.63
5/25/2021 8:00:00 PM 17.12 62.816 0.118 7.4 2.43 9.54
5/25/2021 8:15:00 PM 17.02 62.636 0.119 7.37 2.37 9.45
5/25/2021 8:30:00 PM 16.93 62.474 0.119 7.34 2.41 9.38
5/25/2021 8:45:00 PM 16.85 62.33 0.119 7.31 2.32 9.31
5/25/2021 9:00:00 PM 16.76 62.168 0.119 7.29 2.55 9.26
5/25/2021 9:15:00 PM 16.68 62.024 0.12 7.27 2.48 9.23
5/25/2021 9:30:00 PM 16.61 61.898 0.12 7.26 2.51 9.21
5/25/2021 9:45:00 PM 16.54 61.772 0.12 7.25 2.58 9.19
5/25/2021 10:00:00 PM 16.47 61.646 0.12 7.24 2.52 9.19
5/25/2021 10:15:00 PM 16.4 61.52 0.12 7.23 2.53 9.18
5/25/2021 10:30:00 PM 16.35 61.43 0.12 7.23 2.43 9.17
5/25/2021 10:45:00 PM 16.3 61.34 0.12 7.22 2.67 9.18
5/25/2021 11:00:00 PM 16.25 61.25 0.121 7.22 2.5 9.17
5/25/2021 11:15:00 PM 16.21 61.178 0.121 7.21 2.62 9.17
5/25/2021 11:30:00 PM 16.17 61.106 0.121 7.21 2.74 9.17
5/25/2021 11:45:00 PM 16.13 61.034 0.121 7.21 2.5 9.17
5/26/2021 12:00:00 AM 16.11 60.998 0.121 7.21 2.48 9.17
5/26/2021 12:15:00 AM 16.09 60.962 0.121 7.2 2.41 9.16
5/26/2021 12:30:00 AM 16.08 60.944 0.121 7.21 2.6 9.16
5/26/2021 12:45:00 AM 16.07 60.926 0.121 7.2 2.55 9.16
5/26/2021 1:00:00 AM 16.06 60.908 0.121 7.19 2.79 9.16
5/26/2021 1:15:00 AM 16.06 60.908 0.121 7.2 2.58 9.15
5/26/2021 1:30:00 AM 16.06 60.908 0.121 7.19 2.6 9.16
5/26/2021 1:45:00 AM 16.07 60.926 0.121 7.19 2.42 9.15
5/26/2021 2:00:00 AM 16.07 60.926 0.121 7.19 2.47 9.15
5/26/2021 2:15:00 AM 16.07 60.926 0.121 7.19 2.49 9.14
5/26/2021 2:30:00 AM 16.07 60.926 0.121 7.2 2.46 9.14
5/26/2021 2:45:00 AM 16.08 60.944 0.121 7.19 2.56 9.15
5/26/2021 3:00:00 AM 16.08 60.944 0.121 7.19 2.43 9.14
5/26/2021 3:15:00 AM 16.1 60.98 0.121 7.19 2.38 9.14
5/26/2021 3:30:00 AM 16.11 60.998 0.121 7.18 3.01 9.14
5/26/2021 3:45:00 AM 16.12 61.016 0.121 7.19 2.66 9.13
5/26/2021 4:00:00 AM 16.13 61.034 0.121 7.19 2.47 9.12
5/26/2021 4:15:00 AM 16.15 61.07 0.121 7.18 2.55 9.13
5/26/2021 4:30:00 AM 16.17 61.106 0.121 7.16 2.61 9.12
5/26/2021 4:45:00 AM 16.19 61.142 0.121 7.17 2.66 9.11
5/26/2021 5:00:00 AM 16.21 61.178 0.12 7.18 2.4 9.11
5/26/2021 5:15:00 AM 16.22 61.196 0.12 7.18 2.51 9.1
5/26/2021 5:30:00 AM 16.24 61.232 0.12 7.18 2.54 9.1
5/26/2021 5:45:00 AM 16.26 61.268 0.12 7.18 2.52 9.1
5/26/2021 6:00:00 AM 16.28 61.304 0.12 7.18 2.72 9.11
5/26/2021 6:15:00 AM 16.3 61.34 0.12 7.19 2.58 9.13
5/26/2021 6:30:00 AM 16.32 61.376 0.12 7.19 2.57 9.17
5/26/2021 6:45:00 AM 16.35 61.43 0.12 7.21 2.45 9.23
5/26/2021 7:00:00 AM 16.38 61.484 0.12 7.22 2.35 9.3
5/26/2021 7:15:00 AM 16.42 61.556 0.12 7.24 2.44 9.39
5/26/2021 7:30:00 AM 16.45 61.61 0.12 7.25 2.38 9.46
5/26/2021 7:45:00 AM 16.49 61.682 0.12 7.27 2.27 9.53
5/26/2021 8:00:00 AM 16.53 61.754 0.12 7.28 2.46 9.62
5/26/2021 8:15:00 AM 16.59 61.862 0.119 7.3 2.37 9.7
5/26/2021 8:30:00 AM 16.64 61.952 0.119 7.32 2.41 9.77
5/26/2021 8:45:00 AM 16.7 62.06 0.119 7.35 2.67 9.81
5/26/2021 9:00:00 AM 16.78 62.204 0.119 7.37 2.38 9.86
5/26/2021 9:15:00 AM 16.93 62.474 0.119 7.4 2.27 9.94
5/26/2021 9:30:00 AM 17.03 62.654 0.119 7.34 2.19 9.97
5/26/2021 9:45:00 AM 17.1 62.78 0.119 7.43 2.35 9.98
5/26/2021 10:00:00 AM 17.21 62.978 0.118 7.45 2.29 10.01
5/26/2021 10:15:00 AM 17.33 63.194 0.118 7.47 2.24 10.03
5/26/2021 10:30:00 AM 17.45 63.41 0.118 7.48 2.27 10.02
5/26/2021 10:45:00 AM 17.58 63.644 0.118 7.5 2.23 10.04
5/26/2021 11:00:00 AM 17.74 63.932 0.118 7.52 2.25 10.05
5/26/2021 11:15:00 AM 17.91 64.238 0.118 7.53 2.15 10.05
5/26/2021 11:30:00 AM 18.11 64.598 0.118 7.55 2.23 10.05
5/26/2021 11:45:00 AM 18.33 64.994 0.119 7.55 2.24 10.05
5/26/2021 12:00:00 PM 18.59 65.462 0.119 7.59 2.2 10.04
5/26/2021 12:15:00 PM 18.88 65.984 0.119 7.61 2.18 10.04
5/26/2021 12:30:00 PM 19.05 66.29 0.119 7.6 2.23 9.97
5/26/2021 12:45:00 PM 19.22 66.596 0.119 7.61 2.15 9.94
5/26/2021 1:00:00 PM 19.43 66.974 0.119 7.63 2.18 9.93
5/26/2021 1:15:00 PM 19.77 67.586 0.119 7.65 2.3 9.92
5/26/2021 1:30:00 PM 20.13 68.234 0.119 7.65 2.11 9.89
5/26/2021 1:45:00 PM 20.46 68.828 0.119 7.68 2.12 9.87
5/26/2021 2:00:00 PM 20.64 69.152 0.119 7.69 2.09 9.83
5/26/2021 2:15:00 PM 20.69 69.242 0.119 7.68 2.12 9.75
5/26/2021 2:30:00 PM 20.62 69.116 0.119 7.66 2.18 9.69
5/26/2021 2:45:00 PM 20.71 69.278 0.12 7.67 2.11 9.68
5/26/2021 3:00:00 PM 21.01 69.818 0.12 7.69 2.07 9.67
5/26/2021 3:15:00 PM 21.29 70.32201 0.12 7.7 2.23 9.66
5/26/2021 3:30:00 PM 21.45 70.61 0.12 7.69 2.26 9.64
5/26/2021 3:45:00 PM 21.47 70.646 0.12 7.72 2.26 9.63
5/26/2021 4:00:00 PM 21.56 70.808 0.12 7.71 2.08 9.61
5/26/2021 4:15:00 PM 21.56 70.808 0.12 7.7 2.18 9.58
5/26/2021 4:30:00 PM 21.2 70.16 0.121 7.64 2.16 9.49
5/26/2021 4:45:00 PM 20.83 69.494 0.121 7.62 2.22 9.43
5/26/2021 5:00:00 PM 20.75 69.35 0.121 7.63 2.23 9.47
5/26/2021 5:15:00 PM 20.6 69.08 0.121 7.62 2.23 9.48
5/26/2021 5:30:00 PM 20.22 68.396 0.121 7.51 2.03 9.29
5/26/2021 5:45:00 PM 19.89 67.802 0.121 7.44 2.3 9.18
5/26/2021 6:00:00 PM 19.63 67.334 0.121 7.42 3.35 9.09
5/26/2021 6:15:00 PM 19.44 66.992 0.12 7.35 2.58 9.21
5/26/2021 6:30:00 PM 19.18 66.524 0.121 7.4 2.42 9.24
5/26/2021 6:45:00 PM 18.95 66.11 0.121 7.39 2.4 9.27
5/26/2021 7:00:00 PM 18.74 65.732 0.121 7.41 2.39 9.27
5/26/2021 7:15:00 PM 18.55 65.39 0.121 7.33 2.42 9.21
5/26/2021 7:30:00 PM 18.38 65.084 0.121 7.34 2.4 9.15
5/26/2021 7:45:00 PM 18.24 64.832 0.122 7.34 2.3 9.13
5/26/2021 8:00:00 PM 18.12 64.616 0.122 7.33 2.32 9.05
5/26/2021 8:15:00 PM 18.04 64.472 0.122 7.27 2.44 8.95
5/26/2021 8:30:00 PM 17.97 64.346 0.123 7.28 2.39 8.87
5/26/2021 8:45:00 PM 17.91 64.238 0.123 7.26 2.56 8.82
5/26/2021 9:00:00 PM 17.85 64.13 0.123 7.24 2.46 8.75
5/26/2021 9:15:00 PM 17.8 64.04 0.123 7.19 2.6 8.74
5/26/2021 9:30:00 PM 17.76 63.968 0.123 7.19 2.7 8.73
5/26/2021 9:45:00 PM 17.73 63.914 0.123 7.21 2.54 8.71
5/26/2021 10:00:00 PM 17.71 63.878 0.123 7.21 2.5 8.69
5/26/2021 10:15:00 PM 17.71 63.878 0.123 7.17 2.46 8.68
5/26/2021 10:30:00 PM 17.71 63.878 0.123 7.19 2.46 8.67
5/26/2021 10:45:00 PM 17.73 63.914 0.123 7.13 2.59 8.65
5/26/2021 11:00:00 PM 17.75 63.95 0.123 7.18 2.52 8.64
5/26/2021 11:15:00 PM 17.77 63.986 0.123 7.19 2.39 8.62
5/26/2021 11:30:00 PM 17.78 64.004 0.123 7.15 2.71 8.61
5/26/2021 11:45:00 PM 17.8 64.04 0.123 7.17 2.45 8.59
5/27/2021 12:00:00 AM 17.82 64.076 0.123 7.16 2.54 8.59
5/27/2021 12:15:00 AM 17.83 64.094 0.123 7.17 2.52 8.59
5/27/2021 12:30:00 AM 17.85 64.13 0.123 7.18 2.42 8.59
5/27/2021 12:45:00 AM 17.86 64.148 0.123 7.18 2.61 8.59
5/27/2021 1:00:00 AM 17.87 64.166 0.123 7.19 2.45 8.59
5/27/2021 1:15:00 AM 17.86 64.148 0.123 7.18 2.38 8.6
5/27/2021 1:30:00 AM 17.85 64.13 0.123 7.17 2.51 8.61
5/27/2021 1:45:00 AM 17.83 64.094 0.123 7.18 2.31 8.62
5/27/2021 2:00:00 AM 17.8 64.04 0.123 7.12 2.26 8.64
5/27/2021 2:15:00 AM 17.76 63.968 0.123 7.17 2.42 8.64
5/27/2021 2:30:00 AM 17.73 63.914 0.123 7.16 2.31 8.65
5/27/2021 2:45:00 AM 17.71 63.878 0.123 7.17 2.31 8.66
5/27/2021 3:00:00 AM 17.69 63.842 0.123 7.18 2.53 8.67
5/27/2021 3:15:00 AM 17.69 63.842 0.122 7.18 2.35 8.67
5/27/2021 3:30:00 AM 17.7 63.86 0.122 7.17 2.45 8.67
5/27/2021 3:45:00 AM 17.72 63.896 0.122 7.18 2.48 8.65
5/27/2021 4:00:00 AM 17.73 63.914 0.122 7.17 2.41 8.66
5/27/2021 4:15:00 AM 17.73 63.914 0.122 7.18 2.56 8.65
5/27/2021 4:30:00 AM 17.75 63.95 0.122 7.17 2.48 8.64
5/27/2021 4:45:00 AM 17.78 64.004 0.122 7.18 2.49 8.64
5/27/2021 5:00:00 AM 17.8 64.04 0.122 7.14 2.26 8.65
5/27/2021 5:15:00 AM 17.81 64.058 0.122 7.18 2.43 8.64
5/27/2021 5:30:00 AM 17.83 64.094 0.122 7.18 2.45 8.64
5/27/2021 5:45:00 AM 17.83 64.094 0.122 7.19 2.45 8.65
5/27/2021 6:00:00 AM 17.83 64.094 0.122 7.14 2.33 8.66
5/27/2021 6:15:00 AM 17.82 64.076 0.122 7.18 2.22 8.7
5/27/2021 6:30:00 AM 17.81 64.058 0.122 7.17 2.3 8.74
5/27/2021 6:45:00 AM 17.79 64.022 0.122 7.2 2.42 8.79
5/27/2021 7:00:00 AM 17.78 64.004 0.122 7.17 2.33 8.85
5/27/2021 7:15:00 AM 17.76 63.968 0.122 7.22 2.53 8.92
5/27/2021 7:30:00 AM 17.74 63.932 0.122 7.2 2.41 8.98
5/27/2021 7:45:00 AM 17.75 63.95 0.122 7.26 2.26 9.09
5/27/2021 8:00:00 AM 17.77 63.986 0.122 7.23 2.35 9.17
5/27/2021 8:15:00 AM 17.79 64.022 0.122 7.28 2.35 9.24
5/27/2021 8:30:00 AM 17.82 64.076 0.122 7.31 2.21 9.3
5/27/2021 8:45:00 AM 17.84 64.112 0.122 7.31 2.28 9.33
5/27/2021 9:00:00 AM 17.87 64.166 0.122 7.28 2.23 9.37
5/27/2021 9:15:00 AM 17.88 64.184 0.122 7.33 2.32 9.4
5/27/2021 9:30:00 AM 17.91 64.238 0.122 7.35 2.38 9.43
5/27/2021 9:45:00 AM 17.95 64.31 0.122 7.35 2.26 9.47
5/27/2021 10:00:00 AM 18 64.4 0.122 7.37 2.37 9.5
5/27/2021 10:15:00 AM 18.04 64.472 0.122 7.39 2.21 9.54
5/27/2021 10:30:00 AM 18.1 64.58 0.122 7.36 2.27 9.57
5/27/2021 10:45:00 AM 18.18 64.724 0.122 7.42 2.37 9.6
5/27/2021 11:00:00 AM 18.3 64.94 0.122 7.44 2.29 9.63
5/27/2021 11:15:00 AM 18.44 65.192 0.122 7.43 2.26 9.65
5/27/2021 11:30:00 AM 18.61 65.498 0.122 7.46 2.31 9.67
5/27/2021 11:45:00 AM 18.79 65.82201 0.122 7.47 2.18 9.68
5/27/2021 12:00:00 PM 19.02 66.236 0.122 7.5 2.15 9.69
5/27/2021 12:15:00 PM 19.27 66.686 0.121 7.5 2.16 9.68
5/27/2021 12:30:00 PM 19.55 67.19 0.122 7.52 2.22 9.68
5/27/2021 12:45:00 PM 19.86 67.748 0.121 7.55 2.13 9.66
5/27/2021 1:00:00 PM 20.19 68.342 0.121 7.56 2.11 9.65
5/27/2021 1:15:00 PM 20.55 68.99 0.121 7.55 2.2 9.64
5/27/2021 1:30:00 PM 20.89 69.602 0.121 7.58 2.32 9.63
5/27/2021 1:45:00 PM 21.22 70.196 0.121 7.6 2.07 9.61
5/27/2021 2:00:00 PM 21.53 70.754 0.121 7.63 2.21 9.6
5/27/2021 2:15:00 PM 21.81 71.258 0.121 7.65 2.08 9.58
5/27/2021 2:30:00 PM 22.05 71.69 0.122 7.67 2.89 9.55
5/27/2021 2:45:00 PM 22.3 72.14 0.122 7.66 2.15 9.52
5/27/2021 3:00:00 PM 22.47 72.446 0.122 7.67 2.16 9.49
5/27/2021 3:15:00 PM 22.51 72.518 0.122 7.69 2.12 9.45
5/27/2021 3:30:00 PM 22.36 72.248 0.122 7.68 2.06 9.42
5/27/2021 3:45:00 PM 22.44 72.392 0.122 7.69 2.01 9.41
5/27/2021 4:00:00 PM 22.61 72.698 0.122 7.7 2.12 9.36
5/27/2021 4:15:00 PM 22.68 72.824 0.122 7.66 2.01 9.31
5/27/2021 4:30:00 PM 22.67 72.806 0.122 7.64 2.17 9.25
5/27/2021 4:45:00 PM 22.36 72.248 0.122 7.63 2.5 9.17
5/27/2021 5:00:00 PM 22.01 71.618 0.123 7.61 2.22 9.1
5/27/2021 5:15:00 PM 22.04 71.672 0.123 7.58 1.97 9.15
5/27/2021 5:30:00 PM 21.97 71.546 0.123 7.6 2.05 9.14
5/27/2021 5:45:00 PM 21.74 71.132 0.123 7.54 2.13 9.02
5/27/2021 6:00:00 PM 21.47 70.646 0.123 7.51 1.96 8.89
5/27/2021 6:15:00 PM 21.21 70.17799 0.123 7.45 2.32 8.77
5/27/2021 6:30:00 PM 21.03 69.854 0.123 7.39 2.03 8.7
5/27/2021 6:45:00 PM 20.84 69.512 0.124 7.39 2.12 8.65
5/27/2021 7:00:00 PM 20.65 69.17 0.124 7.37 2.03 8.63
5/27/2021 7:15:00 PM 20.48 68.864 0.124 7.36 2.22 8.6
5/27/2021 7:30:00 PM 20.31 68.558 0.124 7.34 1.97 8.58
5/27/2021 7:45:00 PM 20.17 68.306 0.124 7.28 2.08 8.55
5/27/2021 8:00:00 PM 20.06 68.108 0.124 7.3 2.14 8.54
5/27/2021 8:15:00 PM 19.94 67.892 0.124 7.3 2.03 8.54
5/27/2021 8:30:00 PM 19.8 67.64 0.125 7.3 2.02 8.51
5/27/2021 8:45:00 PM 19.67 67.406 0.125 7.22 2.19 8.46
5/27/2021 9:00:00 PM 19.54 67.172 0.125 7.27 2.31 8.42
5/27/2021 9:15:00 PM 19.42 66.956 0.125 7.26 2.1 8.4
5/27/2021 9:30:00 PM 19.3 66.74 0.125 7.26 2.29 8.4
5/27/2021 9:45:00 PM 19.19 66.542 0.125 7.25 2.28 8.39
5/27/2021 10:00:00 PM 19.07 66.326 0.125 7.24 2.23 8.41
5/27/2021 10:15:00 PM 18.96 66.128 0.126 7.23 2.36 8.42
5/27/2021 10:30:00 PM 18.86 65.948 0.126 7.2 2.33 8.43
5/27/2021 10:45:00 PM 18.76 65.768 0.126 7.24 2.27 8.45
5/27/2021 11:00:00 PM 18.66 65.588 0.126 7.24 2.32 8.47
5/27/2021 11:15:00 PM 18.56 65.408 0.126 7.22 2.33 8.48
5/27/2021 11:30:00 PM 18.47 65.246 0.126 7.24 2.31 8.5
5/27/2021 11:45:00 PM 18.39 65.102 0.126 7.23 2.27 8.52
5/28/2021 12:00:00 AM 18.32 64.976 0.126 7.24 2.44 8.53
5/28/2021 12:15:00 AM 18.26 64.868 0.126 7.23 2.38 8.54
5/28/2021 12:30:00 AM 18.2 64.76 0.126 7.21 2.4 8.55
5/28/2021 12:45:00 AM 18.14 64.652 0.126 7.22 2.33 8.57
5/28/2021 1:00:00 AM 18.08 64.544 0.126 7.18 2.37 8.58
5/28/2021 1:15:00 AM 18.01 64.418 0.126 7.23 2.38 8.59
5/28/2021 1:30:00 AM 17.93 64.274 0.126 7.23 2.43 8.61
5/28/2021 1:45:00 AM 17.86 64.148 0.126 7.19 2.46 8.62
5/28/2021 2:00:00 AM 17.8 64.04 0.126 7.23 2.29 8.63
5/28/2021 2:15:00 AM 17.75 63.95 0.126 7.21 2.42 8.65
5/28/2021 2:30:00 AM 17.69 63.842 0.126 7.19 2.55 8.65
5/28/2021 2:45:00 AM 17.64 63.752 0.126 7.23 2.38 8.67
5/28/2021 3:00:00 AM 17.59 63.662 0.126 7.21 2.68 8.68
5/28/2021 3:15:00 AM 17.54 63.572 0.126 7.22 2.55 8.69
5/28/2021 3:30:00 AM 17.5 63.5 0.126 7.23 2.28 8.69
5/28/2021 3:45:00 AM 17.46 63.428 0.126 7.2 2.26 8.71
5/28/2021 4:00:00 AM 17.41 63.338 0.126 7.21 2.25 8.71
5/28/2021 4:15:00 AM 17.36 63.248 0.126 7.22 2.28 8.72
5/28/2021 4:30:00 AM 17.3 63.14 0.126 7.18 2.39 8.73
5/28/2021 4:45:00 AM 17.24 63.032 0.126 7.22 2.4 8.75
5/28/2021 5:00:00 AM 17.18 62.924 0.126 7.21 2.3 8.75
5/28/2021 5:15:00 AM 17.12 62.816 0.126 7.19 2.36 8.77
5/28/2021 5:30:00 AM 17.06 62.708 0.127 7.22 2.72 8.79
5/28/2021 5:45:00 AM 17 62.6 0.127 7.2 2.18 8.8
5/28/2021 6:00:00 AM 16.94 62.492 0.127 7.22 2.19 8.85
5/28/2021 6:15:00 AM 16.9 62.42 0.126 7.23 2.2 8.88
5/28/2021 6:30:00 AM 16.87 62.366 0.126 7.24 2.35 8.95
5/28/2021 6:45:00 AM 16.85 62.33 0.126 7.25 2.46 9.01
5/28/2021 7:00:00 AM 16.83 62.294 0.126 7.26 2.23 9.05
5/28/2021 7:15:00 AM 16.8 62.24 0.126 7.27 2.12 9.09
5/28/2021 7:30:00 AM 16.78 62.204 0.126 7.27 2.18 9.13
5/28/2021 7:45:00 AM 16.76 62.168 0.126 7.28 2.15 9.16
5/28/2021 8:00:00 AM 16.75 62.15 0.126 7.28 2.18 9.2
5/28/2021 8:15:00 AM 16.73 62.114 0.126 7.3 2.2 9.23
5/28/2021 8:30:00 AM 16.73 62.114 0.126 7.26 2.45 9.27
5/28/2021 8:45:00 AM 16.72 62.096 0.126 7.31 2.19 9.36
5/28/2021 9:00:00 AM 16.72 62.096 0.126 7.33 2.1 9.47
5/28/2021 9:15:00 AM 16.74 62.132 0.126 7.34 2.16 9.56
5/28/2021 9:30:00 AM 16.76 62.168 0.126 7.35 2.08 9.62
5/28/2021 9:45:00 AM 16.78 62.204 0.125 7.39 2.1 9.68
5/28/2021 10:00:00 AM 16.82 62.276 0.125 7.41 2.15 9.73